<?xml version="1.0" encoding="UTF-8" standalone="no" ?>
<gpx xmlns="http://www.topografix.com/GPX/1/1" xmlns:xsi="http://www.w3.org/2001/XMLSchema-instance" xsi:schemaLocation="http://www.topografix.com/GPX/1/1 http://www.topografix.com/GPX/1/1/gpx.xsd" version="1.1" creator="VisuGPX - https://www.visugpx.com">
  <metadata>
    <name>Via ferrata du Roc du Vent</name>
    <desc><![CDATA[Matériel de via ferrata impératif (baudrier, longue, casque)]]></desc>
  </metadata>
  <trk>
    <name><![CDATA[Via ferrata du Roc du Vent - 09-08-18]]></name>
    <trkseg>
      <trkpt lat="45.69284" lon="6.67004">
        <ele>1828.6108398438</ele>
        <time>2019-08-09T10:24:41Z</time>
      </trkpt>
      <trkpt lat="45.69289" lon="6.67002">
        <ele>1827.5364990234</ele>
        <time>2019-08-09T10:24:47Z</time>
      </trkpt>
      <trkpt lat="45.69293" lon="6.66998">
        <ele>1826.4697265625</ele>
        <time>2019-08-09T10:24:53Z</time>
      </trkpt>
      <trkpt lat="45.69297" lon="6.66998">
        <ele>1825.6790771484</ele>
        <time>2019-08-09T10:24:58Z</time>
      </trkpt>
      <trkpt lat="45.69301" lon="6.67">
        <ele>1824.8905029297</ele>
        <time>2019-08-09T10:25:03Z</time>
      </trkpt>
      <trkpt lat="45.69306" lon="6.67002">
        <ele>1823.9478759766</ele>
        <time>2019-08-09T10:25:07Z</time>
      </trkpt>
      <trkpt lat="45.69309" lon="6.67006">
        <ele>1823.4152832031</ele>
        <time>2019-08-09T10:25:11Z</time>
      </trkpt>
      <trkpt lat="45.69312" lon="6.67013">
        <ele>1822.7684326172</ele>
        <time>2019-08-09T10:25:17Z</time>
      </trkpt>
      <trkpt lat="45.69316" lon="6.67019">
        <ele>1822.2307128906</ele>
        <time>2019-08-09T10:25:22Z</time>
      </trkpt>
      <trkpt lat="45.69318" lon="6.67024">
        <ele>1822.0830078125</ele>
        <time>2019-08-09T10:25:26Z</time>
      </trkpt>
      <trkpt lat="45.69321" lon="6.67031">
        <ele>1821.6070556641</ele>
        <time>2019-08-09T10:25:31Z</time>
      </trkpt>
      <trkpt lat="45.69325" lon="6.67037">
        <ele>1820.7430419922</ele>
        <time>2019-08-09T10:25:36Z</time>
      </trkpt>
      <trkpt lat="45.69328" lon="6.67041">
        <ele>1820.1331787109</ele>
        <time>2019-08-09T10:25:40Z</time>
      </trkpt>
      <trkpt lat="45.69331" lon="6.67045">
        <ele>1819.6428222656</ele>
        <time>2019-08-09T10:25:44Z</time>
      </trkpt>
      <trkpt lat="45.69334" lon="6.67049">
        <ele>1819.2054443359</ele>
        <time>2019-08-09T10:25:48Z</time>
      </trkpt>
      <trkpt lat="45.69338" lon="6.67051">
        <ele>1818.8295898438</ele>
        <time>2019-08-09T10:25:52Z</time>
      </trkpt>
      <trkpt lat="45.69341" lon="6.67054">
        <ele>1818.5</ele>
        <time>2019-08-09T10:25:56Z</time>
      </trkpt>
      <trkpt lat="45.69345" lon="6.67051">
        <ele>1818.3041992188</ele>
        <time>2019-08-09T10:26:08Z</time>
      </trkpt>
      <trkpt lat="45.69343" lon="6.67058">
        <ele>1818.255859375</ele>
        <time>2019-08-09T10:26:18Z</time>
      </trkpt>
      <trkpt lat="45.69345" lon="6.67064">
        <ele>1818.0303955078</ele>
        <time>2019-08-09T10:26:21Z</time>
      </trkpt>
      <trkpt lat="45.69347" lon="6.67069">
        <ele>1817.7735595703</ele>
        <time>2019-08-09T10:26:24Z</time>
      </trkpt>
      <trkpt lat="45.69349" lon="6.67077">
        <ele>1817.48828125</ele>
        <time>2019-08-09T10:26:28Z</time>
      </trkpt>
      <trkpt lat="45.6935" lon="6.67082">
        <ele>1817.2583007812</ele>
        <time>2019-08-09T10:26:31Z</time>
      </trkpt>
      <trkpt lat="45.69352" lon="6.6709">
        <ele>1816.8089599609</ele>
        <time>2019-08-09T10:26:35Z</time>
      </trkpt>
      <trkpt lat="45.69355" lon="6.67096">
        <ele>1816.2424316406</ele>
        <time>2019-08-09T10:26:39Z</time>
      </trkpt>
      <trkpt lat="45.69358" lon="6.67102">
        <ele>1815.6468505859</ele>
        <time>2019-08-09T10:26:43Z</time>
      </trkpt>
      <trkpt lat="45.69361" lon="6.67107">
        <ele>1815.1918945312</ele>
        <time>2019-08-09T10:26:46Z</time>
      </trkpt>
      <trkpt lat="45.69364" lon="6.67113">
        <ele>1814.6785888672</ele>
        <time>2019-08-09T10:26:50Z</time>
      </trkpt>
      <trkpt lat="45.69367" lon="6.6712">
        <ele>1814.4453125</ele>
        <time>2019-08-09T10:26:54Z</time>
      </trkpt>
      <trkpt lat="45.69369" lon="6.67127">
        <ele>1814.2978515625</ele>
        <time>2019-08-09T10:26:58Z</time>
      </trkpt>
      <trkpt lat="45.6937" lon="6.67134">
        <ele>1814.2796630859</ele>
        <time>2019-08-09T10:27:02Z</time>
      </trkpt>
      <trkpt lat="45.6937" lon="6.67142">
        <ele>1814.3680419922</ele>
        <time>2019-08-09T10:27:06Z</time>
      </trkpt>
      <trkpt lat="45.6937" lon="6.67147">
        <ele>1814.3405761719</ele>
        <time>2019-08-09T10:27:09Z</time>
      </trkpt>
      <trkpt lat="45.69371" lon="6.67153">
        <ele>1814.3131103516</ele>
        <time>2019-08-09T10:27:12Z</time>
      </trkpt>
      <trkpt lat="45.69371" lon="6.67159">
        <ele>1814.3131103516</ele>
        <time>2019-08-09T10:27:15Z</time>
      </trkpt>
      <trkpt lat="45.69371" lon="6.67165">
        <ele>1814.2856445312</ele>
        <time>2019-08-09T10:27:18Z</time>
      </trkpt>
      <trkpt lat="45.69373" lon="6.67172">
        <ele>1814.2585449219</ele>
        <time>2019-08-09T10:27:22Z</time>
      </trkpt>
      <trkpt lat="45.69374" lon="6.6718">
        <ele>1814.2863769531</ele>
        <time>2019-08-09T10:27:26Z</time>
      </trkpt>
      <trkpt lat="45.69376" lon="6.67187">
        <ele>1814.3221435547</ele>
        <time>2019-08-09T10:27:30Z</time>
      </trkpt>
      <trkpt lat="45.69378" lon="6.67194">
        <ele>1814.3846435547</ele>
        <time>2019-08-09T10:27:34Z</time>
      </trkpt>
      <trkpt lat="45.69379" lon="6.67199">
        <ele>1814.5284423828</ele>
        <time>2019-08-09T10:27:37Z</time>
      </trkpt>
      <trkpt lat="45.69381" lon="6.67207">
        <ele>1814.7326660156</ele>
        <time>2019-08-09T10:27:41Z</time>
      </trkpt>
      <trkpt lat="45.69382" lon="6.67214">
        <ele>1814.9558105469</ele>
        <time>2019-08-09T10:27:45Z</time>
      </trkpt>
      <trkpt lat="45.69383" lon="6.67221">
        <ele>1815.1567382812</ele>
        <time>2019-08-09T10:27:49Z</time>
      </trkpt>
      <trkpt lat="45.69384" lon="6.67228">
        <ele>1815.3781738281</ele>
        <time>2019-08-09T10:27:53Z</time>
      </trkpt>
      <trkpt lat="45.69385" lon="6.67234">
        <ele>1815.5532226562</ele>
        <time>2019-08-09T10:27:56Z</time>
      </trkpt>
      <trkpt lat="45.69386" lon="6.67241">
        <ele>1815.8073730469</ele>
        <time>2019-08-09T10:28:00Z</time>
      </trkpt>
      <trkpt lat="45.69386" lon="6.67247">
        <ele>1816.0098876953</ele>
        <time>2019-08-09T10:28:03Z</time>
      </trkpt>
      <trkpt lat="45.69385" lon="6.67254">
        <ele>1816.4270019531</ele>
        <time>2019-08-09T10:28:07Z</time>
      </trkpt>
      <trkpt lat="45.69384" lon="6.67262">
        <ele>1816.9517822266</ele>
        <time>2019-08-09T10:28:11Z</time>
      </trkpt>
      <trkpt lat="45.69383" lon="6.6727">
        <ele>1817.4748535156</ele>
        <time>2019-08-09T10:28:15Z</time>
      </trkpt>
      <trkpt lat="45.69384" lon="6.67277">
        <ele>1817.9681396484</ele>
        <time>2019-08-09T10:28:19Z</time>
      </trkpt>
      <trkpt lat="45.69386" lon="6.67284">
        <ele>1818.1882324219</ele>
        <time>2019-08-09T10:28:23Z</time>
      </trkpt>
      <trkpt lat="45.69388" lon="6.67291">
        <ele>1818.4482421875</ele>
        <time>2019-08-09T10:28:27Z</time>
      </trkpt>
      <trkpt lat="45.69392" lon="6.67293">
        <ele>1818.0997314453</ele>
        <time>2019-08-09T10:28:31Z</time>
      </trkpt>
      <trkpt lat="45.69397" lon="6.67292">
        <ele>1817.5568847656</ele>
        <time>2019-08-09T10:28:34Z</time>
      </trkpt>
      <trkpt lat="45.69402" lon="6.6729">
        <ele>1816.8408203125</ele>
        <time>2019-08-09T10:28:38Z</time>
      </trkpt>
      <trkpt lat="45.69407" lon="6.67289">
        <ele>1816.1212158203</ele>
        <time>2019-08-09T10:28:42Z</time>
      </trkpt>
      <trkpt lat="45.69411" lon="6.67289">
        <ele>1815.5747070312</ele>
        <time>2019-08-09T10:28:45Z</time>
      </trkpt>
      <trkpt lat="45.69416" lon="6.67289">
        <ele>1814.8505859375</ele>
        <time>2019-08-09T10:28:49Z</time>
      </trkpt>
      <trkpt lat="45.6942" lon="6.67291">
        <ele>1814.4111328125</ele>
        <time>2019-08-09T10:28:52Z</time>
      </trkpt>
      <trkpt lat="45.69424" lon="6.67292">
        <ele>1813.8892822266</ele>
        <time>2019-08-09T10:28:55Z</time>
      </trkpt>
      <trkpt lat="45.6943" lon="6.67293">
        <ele>1813.1751708984</ele>
        <time>2019-08-09T10:28:59Z</time>
      </trkpt>
      <trkpt lat="45.69436" lon="6.67294">
        <ele>1812.3718261719</ele>
        <time>2019-08-09T10:29:03Z</time>
      </trkpt>
      <trkpt lat="45.69439" lon="6.67294">
        <ele>1812.0045166016</ele>
        <time>2019-08-09T10:29:05Z</time>
      </trkpt>
      <trkpt lat="45.69443" lon="6.67293">
        <ele>1811.3555908203</ele>
        <time>2019-08-09T10:29:08Z</time>
      </trkpt>
      <trkpt lat="45.69447" lon="6.67293">
        <ele>1810.9832763672</ele>
        <time>2019-08-09T10:29:11Z</time>
      </trkpt>
      <trkpt lat="45.69453" lon="6.67292">
        <ele>1810.7388916016</ele>
        <time>2019-08-09T10:29:15Z</time>
      </trkpt>
      <trkpt lat="45.69459" lon="6.67292">
        <ele>1810.46484375</ele>
        <time>2019-08-09T10:29:20Z</time>
      </trkpt>
      <trkpt lat="45.69464" lon="6.67288">
        <ele>1810.2275390625</ele>
        <time>2019-08-09T10:29:24Z</time>
      </trkpt>
      <trkpt lat="45.69468" lon="6.67285">
        <ele>1810.0762939453</ele>
        <time>2019-08-09T10:29:28Z</time>
      </trkpt>
      <trkpt lat="45.69472" lon="6.67283">
        <ele>1810.0070800781</ele>
        <time>2019-08-09T10:29:31Z</time>
      </trkpt>
      <trkpt lat="45.69476" lon="6.67281">
        <ele>1809.8525390625</ele>
        <time>2019-08-09T10:29:36Z</time>
      </trkpt>
      <trkpt lat="45.69481" lon="6.67278">
        <ele>1809.6865234375</ele>
        <time>2019-08-09T10:29:41Z</time>
      </trkpt>
      <trkpt lat="45.69486" lon="6.67279">
        <ele>1809.4954833984</ele>
        <time>2019-08-09T10:29:46Z</time>
      </trkpt>
      <trkpt lat="45.69489" lon="6.67284">
        <ele>1809.3856201172</ele>
        <time>2019-08-09T10:29:50Z</time>
      </trkpt>
      <trkpt lat="45.69494" lon="6.67288">
        <ele>1809.2208251953</ele>
        <time>2019-08-09T10:29:55Z</time>
      </trkpt>
      <trkpt lat="45.69497" lon="6.67293">
        <ele>1809.0971679688</ele>
        <time>2019-08-09T10:30:01Z</time>
      </trkpt>
      <trkpt lat="45.69501" lon="6.67287">
        <ele>1809.0134277344</ele>
        <time>2019-08-09T10:30:10Z</time>
      </trkpt>
      <trkpt lat="45.69502" lon="6.67282">
        <ele>1809.0096435547</ele>
        <time>2019-08-09T10:30:16Z</time>
      </trkpt>
      <trkpt lat="45.695" lon="6.67273">
        <ele>1808.8360595703</ele>
        <time>2019-08-09T10:30:22Z</time>
      </trkpt>
      <trkpt lat="45.69504" lon="6.67271">
        <ele>1808.6579589844</ele>
        <time>2019-08-09T10:30:26Z</time>
      </trkpt>
      <trkpt lat="45.69509" lon="6.6727">
        <ele>1808.5489501953</ele>
        <time>2019-08-09T10:30:30Z</time>
      </trkpt>
      <trkpt lat="45.69513" lon="6.6727">
        <ele>1808.4553222656</ele>
        <time>2019-08-09T10:30:33Z</time>
      </trkpt>
      <trkpt lat="45.69518" lon="6.67266">
        <ele>1808.0518798828</ele>
        <time>2019-08-09T10:30:37Z</time>
      </trkpt>
      <trkpt lat="45.69521" lon="6.67262">
        <ele>1807.5908203125</ele>
        <time>2019-08-09T10:30:40Z</time>
      </trkpt>
      <trkpt lat="45.69524" lon="6.67256">
        <ele>1806.8370361328</ele>
        <time>2019-08-09T10:30:44Z</time>
      </trkpt>
      <trkpt lat="45.69527" lon="6.67249">
        <ele>1805.9907226562</ele>
        <time>2019-08-09T10:30:48Z</time>
      </trkpt>
      <trkpt lat="45.69526" lon="6.67243">
        <ele>1805.4423828125</ele>
        <time>2019-08-09T10:30:51Z</time>
      </trkpt>
      <trkpt lat="45.69527" lon="6.67236">
        <ele>1804.5708007812</ele>
        <time>2019-08-09T10:30:55Z</time>
      </trkpt>
      <trkpt lat="45.69526" lon="6.6723">
        <ele>1803.9929199219</ele>
        <time>2019-08-09T10:31:00Z</time>
      </trkpt>
      <trkpt lat="45.69527" lon="6.67224">
        <ele>1803.2425537109</ele>
        <time>2019-08-09T10:31:04Z</time>
      </trkpt>
      <trkpt lat="45.69528" lon="6.67217">
        <ele>1802.6723632812</ele>
        <time>2019-08-09T10:31:08Z</time>
      </trkpt>
      <trkpt lat="45.69531" lon="6.6721">
        <ele>1802.5446777344</ele>
        <time>2019-08-09T10:31:12Z</time>
      </trkpt>
      <trkpt lat="45.69532" lon="6.67203">
        <ele>1802.3870849609</ele>
        <time>2019-08-09T10:31:16Z</time>
      </trkpt>
      <trkpt lat="45.69536" lon="6.67199">
        <ele>1802.9393310547</ele>
        <time>2019-08-09T10:31:21Z</time>
      </trkpt>
      <trkpt lat="45.69539" lon="6.67195">
        <ele>1803.5017089844</ele>
        <time>2019-08-09T10:31:26Z</time>
      </trkpt>
      <trkpt lat="45.69542" lon="6.67191">
        <ele>1804.5623779297</ele>
        <time>2019-08-09T10:31:31Z</time>
      </trkpt>
      <trkpt lat="45.69546" lon="6.67188">
        <ele>1805.8740234375</ele>
        <time>2019-08-09T10:31:36Z</time>
      </trkpt>
      <trkpt lat="45.69551" lon="6.67184">
        <ele>1807.6024169922</ele>
        <time>2019-08-09T10:31:44Z</time>
      </trkpt>
      <trkpt lat="45.69556" lon="6.67184">
        <ele>1809.1088867188</ele>
        <time>2019-08-09T10:31:50Z</time>
      </trkpt>
      <trkpt lat="45.69561" lon="6.67182">
        <ele>1810.6417236328</ele>
        <time>2019-08-09T10:31:56Z</time>
      </trkpt>
      <trkpt lat="45.69564" lon="6.67178">
        <ele>1812.2042236328</ele>
        <time>2019-08-09T10:32:02Z</time>
      </trkpt>
      <trkpt lat="45.69566" lon="6.67172">
        <ele>1813.5610351562</ele>
        <time>2019-08-09T10:32:08Z</time>
      </trkpt>
      <trkpt lat="45.69568" lon="6.67167">
        <ele>1814.693359375</ele>
        <time>2019-08-09T10:32:13Z</time>
      </trkpt>
      <trkpt lat="45.69569" lon="6.6716">
        <ele>1815.7868652344</ele>
        <time>2019-08-09T10:32:18Z</time>
      </trkpt>
      <trkpt lat="45.69569" lon="6.67154">
        <ele>1816.8649902344</ele>
        <time>2019-08-09T10:32:23Z</time>
      </trkpt>
      <trkpt lat="45.6957" lon="6.67147">
        <ele>1817.9017333984</ele>
        <time>2019-08-09T10:32:29Z</time>
      </trkpt>
      <trkpt lat="45.69571" lon="6.67141">
        <ele>1819.0416259766</ele>
        <time>2019-08-09T10:32:35Z</time>
      </trkpt>
      <trkpt lat="45.69571" lon="6.67135">
        <ele>1820.2766113281</ele>
        <time>2019-08-09T10:32:41Z</time>
      </trkpt>
      <trkpt lat="45.69572" lon="6.67128">
        <ele>1821.7023925781</ele>
        <time>2019-08-09T10:32:47Z</time>
      </trkpt>
      <trkpt lat="45.69571" lon="6.67121">
        <ele>1822.8081054688</ele>
        <time>2019-08-09T10:32:53Z</time>
      </trkpt>
      <trkpt lat="45.69569" lon="6.67115">
        <ele>1823.6669921875</ele>
        <time>2019-08-09T10:32:59Z</time>
      </trkpt>
      <trkpt lat="45.69567" lon="6.6711">
        <ele>1824.2117919922</ele>
        <time>2019-08-09T10:33:04Z</time>
      </trkpt>
      <trkpt lat="45.69563" lon="6.67102">
        <ele>1825.1490478516</ele>
        <time>2019-08-09T10:33:11Z</time>
      </trkpt>
      <trkpt lat="45.69561" lon="6.67097">
        <ele>1825.9180908203</ele>
        <time>2019-08-09T10:33:17Z</time>
      </trkpt>
      <trkpt lat="45.69559" lon="6.67092">
        <ele>1826.5189208984</ele>
        <time>2019-08-09T10:33:22Z</time>
      </trkpt>
      <trkpt lat="45.69557" lon="6.67087">
        <ele>1827.3360595703</ele>
        <time>2019-08-09T10:33:27Z</time>
      </trkpt>
      <trkpt lat="45.69555" lon="6.6708">
        <ele>1828.3181152344</ele>
        <time>2019-08-09T10:33:34Z</time>
      </trkpt>
      <trkpt lat="45.69553" lon="6.67073">
        <ele>1829.2141113281</ele>
        <time>2019-08-09T10:33:41Z</time>
      </trkpt>
      <trkpt lat="45.69552" lon="6.67067">
        <ele>1830.3265380859</ele>
        <time>2019-08-09T10:33:47Z</time>
      </trkpt>
      <trkpt lat="45.6955" lon="6.67061">
        <ele>1831.0577392578</ele>
        <time>2019-08-09T10:33:52Z</time>
      </trkpt>
      <trkpt lat="45.69548" lon="6.67055">
        <ele>1831.7788085938</ele>
        <time>2019-08-09T10:33:58Z</time>
      </trkpt>
      <trkpt lat="45.69546" lon="6.67049">
        <ele>1832.2951660156</ele>
        <time>2019-08-09T10:34:03Z</time>
      </trkpt>
      <trkpt lat="45.69544" lon="6.67043">
        <ele>1832.9183349609</ele>
        <time>2019-08-09T10:34:08Z</time>
      </trkpt>
      <trkpt lat="45.69542" lon="6.67036">
        <ele>1833.5098876953</ele>
        <time>2019-08-09T10:34:14Z</time>
      </trkpt>
      <trkpt lat="45.6954" lon="6.67029">
        <ele>1833.9674072266</ele>
        <time>2019-08-09T10:34:19Z</time>
      </trkpt>
      <trkpt lat="45.69538" lon="6.67022">
        <ele>1833.9334716797</ele>
        <time>2019-08-09T10:34:24Z</time>
      </trkpt>
      <trkpt lat="45.69537" lon="6.67016">
        <ele>1834.1385498047</ele>
        <time>2019-08-09T10:34:28Z</time>
      </trkpt>
      <trkpt lat="45.69537" lon="6.6701">
        <ele>1834.3723144531</ele>
        <time>2019-08-09T10:34:32Z</time>
      </trkpt>
      <trkpt lat="45.69537" lon="6.67003">
        <ele>1834.9477539062</ele>
        <time>2019-08-09T10:34:36Z</time>
      </trkpt>
      <trkpt lat="45.69538" lon="6.66996">
        <ele>1835.6379394531</ele>
        <time>2019-08-09T10:34:40Z</time>
      </trkpt>
      <trkpt lat="45.69538" lon="6.66991">
        <ele>1836.2362060547</ele>
        <time>2019-08-09T10:34:43Z</time>
      </trkpt>
      <trkpt lat="45.69539" lon="6.66983">
        <ele>1836.9692382812</ele>
        <time>2019-08-09T10:34:47Z</time>
      </trkpt>
      <trkpt lat="45.69538" lon="6.66977">
        <ele>1837.3784179688</ele>
        <time>2019-08-09T10:34:51Z</time>
      </trkpt>
      <trkpt lat="45.69538" lon="6.66971">
        <ele>1837.712890625</ele>
        <time>2019-08-09T10:34:54Z</time>
      </trkpt>
      <trkpt lat="45.69538" lon="6.66964">
        <ele>1838.4991455078</ele>
        <time>2019-08-09T10:34:58Z</time>
      </trkpt>
      <trkpt lat="45.6954" lon="6.66958">
        <ele>1839.6838378906</ele>
        <time>2019-08-09T10:35:02Z</time>
      </trkpt>
      <trkpt lat="45.69545" lon="6.66958">
        <ele>1841.587890625</ele>
        <time>2019-08-09T10:35:08Z</time>
      </trkpt>
      <trkpt lat="45.69548" lon="6.66961">
        <ele>1842.1784667969</ele>
        <time>2019-08-09T10:35:12Z</time>
      </trkpt>
      <trkpt lat="45.69549" lon="6.66965">
        <ele>1842.2758789062</ele>
        <time>2019-08-09T10:35:15Z</time>
      </trkpt>
      <trkpt lat="45.69552" lon="6.66971">
        <ele>1842.6401367188</ele>
        <time>2019-08-09T10:35:20Z</time>
      </trkpt>
      <trkpt lat="45.69555" lon="6.66975">
        <ele>1843.6589355469</ele>
        <time>2019-08-09T10:35:25Z</time>
      </trkpt>
      <trkpt lat="45.69559" lon="6.66979">
        <ele>1844.8654785156</ele>
        <time>2019-08-09T10:35:31Z</time>
      </trkpt>
      <trkpt lat="45.69564" lon="6.66983">
        <ele>1846.1499023438</ele>
        <time>2019-08-09T10:35:37Z</time>
      </trkpt>
      <trkpt lat="45.69568" lon="6.66986">
        <ele>1847.1704101562</ele>
        <time>2019-08-09T10:35:42Z</time>
      </trkpt>
      <trkpt lat="45.69572" lon="6.66991">
        <ele>1848.2995605469</ele>
        <time>2019-08-09T10:35:48Z</time>
      </trkpt>
      <trkpt lat="45.69577" lon="6.66994">
        <ele>1849.5970458984</ele>
        <time>2019-08-09T10:35:54Z</time>
      </trkpt>
      <trkpt lat="45.6958" lon="6.66994">
        <ele>1850.3917236328</ele>
        <time>2019-08-09T10:35:58Z</time>
      </trkpt>
      <trkpt lat="45.69582" lon="6.66994">
        <ele>1851.1361083984</ele>
        <time>2019-08-09T10:36:01Z</time>
      </trkpt>
      <trkpt lat="45.69586" lon="6.66997">
        <ele>1851.7628173828</ele>
        <time>2019-08-09T10:36:06Z</time>
      </trkpt>
      <trkpt lat="45.69591" lon="6.66994">
        <ele>1852.8751220703</ele>
        <time>2019-08-09T10:36:12Z</time>
      </trkpt>
      <trkpt lat="45.69594" lon="6.66987">
        <ele>1853.8157958984</ele>
        <time>2019-08-09T10:36:19Z</time>
      </trkpt>
      <trkpt lat="45.69596" lon="6.66984">
        <ele>1854.4544677734</ele>
        <time>2019-08-09T10:36:22Z</time>
      </trkpt>
      <trkpt lat="45.696" lon="6.66983">
        <ele>1855.1994628906</ele>
        <time>2019-08-09T10:36:26Z</time>
      </trkpt>
      <trkpt lat="45.69604" lon="6.66984">
        <ele>1855.8654785156</ele>
        <time>2019-08-09T10:36:30Z</time>
      </trkpt>
      <trkpt lat="45.69609" lon="6.66985">
        <ele>1856.6208496094</ele>
        <time>2019-08-09T10:36:35Z</time>
      </trkpt>
      <trkpt lat="45.69613" lon="6.66987">
        <ele>1857.5964355469</ele>
        <time>2019-08-09T10:36:40Z</time>
      </trkpt>
      <trkpt lat="45.69618" lon="6.66984">
        <ele>1859.1535644531</ele>
        <time>2019-08-09T10:36:46Z</time>
      </trkpt>
      <trkpt lat="45.69619" lon="6.66982">
        <ele>1860.0114746094</ele>
        <time>2019-08-09T10:36:50Z</time>
      </trkpt>
      <trkpt lat="45.69621" lon="6.66976">
        <ele>1860.9672851562</ele>
        <time>2019-08-09T10:36:55Z</time>
      </trkpt>
      <trkpt lat="45.69621" lon="6.6697">
        <ele>1861.5120849609</ele>
        <time>2019-08-09T10:37:01Z</time>
      </trkpt>
      <trkpt lat="45.69624" lon="6.66973">
        <ele>1862.6423339844</ele>
        <time>2019-08-09T10:37:10Z</time>
      </trkpt>
      <trkpt lat="45.69628" lon="6.66978">
        <ele>1863.3822021484</ele>
        <time>2019-08-09T10:37:17Z</time>
      </trkpt>
      <trkpt lat="45.69632" lon="6.6698">
        <ele>1864.3758544922</ele>
        <time>2019-08-09T10:37:25Z</time>
      </trkpt>
      <trkpt lat="45.69635" lon="6.66984">
        <ele>1864.4812011719</ele>
        <time>2019-08-09T10:37:31Z</time>
      </trkpt>
      <trkpt lat="45.69638" lon="6.66986">
        <ele>1865.3343505859</ele>
        <time>2019-08-09T10:37:40Z</time>
      </trkpt>
      <trkpt lat="45.69642" lon="6.6699">
        <ele>1866.0952148438</ele>
        <time>2019-08-09T10:37:46Z</time>
      </trkpt>
      <trkpt lat="45.69647" lon="6.66989">
        <ele>1868.3482666016</ele>
        <time>2019-08-09T10:37:53Z</time>
      </trkpt>
      <trkpt lat="45.69651" lon="6.6699">
        <ele>1870.0437011719</ele>
        <time>2019-08-09T10:37:59Z</time>
      </trkpt>
      <trkpt lat="45.69655" lon="6.66991">
        <ele>1871.9178466797</ele>
        <time>2019-08-09T10:38:08Z</time>
      </trkpt>
      <trkpt lat="45.69655" lon="6.66985">
        <ele>1873.1552734375</ele>
        <time>2019-08-09T10:38:17Z</time>
      </trkpt>
      <trkpt lat="45.69659" lon="6.66986">
        <ele>1874.4814453125</ele>
        <time>2019-08-09T10:38:25Z</time>
      </trkpt>
      <trkpt lat="45.69663" lon="6.6699">
        <ele>1875.3856201172</ele>
        <time>2019-08-09T10:38:31Z</time>
      </trkpt>
      <trkpt lat="45.69666" lon="6.66996">
        <ele>1875.3040771484</ele>
        <time>2019-08-09T10:38:37Z</time>
      </trkpt>
      <trkpt lat="45.69669" lon="6.66998">
        <ele>1876.4291992188</ele>
        <time>2019-08-09T10:38:43Z</time>
      </trkpt>
      <trkpt lat="45.69674" lon="6.67002">
        <ele>1876.9161376953</ele>
        <time>2019-08-09T10:38:49Z</time>
      </trkpt>
      <trkpt lat="45.69678" lon="6.67004">
        <ele>1877.6558837891</ele>
        <time>2019-08-09T10:38:54Z</time>
      </trkpt>
      <trkpt lat="45.69678" lon="6.66998">
        <ele>1879.5308837891</ele>
        <time>2019-08-09T10:39:04Z</time>
      </trkpt>
      <trkpt lat="45.69674" lon="6.66993">
        <ele>1879.3431396484</ele>
        <time>2019-08-09T10:39:10Z</time>
      </trkpt>
      <trkpt lat="45.69677" lon="6.66989">
        <ele>1881.3465576172</ele>
        <time>2019-08-09T10:39:20Z</time>
      </trkpt>
      <trkpt lat="45.6968" lon="6.66993">
        <ele>1881.5393066406</ele>
        <time>2019-08-09T10:39:25Z</time>
      </trkpt>
      <trkpt lat="45.69684" lon="6.66994">
        <ele>1882.9255371094</ele>
        <time>2019-08-09T10:39:31Z</time>
      </trkpt>
      <trkpt lat="45.69688" lon="6.66997">
        <ele>1883.6717529297</ele>
        <time>2019-08-09T10:39:36Z</time>
      </trkpt>
      <trkpt lat="45.69691" lon="6.66996">
        <ele>1884.7794189453</ele>
        <time>2019-08-09T10:39:39Z</time>
      </trkpt>
      <trkpt lat="45.69693" lon="6.66989">
        <ele>1887.5249023438</ele>
        <time>2019-08-09T10:39:49Z</time>
      </trkpt>
      <trkpt lat="45.69692" lon="6.66983">
        <ele>1888.9114990234</ele>
        <time>2019-08-09T10:39:59Z</time>
      </trkpt>
      <trkpt lat="45.69694" lon="6.66979">
        <ele>1890.6458740234</ele>
        <time>2019-08-09T10:40:07Z</time>
      </trkpt>
      <trkpt lat="45.69696" lon="6.66974">
        <ele>1893.1075439453</ele>
        <time>2019-08-09T10:40:15Z</time>
      </trkpt>
      <trkpt lat="45.69698" lon="6.66968">
        <ele>1895.7803955078</ele>
        <time>2019-08-09T10:40:29Z</time>
      </trkpt>
      <trkpt lat="45.69697" lon="6.66963">
        <ele>1896.4361572266</ele>
        <time>2019-08-09T10:40:36Z</time>
      </trkpt>
      <trkpt lat="45.697" lon="6.66957">
        <ele>1898.7947998047</ele>
        <time>2019-08-09T10:40:44Z</time>
      </trkpt>
      <trkpt lat="45.697" lon="6.6695">
        <ele>1900.267578125</ele>
        <time>2019-08-09T10:40:52Z</time>
      </trkpt>
      <trkpt lat="45.69699" lon="6.66944">
        <ele>1901.4140625</ele>
        <time>2019-08-09T10:40:59Z</time>
      </trkpt>
      <trkpt lat="45.69698" lon="6.66939">
        <ele>1901.4267578125</ele>
        <time>2019-08-09T10:41:04Z</time>
      </trkpt>
      <trkpt lat="45.697" lon="6.66932">
        <ele>1903.1647949219</ele>
        <time>2019-08-09T10:41:16Z</time>
      </trkpt>
      <trkpt lat="45.69702" lon="6.66932">
        <ele>1904.1513671875</ele>
        <time>2019-08-09T10:41:23Z</time>
      </trkpt>
      <trkpt lat="45.69706" lon="6.66932">
        <ele>1906.5323486328</ele>
        <time>2019-08-09T10:41:32Z</time>
      </trkpt>
      <trkpt lat="45.69711" lon="6.66929">
        <ele>1909.095703125</ele>
        <time>2019-08-09T10:41:45Z</time>
      </trkpt>
      <trkpt lat="45.69715" lon="6.66926">
        <ele>1911.7425537109</ele>
        <time>2019-08-09T10:41:57Z</time>
      </trkpt>
      <trkpt lat="45.69717" lon="6.6693">
        <ele>1912.4345703125</ele>
        <time>2019-08-09T10:42:05Z</time>
      </trkpt>
      <trkpt lat="45.69721" lon="6.66926">
        <ele>1914.73828125</ele>
        <time>2019-08-09T10:42:17Z</time>
      </trkpt>
      <trkpt lat="45.69723" lon="6.6693">
        <ele>1915.4080810547</ele>
        <time>2019-08-09T10:42:25Z</time>
      </trkpt>
      <trkpt lat="45.69727" lon="6.66934">
        <ele>1917.2703857422</ele>
        <time>2019-08-09T10:42:37Z</time>
      </trkpt>
      <trkpt lat="45.69729" lon="6.66929">
        <ele>1919.2869873047</ele>
        <time>2019-08-09T10:42:44Z</time>
      </trkpt>
      <trkpt lat="45.69729" lon="6.66922">
        <ele>1920.1149902344</ele>
        <time>2019-08-09T10:42:52Z</time>
      </trkpt>
      <trkpt lat="45.69734" lon="6.66923">
        <ele>1922.7644042969</ele>
        <time>2019-08-09T10:43:09Z</time>
      </trkpt>
      <trkpt lat="45.69735" lon="6.66917">
        <ele>1924.0145263672</ele>
        <time>2019-08-09T10:43:18Z</time>
      </trkpt>
      <trkpt lat="45.69737" lon="6.66911">
        <ele>1925.3345947266</ele>
        <time>2019-08-09T10:43:28Z</time>
      </trkpt>
      <trkpt lat="45.69741" lon="6.66909">
        <ele>1927.8581542969</ele>
        <time>2019-08-09T10:43:40Z</time>
      </trkpt>
      <trkpt lat="45.69743" lon="6.66916">
        <ele>1928.4571533203</ele>
        <time>2019-08-09T10:43:46Z</time>
      </trkpt>
      <trkpt lat="45.69745" lon="6.66923">
        <ele>1928.927734375</ele>
        <time>2019-08-09T10:43:50Z</time>
      </trkpt>
      <trkpt lat="45.69747" lon="6.6693">
        <ele>1929.1818847656</ele>
        <time>2019-08-09T10:43:55Z</time>
      </trkpt>
      <trkpt lat="45.69749" lon="6.66936">
        <ele>1929.8288574219</ele>
        <time>2019-08-09T10:43:59Z</time>
      </trkpt>
      <trkpt lat="45.6975" lon="6.66941">
        <ele>1930.1381835938</ele>
        <time>2019-08-09T10:44:03Z</time>
      </trkpt>
      <trkpt lat="45.69751" lon="6.66947">
        <ele>1930.2144775391</ele>
        <time>2019-08-09T10:44:08Z</time>
      </trkpt>
      <trkpt lat="45.69753" lon="6.66954">
        <ele>1929.6231689453</ele>
        <time>2019-08-09T10:44:16Z</time>
      </trkpt>
      <trkpt lat="45.69756" lon="6.66958">
        <ele>1930.5112304688</ele>
        <time>2019-08-09T10:44:21Z</time>
      </trkpt>
      <trkpt lat="45.6976" lon="6.66962">
        <ele>1931.3450927734</ele>
        <time>2019-08-09T10:44:26Z</time>
      </trkpt>
      <trkpt lat="45.69762" lon="6.66969">
        <ele>1930.7712402344</ele>
        <time>2019-08-09T10:44:31Z</time>
      </trkpt>
      <trkpt lat="45.69766" lon="6.66971">
        <ele>1932.5185546875</ele>
        <time>2019-08-09T10:44:36Z</time>
      </trkpt>
      <trkpt lat="45.6977" lon="6.66972">
        <ele>1934.0567626953</ele>
        <time>2019-08-09T10:44:41Z</time>
      </trkpt>
      <trkpt lat="45.69774" lon="6.66974">
        <ele>1935.5775146484</ele>
        <time>2019-08-09T10:44:45Z</time>
      </trkpt>
      <trkpt lat="45.69779" lon="6.66972">
        <ele>1938.4151611328</ele>
        <time>2019-08-09T10:44:50Z</time>
      </trkpt>
      <trkpt lat="45.69784" lon="6.66971">
        <ele>1940.0374755859</ele>
        <time>2019-08-09T10:44:55Z</time>
      </trkpt>
      <trkpt lat="45.69789" lon="6.6697">
        <ele>1941.7188720703</ele>
        <time>2019-08-09T10:45:01Z</time>
      </trkpt>
      <trkpt lat="45.69795" lon="6.66968">
        <ele>1943.5964355469</ele>
        <time>2019-08-09T10:45:08Z</time>
      </trkpt>
      <trkpt lat="45.69799" lon="6.66967">
        <ele>1945.18359375</ele>
        <time>2019-08-09T10:45:14Z</time>
      </trkpt>
      <trkpt lat="45.69804" lon="6.66965">
        <ele>1946.5904541016</ele>
        <time>2019-08-09T10:45:20Z</time>
      </trkpt>
      <trkpt lat="45.69808" lon="6.66962">
        <ele>1948.0272216797</ele>
        <time>2019-08-09T10:45:27Z</time>
      </trkpt>
      <trkpt lat="45.69812" lon="6.66958">
        <ele>1949.4432373047</ele>
        <time>2019-08-09T10:45:34Z</time>
      </trkpt>
      <trkpt lat="45.69816" lon="6.66957">
        <ele>1950.5063476562</ele>
        <time>2019-08-09T10:45:40Z</time>
      </trkpt>
      <trkpt lat="45.6982" lon="6.66956">
        <ele>1951.4791259766</ele>
        <time>2019-08-09T10:45:46Z</time>
      </trkpt>
      <trkpt lat="45.69824" lon="6.66954">
        <ele>1952.3543701172</ele>
        <time>2019-08-09T10:45:51Z</time>
      </trkpt>
      <trkpt lat="45.69828" lon="6.66955">
        <ele>1953.2084960938</ele>
        <time>2019-08-09T10:45:58Z</time>
      </trkpt>
      <trkpt lat="45.69833" lon="6.66957">
        <ele>1953.9709472656</ele>
        <time>2019-08-09T10:46:04Z</time>
      </trkpt>
      <trkpt lat="45.69836" lon="6.6696">
        <ele>1954.5451660156</ele>
        <time>2019-08-09T10:46:10Z</time>
      </trkpt>
      <trkpt lat="45.69839" lon="6.66956">
        <ele>1955.6799316406</ele>
        <time>2019-08-09T10:46:15Z</time>
      </trkpt>
      <trkpt lat="45.69843" lon="6.66952">
        <ele>1957.05078125</ele>
        <time>2019-08-09T10:46:22Z</time>
      </trkpt>
      <trkpt lat="45.69848" lon="6.6695">
        <ele>1958.3612060547</ele>
        <time>2019-08-09T10:46:29Z</time>
      </trkpt>
      <trkpt lat="45.69851" lon="6.66951">
        <ele>1959.1672363281</ele>
        <time>2019-08-09T10:46:33Z</time>
      </trkpt>
      <trkpt lat="45.69855" lon="6.66954">
        <ele>1960.3428955078</ele>
        <time>2019-08-09T10:46:41Z</time>
      </trkpt>
      <trkpt lat="45.69859" lon="6.66953">
        <ele>1961.2956542969</ele>
        <time>2019-08-09T10:46:48Z</time>
      </trkpt>
      <trkpt lat="45.69862" lon="6.66955">
        <ele>1962.4229736328</ele>
        <time>2019-08-09T10:46:55Z</time>
      </trkpt>
      <trkpt lat="45.69867" lon="6.66952">
        <ele>1964.0766601562</ele>
        <time>2019-08-09T10:47:03Z</time>
      </trkpt>
      <trkpt lat="45.69871" lon="6.66949">
        <ele>1965.3094482422</ele>
        <time>2019-08-09T10:47:10Z</time>
      </trkpt>
      <trkpt lat="45.69877" lon="6.6695">
        <ele>1967.0852050781</ele>
        <time>2019-08-09T10:47:20Z</time>
      </trkpt>
      <trkpt lat="45.69881" lon="6.66948">
        <ele>1968.5554199219</ele>
        <time>2019-08-09T10:47:29Z</time>
      </trkpt>
      <trkpt lat="45.69885" lon="6.66948">
        <ele>1969.6722412109</ele>
        <time>2019-08-09T10:47:35Z</time>
      </trkpt>
      <trkpt lat="45.69889" lon="6.66949">
        <ele>1971.0782470703</ele>
        <time>2019-08-09T10:47:42Z</time>
      </trkpt>
      <trkpt lat="45.69892" lon="6.66947">
        <ele>1972.1485595703</ele>
        <time>2019-08-09T10:47:48Z</time>
      </trkpt>
      <trkpt lat="45.69896" lon="6.66948">
        <ele>1973.8642578125</ele>
        <time>2019-08-09T10:47:57Z</time>
      </trkpt>
      <trkpt lat="45.699" lon="6.66949">
        <ele>1975.3492431641</ele>
        <time>2019-08-09T10:48:04Z</time>
      </trkpt>
      <trkpt lat="45.69905" lon="6.66947">
        <ele>1976.8796386719</ele>
        <time>2019-08-09T10:48:13Z</time>
      </trkpt>
      <trkpt lat="45.69906" lon="6.66941">
        <ele>1978.0659179688</ele>
        <time>2019-08-09T10:48:20Z</time>
      </trkpt>
      <trkpt lat="45.69911" lon="6.66942">
        <ele>1979.4357910156</ele>
        <time>2019-08-09T10:48:28Z</time>
      </trkpt>
      <trkpt lat="45.69913" lon="6.66938">
        <ele>1981.1661376953</ele>
        <time>2019-08-09T10:48:34Z</time>
      </trkpt>
      <trkpt lat="45.69918" lon="6.66935">
        <ele>1983.5504150391</ele>
        <time>2019-08-09T10:48:44Z</time>
      </trkpt>
      <trkpt lat="45.69922" lon="6.6693">
        <ele>1985.8090820312</ele>
        <time>2019-08-09T10:48:52Z</time>
      </trkpt>
      <trkpt lat="45.69925" lon="6.66928">
        <ele>1987.2935791016</ele>
        <time>2019-08-09T10:48:58Z</time>
      </trkpt>
      <trkpt lat="45.6993" lon="6.66924">
        <ele>1989.2919921875</ele>
        <time>2019-08-09T10:49:08Z</time>
      </trkpt>
      <trkpt lat="45.69933" lon="6.6692">
        <ele>1990.7772216797</ele>
        <time>2019-08-09T10:49:15Z</time>
      </trkpt>
      <trkpt lat="45.69936" lon="6.66918">
        <ele>1991.6563720703</ele>
        <time>2019-08-09T10:49:20Z</time>
      </trkpt>
      <trkpt lat="45.6994" lon="6.66916">
        <ele>1992.8875732422</ele>
        <time>2019-08-09T10:49:30Z</time>
      </trkpt>
      <trkpt lat="45.69944" lon="6.66919">
        <ele>1993.5926513672</ele>
        <time>2019-08-09T10:49:37Z</time>
      </trkpt>
      <trkpt lat="45.69948" lon="6.6692">
        <ele>1995.1179199219</ele>
        <time>2019-08-09T10:49:46Z</time>
      </trkpt>
      <trkpt lat="45.69952" lon="6.66919">
        <ele>1996.5599365234</ele>
        <time>2019-08-09T10:49:55Z</time>
      </trkpt>
      <trkpt lat="45.69954" lon="6.66913">
        <ele>1998.1829833984</ele>
        <time>2019-08-09T10:50:03Z</time>
      </trkpt>
      <trkpt lat="45.69958" lon="6.66911">
        <ele>1999.7706298828</ele>
        <time>2019-08-09T10:50:12Z</time>
      </trkpt>
      <trkpt lat="45.69963" lon="6.66908">
        <ele>2001.7791748047</ele>
        <time>2019-08-09T10:50:21Z</time>
      </trkpt>
      <trkpt lat="45.69966" lon="6.66908">
        <ele>2002.8394775391</ele>
        <time>2019-08-09T10:50:27Z</time>
      </trkpt>
      <trkpt lat="45.6997" lon="6.66905">
        <ele>2004.6684570312</ele>
        <time>2019-08-09T10:50:38Z</time>
      </trkpt>
      <trkpt lat="45.69975" lon="6.66904">
        <ele>2006.2139892578</ele>
        <time>2019-08-09T10:50:47Z</time>
      </trkpt>
      <trkpt lat="45.69978" lon="6.66903">
        <ele>2007.4140625</ele>
        <time>2019-08-09T10:50:54Z</time>
      </trkpt>
      <trkpt lat="45.69983" lon="6.66906">
        <ele>2008.8076171875</ele>
        <time>2019-08-09T10:51:05Z</time>
      </trkpt>
      <trkpt lat="45.69985" lon="6.66903">
        <ele>2009.9488525391</ele>
        <time>2019-08-09T10:51:10Z</time>
      </trkpt>
      <trkpt lat="45.69986" lon="6.66898">
        <ele>2010.5672607422</ele>
        <time>2019-08-09T10:51:15Z</time>
      </trkpt>
      <trkpt lat="45.69988" lon="6.66894">
        <ele>2011.1613769531</ele>
        <time>2019-08-09T10:51:22Z</time>
      </trkpt>
      <trkpt lat="45.69991" lon="6.66893">
        <ele>2012.2281494141</ele>
        <time>2019-08-09T10:51:30Z</time>
      </trkpt>
      <trkpt lat="45.69994" lon="6.6689">
        <ele>2013.3537597656</ele>
        <time>2019-08-09T10:51:37Z</time>
      </trkpt>
      <trkpt lat="45.69998" lon="6.66888">
        <ele>2014.7443847656</ele>
        <time>2019-08-09T10:51:44Z</time>
      </trkpt>
      <trkpt lat="45.70003" lon="6.66886">
        <ele>2016.7785644531</ele>
        <time>2019-08-09T10:51:54Z</time>
      </trkpt>
      <trkpt lat="45.70008" lon="6.66885">
        <ele>2018.669921875</ele>
        <time>2019-08-09T10:52:03Z</time>
      </trkpt>
      <trkpt lat="45.70012" lon="6.66889">
        <ele>2019.5715332031</ele>
        <time>2019-08-09T10:52:12Z</time>
      </trkpt>
      <trkpt lat="45.70016" lon="6.66889">
        <ele>2021.2678222656</ele>
        <time>2019-08-09T10:52:22Z</time>
      </trkpt>
      <trkpt lat="45.7002" lon="6.66887">
        <ele>2023.2408447266</ele>
        <time>2019-08-09T10:52:30Z</time>
      </trkpt>
      <trkpt lat="45.70022" lon="6.66883">
        <ele>2024.4205322266</ele>
        <time>2019-08-09T10:52:37Z</time>
      </trkpt>
      <trkpt lat="45.70027" lon="6.66882">
        <ele>2026.263671875</ele>
        <time>2019-08-09T10:52:53Z</time>
      </trkpt>
      <trkpt lat="45.70033" lon="6.66883">
        <ele>2028.4616699219</ele>
        <time>2019-08-09T10:53:04Z</time>
      </trkpt>
      <trkpt lat="45.70036" lon="6.66886">
        <ele>2029.8796386719</ele>
        <time>2019-08-09T10:53:13Z</time>
      </trkpt>
      <trkpt lat="45.70039" lon="6.6689">
        <ele>2031.0485839844</ele>
        <time>2019-08-09T10:53:23Z</time>
      </trkpt>
      <trkpt lat="45.70043" lon="6.66885">
        <ele>2032.7669677734</ele>
        <time>2019-08-09T10:53:31Z</time>
      </trkpt>
      <trkpt lat="45.70045" lon="6.66889">
        <ele>2033.5289306641</ele>
        <time>2019-08-09T10:53:41Z</time>
      </trkpt>
      <trkpt lat="45.70047" lon="6.66896">
        <ele>2035.4893798828</ele>
        <time>2019-08-09T10:53:51Z</time>
      </trkpt>
      <trkpt lat="45.70048" lon="6.66902">
        <ele>2036.8304443359</ele>
        <time>2019-08-09T10:53:59Z</time>
      </trkpt>
      <trkpt lat="45.70052" lon="6.66903">
        <ele>2039.1195068359</ele>
        <time>2019-08-09T10:54:11Z</time>
      </trkpt>
      <trkpt lat="45.70055" lon="6.66903">
        <ele>2040.4686279297</ele>
        <time>2019-08-09T10:54:21Z</time>
      </trkpt>
      <trkpt lat="45.70058" lon="6.66898">
        <ele>2041.0269775391</ele>
        <time>2019-08-09T10:54:26Z</time>
      </trkpt>
      <trkpt lat="45.70063" lon="6.66897">
        <ele>2042.9031982422</ele>
        <time>2019-08-09T10:54:36Z</time>
      </trkpt>
      <trkpt lat="45.70063" lon="6.66903">
        <ele>2043.8576660156</ele>
        <time>2019-08-09T10:54:43Z</time>
      </trkpt>
      <trkpt lat="45.70067" lon="6.66906">
        <ele>2046.2265625</ele>
        <time>2019-08-09T10:54:53Z</time>
      </trkpt>
      <trkpt lat="45.70071" lon="6.66909">
        <ele>2048.5852050781</ele>
        <time>2019-08-09T10:55:03Z</time>
      </trkpt>
      <trkpt lat="45.70073" lon="6.66914">
        <ele>2050.8649902344</ele>
        <time>2019-08-09T10:55:13Z</time>
      </trkpt>
      <trkpt lat="45.70072" lon="6.66921">
        <ele>2051.6811523438</ele>
        <time>2019-08-09T10:55:20Z</time>
      </trkpt>
      <trkpt lat="45.70073" lon="6.66926">
        <ele>2053.189453125</ele>
        <time>2019-08-09T10:55:28Z</time>
      </trkpt>
      <trkpt lat="45.70072" lon="6.66932">
        <ele>2054.2700195312</ele>
        <time>2019-08-09T10:55:36Z</time>
      </trkpt>
      <trkpt lat="45.7007" lon="6.66939">
        <ele>2054.8937988281</ele>
        <time>2019-08-09T10:55:46Z</time>
      </trkpt>
      <trkpt lat="45.70069" lon="6.66944">
        <ele>2055.740234375</ele>
        <time>2019-08-09T10:55:53Z</time>
      </trkpt>
      <trkpt lat="45.7007" lon="6.6695">
        <ele>2057.1804199219</ele>
        <time>2019-08-09T10:56:01Z</time>
      </trkpt>
      <trkpt lat="45.70071" lon="6.66956">
        <ele>2059.2426757812</ele>
        <time>2019-08-09T10:56:09Z</time>
      </trkpt>
      <trkpt lat="45.70073" lon="6.66962">
        <ele>2061.0773925781</ele>
        <time>2019-08-09T10:56:17Z</time>
      </trkpt>
      <trkpt lat="45.70071" lon="6.66967">
        <ele>2061.1091308594</ele>
        <time>2019-08-09T10:56:23Z</time>
      </trkpt>
      <trkpt lat="45.70072" lon="6.66973">
        <ele>2062.6374511719</ele>
        <time>2019-08-09T10:56:30Z</time>
      </trkpt>
      <trkpt lat="45.70074" lon="6.66976">
        <ele>2064.8911132812</ele>
        <time>2019-08-09T10:56:37Z</time>
      </trkpt>
      <trkpt lat="45.70078" lon="6.66973">
        <ele>2066.9299316406</ele>
        <time>2019-08-09T10:56:47Z</time>
      </trkpt>
      <trkpt lat="45.70082" lon="6.6697">
        <ele>2068.4108886719</ele>
        <time>2019-08-09T10:56:55Z</time>
      </trkpt>
      <trkpt lat="45.70086" lon="6.66967">
        <ele>2070.9738769531</ele>
        <time>2019-08-09T10:57:05Z</time>
      </trkpt>
      <trkpt lat="45.7009" lon="6.66963">
        <ele>2072.5297851562</ele>
        <time>2019-08-09T10:57:14Z</time>
      </trkpt>
      <trkpt lat="45.70094" lon="6.66961">
        <ele>2074.8137207031</ele>
        <time>2019-08-09T10:57:21Z</time>
      </trkpt>
      <trkpt lat="45.70092" lon="6.66965">
        <ele>2074.6357421875</ele>
        <time>2019-08-09T10:57:29Z</time>
      </trkpt>
      <trkpt lat="45.70092" lon="6.66972">
        <ele>2076.2426757812</ele>
        <time>2019-08-09T10:57:39Z</time>
      </trkpt>
      <trkpt lat="45.70092" lon="6.66977">
        <ele>2078.1848144531</ele>
        <time>2019-08-09T10:57:45Z</time>
      </trkpt>
      <trkpt lat="45.70095" lon="6.66983">
        <ele>2082.4135742188</ele>
        <time>2019-08-09T10:57:59Z</time>
      </trkpt>
      <trkpt lat="45.70097" lon="6.66978">
        <ele>2082.0998535156</ele>
        <time>2019-08-09T11:02:34Z</time>
      </trkpt>
      <trkpt lat="45.70101" lon="6.66979">
        <ele>2085.6013183594</ele>
        <time>2019-08-09T11:03:10Z</time>
      </trkpt>
      <trkpt lat="45.70104" lon="6.66976">
        <ele>2086.86328125</ele>
        <time>2019-08-09T11:04:25Z</time>
      </trkpt>
      <trkpt lat="45.70105" lon="6.66969">
        <ele>2085.7265625</ele>
        <time>2019-08-09T11:04:35Z</time>
      </trkpt>
      <trkpt lat="45.70107" lon="6.66965">
        <ele>2085.4438476562</ele>
        <time>2019-08-09T11:05:38Z</time>
      </trkpt>
      <trkpt lat="45.70109" lon="6.6696">
        <ele>2085.7797851562</ele>
        <time>2019-08-09T11:06:47Z</time>
      </trkpt>
      <trkpt lat="45.70111" lon="6.66956">
        <ele>2086.3754882812</ele>
        <time>2019-08-09T11:07:29Z</time>
      </trkpt>
      <trkpt lat="45.70113" lon="6.66952">
        <ele>2087.1362304688</ele>
        <time>2019-08-09T11:08:27Z</time>
      </trkpt>
      <trkpt lat="45.70115" lon="6.66946">
        <ele>2088.1606445312</ele>
        <time>2019-08-09T11:08:52Z</time>
      </trkpt>
      <trkpt lat="45.70116" lon="6.66944">
        <ele>2090.3405761719</ele>
        <time>2019-08-09T11:09:52Z</time>
      </trkpt>
      <trkpt lat="45.7012" lon="6.6694">
        <ele>2092.9895019531</ele>
        <time>2019-08-09T11:11:24Z</time>
      </trkpt>
      <trkpt lat="45.70122" lon="6.66938">
        <ele>2095.2265625</ele>
        <time>2019-08-09T11:12:03Z</time>
      </trkpt>
      <trkpt lat="45.70124" lon="6.66937">
        <ele>2097.1613769531</ele>
        <time>2019-08-09T11:12:28Z</time>
      </trkpt>
      <trkpt lat="45.70127" lon="6.66938">
        <ele>2101.9067382812</ele>
        <time>2019-08-09T11:13:54Z</time>
      </trkpt>
      <trkpt lat="45.70129" lon="6.66934">
        <ele>2101.8889160156</ele>
        <time>2019-08-09T11:15:53Z</time>
      </trkpt>
      <trkpt lat="45.70131" lon="6.6693">
        <ele>2101.9670410156</ele>
        <time>2019-08-09T11:16:53Z</time>
      </trkpt>
      <trkpt lat="45.70135" lon="6.66927">
        <ele>2104.7016601562</ele>
        <time>2019-08-09T11:18:57Z</time>
      </trkpt>
      <trkpt lat="45.70137" lon="6.66928">
        <ele>2107.4846191406</ele>
        <time>2019-08-09T11:20:10Z</time>
      </trkpt>
      <trkpt lat="45.7014" lon="6.66927">
        <ele>2111.0002441406</ele>
        <time>2019-08-09T11:21:31Z</time>
      </trkpt>
      <trkpt lat="45.70142" lon="6.66925">
        <ele>2113.3483886719</ele>
        <time>2019-08-09T11:22:38Z</time>
      </trkpt>
      <trkpt lat="45.70146" lon="6.66923">
        <ele>2117.4514160156</ele>
        <time>2019-08-09T11:23:12Z</time>
      </trkpt>
      <trkpt lat="45.70149" lon="6.66919">
        <ele>2119.6206054688</ele>
        <time>2019-08-09T11:24:31Z</time>
      </trkpt>
      <trkpt lat="45.70151" lon="6.66914">
        <ele>2120.6806640625</ele>
        <time>2019-08-09T11:25:24Z</time>
      </trkpt>
      <trkpt lat="45.70152" lon="6.66913">
        <ele>2123.2026367188</ele>
        <time>2019-08-09T11:26:20Z</time>
      </trkpt>
      <trkpt lat="45.70155" lon="6.66908">
        <ele>2123.2219238281</ele>
        <time>2019-08-09T11:27:09Z</time>
      </trkpt>
      <trkpt lat="45.70157" lon="6.66903">
        <ele>2122.8271484375</ele>
        <time>2019-08-09T11:28:15Z</time>
      </trkpt>
      <trkpt lat="45.70158" lon="6.66898">
        <ele>2121.9389648438</ele>
        <time>2019-08-09T11:29:16Z</time>
      </trkpt>
      <trkpt lat="45.7016" lon="6.66895">
        <ele>2121.3464355469</ele>
        <time>2019-08-09T11:29:44Z</time>
      </trkpt>
      <trkpt lat="45.70164" lon="6.66893">
        <ele>2125.7541503906</ele>
        <time>2019-08-09T11:30:33Z</time>
      </trkpt>
      <trkpt lat="45.70168" lon="6.66894">
        <ele>2132.2680664062</ele>
        <time>2019-08-09T11:30:49Z</time>
      </trkpt>
      <trkpt lat="45.70173" lon="6.66895">
        <ele>2141.6635742188</ele>
        <time>2019-08-09T11:31:07Z</time>
      </trkpt>
      <trkpt lat="45.70176" lon="6.66895">
        <ele>2147.1340332031</ele>
        <time>2019-08-09T11:31:15Z</time>
      </trkpt>
      <trkpt lat="45.7018" lon="6.66894">
        <ele>2154.7556152344</ele>
        <time>2019-08-09T11:31:24Z</time>
      </trkpt>
      <trkpt lat="45.70184" lon="6.66893">
        <ele>2161.2810058594</ele>
        <time>2019-08-09T11:32:16Z</time>
      </trkpt>
      <trkpt lat="45.70185" lon="6.6689">
        <ele>2162.7241210938</ele>
        <time>2019-08-09T11:34:19Z</time>
      </trkpt>
      <trkpt lat="45.70186" lon="6.66887">
        <ele>2162.5910644531</ele>
        <time>2019-08-09T11:35:15Z</time>
      </trkpt>
      <trkpt lat="45.70189" lon="6.66886">
        <ele>2166.0864257812</ele>
        <time>2019-08-09T11:35:55Z</time>
      </trkpt>
      <trkpt lat="45.70192" lon="6.66882">
        <ele>2168.0622558594</ele>
        <time>2019-08-09T11:36:48Z</time>
      </trkpt>
      <trkpt lat="45.70192" lon="6.66879">
        <ele>2166.7866210938</ele>
        <time>2019-08-09T11:37:55Z</time>
      </trkpt>
      <trkpt lat="45.70192" lon="6.66873">
        <ele>2160.0739746094</ele>
        <time>2019-08-09T11:38:40Z</time>
      </trkpt>
      <trkpt lat="45.70194" lon="6.66871">
        <ele>2162.1518554688</ele>
        <time>2019-08-09T11:39:22Z</time>
      </trkpt>
      <trkpt lat="45.70195" lon="6.66866">
        <ele>2159.8110351562</ele>
        <time>2019-08-09T11:40:05Z</time>
      </trkpt>
      <trkpt lat="45.70198" lon="6.66864">
        <ele>2164.5415039062</ele>
        <time>2019-08-09T11:40:30Z</time>
      </trkpt>
      <trkpt lat="45.70202" lon="6.66865">
        <ele>2176.4182128906</ele>
        <time>2019-08-09T11:41:18Z</time>
      </trkpt>
      <trkpt lat="45.70205" lon="6.66866">
        <ele>2183.7272949219</ele>
        <time>2019-08-09T11:41:54Z</time>
      </trkpt>
      <trkpt lat="45.70208" lon="6.66869">
        <ele>2192.6166992188</ele>
        <time>2019-08-09T11:42:30Z</time>
      </trkpt>
      <trkpt lat="45.7021" lon="6.6687">
        <ele>2197.2309570312</ele>
        <time>2019-08-09T11:44:22Z</time>
      </trkpt>
      <trkpt lat="45.70214" lon="6.66873">
        <ele>2206.3134765625</ele>
        <time>2019-08-09T11:44:57Z</time>
      </trkpt>
      <trkpt lat="45.70215" lon="6.6687">
        <ele>2209.8359375</ele>
        <time>2019-08-09T11:45:30Z</time>
      </trkpt>
      <trkpt lat="45.70215" lon="6.66864">
        <ele>2209.1520996094</ele>
        <time>2019-08-09T11:46:18Z</time>
      </trkpt>
      <trkpt lat="45.70214" lon="6.66858">
        <ele>2202.1848144531</ele>
        <time>2019-08-09T11:47:24Z</time>
      </trkpt>
      <trkpt lat="45.70216" lon="6.66853">
        <ele>2202.0810546875</ele>
        <time>2019-08-09T11:47:57Z</time>
      </trkpt>
      <trkpt lat="45.70218" lon="6.66849">
        <ele>2203.0747070312</ele>
        <time>2019-08-09T11:49:03Z</time>
      </trkpt>
      <trkpt lat="45.70221" lon="6.66846">
        <ele>2207.9301757812</ele>
        <time>2019-08-09T11:49:29Z</time>
      </trkpt>
      <trkpt lat="45.70224" lon="6.66843">
        <ele>2210.6977539062</ele>
        <time>2019-08-09T11:49:41Z</time>
      </trkpt>
      <trkpt lat="45.70225" lon="6.66838">
        <ele>2207.7768554688</ele>
        <time>2019-08-09T11:49:51Z</time>
      </trkpt>
      <trkpt lat="45.70227" lon="6.66834">
        <ele>2209.2622070312</ele>
        <time>2019-08-09T11:49:58Z</time>
      </trkpt>
      <trkpt lat="45.7023" lon="6.66829">
        <ele>2207.8537597656</ele>
        <time>2019-08-09T11:50:09Z</time>
      </trkpt>
      <trkpt lat="45.70234" lon="6.66826">
        <ele>2213.9641113281</ele>
        <time>2019-08-09T11:50:23Z</time>
      </trkpt>
      <trkpt lat="45.70237" lon="6.66822">
        <ele>2219.8415527344</ele>
        <time>2019-08-09T11:50:38Z</time>
      </trkpt>
      <trkpt lat="45.70238" lon="6.66817">
        <ele>2215.8063964844</ele>
        <time>2019-08-09T11:50:50Z</time>
      </trkpt>
      <trkpt lat="45.70241" lon="6.66815">
        <ele>2222.81640625</ele>
        <time>2019-08-09T11:50:59Z</time>
      </trkpt>
      <trkpt lat="45.70244" lon="6.66817">
        <ele>2234.6850585938</ele>
        <time>2019-08-09T11:51:07Z</time>
      </trkpt>
      <trkpt lat="45.70248" lon="6.66817">
        <ele>2248.7153320312</ele>
        <time>2019-08-09T11:51:22Z</time>
      </trkpt>
      <trkpt lat="45.70252" lon="6.6682">
        <ele>2258.3322753906</ele>
        <time>2019-08-09T11:51:39Z</time>
      </trkpt>
      <trkpt lat="45.70255" lon="6.66817">
        <ele>2259.1225585938</ele>
        <time>2019-08-09T11:51:57Z</time>
      </trkpt>
      <trkpt lat="45.70255" lon="6.66813">
        <ele>2257.6979980469</ele>
        <time>2019-08-09T11:52:12Z</time>
      </trkpt>
      <trkpt lat="45.70257" lon="6.66813">
        <ele>2260.076171875</ele>
        <time>2019-08-09T11:52:20Z</time>
      </trkpt>
      <trkpt lat="45.70257" lon="6.6681">
        <ele>2258.9162597656</ele>
        <time>2019-08-09T11:52:24Z</time>
      </trkpt>
      <trkpt lat="45.70258" lon="6.66805">
        <ele>2258.25390625</ele>
        <time>2019-08-09T11:52:35Z</time>
      </trkpt>
      <trkpt lat="45.7026" lon="6.66801">
        <ele>2255.6303710938</ele>
        <time>2019-08-09T11:52:46Z</time>
      </trkpt>
      <trkpt lat="45.70263" lon="6.66796">
        <ele>2252.5334472656</ele>
        <time>2019-08-09T11:52:55Z</time>
      </trkpt>
      <trkpt lat="45.70264" lon="6.66791">
        <ele>2248.5871582031</ele>
        <time>2019-08-09T11:53:03Z</time>
      </trkpt>
      <trkpt lat="45.70265" lon="6.66784">
        <ele>2240.8315429688</ele>
        <time>2019-08-09T11:53:11Z</time>
      </trkpt>
      <trkpt lat="45.70266" lon="6.66778">
        <ele>2235.6557617188</ele>
        <time>2019-08-09T11:53:19Z</time>
      </trkpt>
      <trkpt lat="45.70267" lon="6.66772">
        <ele>2231.1457519531</ele>
        <time>2019-08-09T11:53:24Z</time>
      </trkpt>
      <trkpt lat="45.7027" lon="6.66768">
        <ele>2231.6877441406</ele>
        <time>2019-08-09T11:53:33Z</time>
      </trkpt>
      <trkpt lat="45.7027" lon="6.66774">
        <ele>2241.9423828125</ele>
        <time>2019-08-09T11:55:01Z</time>
      </trkpt>
      <trkpt lat="45.70272" lon="6.66779">
        <ele>2254.3684082031</ele>
        <time>2019-08-09T11:55:06Z</time>
      </trkpt>
      <trkpt lat="45.70274" lon="6.66785">
        <ele>2264.3879394531</ele>
        <time>2019-08-09T11:55:12Z</time>
      </trkpt>
      <trkpt lat="45.70278" lon="6.66786">
        <ele>2275.7485351562</ele>
        <time>2019-08-09T11:55:19Z</time>
      </trkpt>
      <trkpt lat="45.70281" lon="6.66786">
        <ele>2278.1564941406</ele>
        <time>2019-08-09T11:55:27Z</time>
      </trkpt>
      <trkpt lat="45.70285" lon="6.66784">
        <ele>2280.5139160156</ele>
        <time>2019-08-09T11:55:36Z</time>
      </trkpt>
      <trkpt lat="45.7029" lon="6.66781">
        <ele>2282.8798828125</ele>
        <time>2019-08-09T11:55:46Z</time>
      </trkpt>
      <trkpt lat="45.70294" lon="6.66785">
        <ele>2287.4741210938</ele>
        <time>2019-08-09T11:55:53Z</time>
      </trkpt>
      <trkpt lat="45.70297" lon="6.66786">
        <ele>2290.3317871094</ele>
        <time>2019-08-09T11:55:58Z</time>
      </trkpt>
      <trkpt lat="45.70301" lon="6.66787">
        <ele>2293.3225097656</ele>
        <time>2019-08-09T11:56:05Z</time>
      </trkpt>
      <trkpt lat="45.70305" lon="6.66791">
        <ele>2297.6848144531</ele>
        <time>2019-08-09T11:56:13Z</time>
      </trkpt>
      <trkpt lat="45.70308" lon="6.66796">
        <ele>2300.2189941406</ele>
        <time>2019-08-09T11:56:19Z</time>
      </trkpt>
      <trkpt lat="45.70311" lon="6.66801">
        <ele>2302.3513183594</ele>
        <time>2019-08-09T11:56:24Z</time>
      </trkpt>
      <trkpt lat="45.70314" lon="6.66806">
        <ele>2304.7763671875</ele>
        <time>2019-08-09T11:56:31Z</time>
      </trkpt>
      <trkpt lat="45.70318" lon="6.6681">
        <ele>2305.9592285156</ele>
        <time>2019-08-09T11:56:37Z</time>
      </trkpt>
      <trkpt lat="45.70322" lon="6.6681">
        <ele>2307.7416992188</ele>
        <time>2019-08-09T11:56:43Z</time>
      </trkpt>
      <trkpt lat="45.70327" lon="6.66809">
        <ele>2309.8088378906</ele>
        <time>2019-08-09T11:57:06Z</time>
      </trkpt>
      <trkpt lat="45.70331" lon="6.66808">
        <ele>2311.6606445312</ele>
        <time>2019-08-09T11:57:13Z</time>
      </trkpt>
      <trkpt lat="45.70335" lon="6.66808">
        <ele>2314.2419433594</ele>
        <time>2019-08-09T11:57:21Z</time>
      </trkpt>
      <trkpt lat="45.70339" lon="6.6681">
        <ele>2316.3657226562</ele>
        <time>2019-08-09T11:57:28Z</time>
      </trkpt>
      <trkpt lat="45.70341" lon="6.66817">
        <ele>2316.8317871094</ele>
        <time>2019-08-09T11:57:41Z</time>
      </trkpt>
      <trkpt lat="45.70341" lon="6.66822">
        <ele>2316.1340332031</ele>
        <time>2019-08-09T11:57:44Z</time>
      </trkpt>
      <trkpt lat="45.70343" lon="6.66825">
        <ele>2317.1809082031</ele>
        <time>2019-08-09T11:57:47Z</time>
      </trkpt>
      <trkpt lat="45.70347" lon="6.66829">
        <ele>2319.2561035156</ele>
        <time>2019-08-09T11:57:53Z</time>
      </trkpt>
      <trkpt lat="45.7035" lon="6.66835">
        <ele>2319.7709960938</ele>
        <time>2019-08-09T11:57:59Z</time>
      </trkpt>
      <trkpt lat="45.70353" lon="6.66838">
        <ele>2321.2497558594</ele>
        <time>2019-08-09T11:58:04Z</time>
      </trkpt>
      <trkpt lat="45.70357" lon="6.66842">
        <ele>2322.0847167969</ele>
        <time>2019-08-09T11:58:10Z</time>
      </trkpt>
      <trkpt lat="45.7036" lon="6.66848">
        <ele>2322.1530761719</ele>
        <time>2019-08-09T11:58:16Z</time>
      </trkpt>
      <trkpt lat="45.70363" lon="6.66854">
        <ele>2322.2006835938</ele>
        <time>2019-08-09T11:58:21Z</time>
      </trkpt>
      <trkpt lat="45.70364" lon="6.66858">
        <ele>2322.296875</ele>
        <time>2019-08-09T11:58:25Z</time>
      </trkpt>
      <trkpt lat="45.70366" lon="6.6686">
        <ele>2322.8598632812</ele>
        <time>2019-08-09T11:58:27Z</time>
      </trkpt>
      <trkpt lat="45.7037" lon="6.66865">
        <ele>2324.9594726562</ele>
        <time>2019-08-09T11:58:33Z</time>
      </trkpt>
      <trkpt lat="45.70374" lon="6.66869">
        <ele>2326.2641601562</ele>
        <time>2019-08-09T11:58:40Z</time>
      </trkpt>
      <trkpt lat="45.70379" lon="6.66874">
        <ele>2328.3168945312</ele>
        <time>2019-08-09T11:58:49Z</time>
      </trkpt>
      <trkpt lat="45.70379" lon="6.66875">
        <ele>2328.3791503906</ele>
        <time>2019-08-09T11:58:51Z</time>
      </trkpt>
      <trkpt lat="45.70383" lon="6.66879">
        <ele>2329.4025878906</ele>
        <time>2019-08-09T11:58:58Z</time>
      </trkpt>
      <trkpt lat="45.70386" lon="6.66882">
        <ele>2330.2534179688</ele>
        <time>2019-08-09T11:59:14Z</time>
      </trkpt>
      <trkpt lat="45.70389" lon="6.66887">
        <ele>2329.9453125</ele>
        <time>2019-08-09T11:59:20Z</time>
      </trkpt>
      <trkpt lat="45.70392" lon="6.66891">
        <ele>2330.2065429688</ele>
        <time>2019-08-09T11:59:25Z</time>
      </trkpt>
      <trkpt lat="45.70395" lon="6.66896">
        <ele>2330.9775390625</ele>
        <time>2019-08-09T11:59:31Z</time>
      </trkpt>
      <trkpt lat="45.70398" lon="6.669">
        <ele>2331.9567871094</ele>
        <time>2019-08-09T11:59:37Z</time>
      </trkpt>
      <trkpt lat="45.70402" lon="6.66904">
        <ele>2332.8723144531</ele>
        <time>2019-08-09T11:59:43Z</time>
      </trkpt>
      <trkpt lat="45.70406" lon="6.66909">
        <ele>2333.3747558594</ele>
        <time>2019-08-09T11:59:49Z</time>
      </trkpt>
      <trkpt lat="45.70409" lon="6.66914">
        <ele>2333.5366210938</ele>
        <time>2019-08-09T11:59:54Z</time>
      </trkpt>
      <trkpt lat="45.70413" lon="6.66919">
        <ele>2333.900390625</ele>
        <time>2019-08-09T12:00:00Z</time>
      </trkpt>
      <trkpt lat="45.70416" lon="6.66924">
        <ele>2334.3264160156</ele>
        <time>2019-08-09T12:00:06Z</time>
      </trkpt>
      <trkpt lat="45.7042" lon="6.66929">
        <ele>2334.484375</ele>
        <time>2019-08-09T12:00:12Z</time>
      </trkpt>
      <trkpt lat="45.70425" lon="6.66934">
        <ele>2334.8466796875</ele>
        <time>2019-08-09T12:00:19Z</time>
      </trkpt>
      <trkpt lat="45.70429" lon="6.66939">
        <ele>2335.3510742188</ele>
        <time>2019-08-09T12:00:25Z</time>
      </trkpt>
      <trkpt lat="45.70432" lon="6.66942">
        <ele>2335.8774414062</ele>
        <time>2019-08-09T12:00:30Z</time>
      </trkpt>
      <trkpt lat="45.70436" lon="6.66947">
        <ele>2336.4025878906</ele>
        <time>2019-08-09T12:00:36Z</time>
      </trkpt>
      <trkpt lat="45.70438" lon="6.66951">
        <ele>2336.7734375</ele>
        <time>2019-08-09T12:00:40Z</time>
      </trkpt>
      <trkpt lat="45.70441" lon="6.66956">
        <ele>2336.8662109375</ele>
        <time>2019-08-09T12:00:44Z</time>
      </trkpt>
      <trkpt lat="45.70444" lon="6.6696">
        <ele>2337.5695800781</ele>
        <time>2019-08-09T12:00:49Z</time>
      </trkpt>
      <trkpt lat="45.70448" lon="6.66966">
        <ele>2337.7905273438</ele>
        <time>2019-08-09T12:00:55Z</time>
      </trkpt>
      <trkpt lat="45.70451" lon="6.66972">
        <ele>2338.5043945312</ele>
        <time>2019-08-09T12:01:02Z</time>
      </trkpt>
      <trkpt lat="45.70453" lon="6.66977">
        <ele>2338.0881347656</ele>
        <time>2019-08-09T12:01:06Z</time>
      </trkpt>
      <trkpt lat="45.70454" lon="6.66983">
        <ele>2337.4282226562</ele>
        <time>2019-08-09T12:01:12Z</time>
      </trkpt>
      <trkpt lat="45.70456" lon="6.66989">
        <ele>2337.6384277344</ele>
        <time>2019-08-09T12:01:25Z</time>
      </trkpt>
      <trkpt lat="45.7046" lon="6.66994">
        <ele>2338.5979003906</ele>
        <time>2019-08-09T12:01:32Z</time>
      </trkpt>
      <trkpt lat="45.70464" lon="6.66995">
        <ele>2340.6166992188</ele>
        <time>2019-08-09T12:01:43Z</time>
      </trkpt>
      <trkpt lat="45.70468" lon="6.67">
        <ele>2341.9904785156</ele>
        <time>2019-08-09T12:01:51Z</time>
      </trkpt>
      <trkpt lat="45.70473" lon="6.67002">
        <ele>2343.1943359375</ele>
        <time>2019-08-09T12:02:02Z</time>
      </trkpt>
      <trkpt lat="45.70478" lon="6.67005">
        <ele>2342.5541992188</ele>
        <time>2019-08-09T12:02:10Z</time>
      </trkpt>
      <trkpt lat="45.7048" lon="6.67007">
        <ele>2342.056640625</ele>
        <time>2019-08-09T12:02:14Z</time>
      </trkpt>
      <trkpt lat="45.70483" lon="6.67011">
        <ele>2341.6694335938</ele>
        <time>2019-08-09T12:02:18Z</time>
      </trkpt>
      <trkpt lat="45.70487" lon="6.67016">
        <ele>2341.7333984375</ele>
        <time>2019-08-09T12:02:35Z</time>
      </trkpt>
      <trkpt lat="45.7049" lon="6.67021">
        <ele>2342.1784667969</ele>
        <time>2019-08-09T12:02:40Z</time>
      </trkpt>
      <trkpt lat="45.70494" lon="6.67025">
        <ele>2343.5385742188</ele>
        <time>2019-08-09T12:02:46Z</time>
      </trkpt>
      <trkpt lat="45.70497" lon="6.6703">
        <ele>2344.3505859375</ele>
        <time>2019-08-09T12:02:51Z</time>
      </trkpt>
      <trkpt lat="45.70499" lon="6.67035">
        <ele>2344.8059082031</ele>
        <time>2019-08-09T12:02:55Z</time>
      </trkpt>
      <trkpt lat="45.70501" lon="6.67039">
        <ele>2343.9526367188</ele>
        <time>2019-08-09T12:02:59Z</time>
      </trkpt>
      <trkpt lat="45.70503" lon="6.67045">
        <ele>2342.5686035156</ele>
        <time>2019-08-09T12:03:04Z</time>
      </trkpt>
      <trkpt lat="45.70504" lon="6.67051">
        <ele>2341.3630371094</ele>
        <time>2019-08-09T12:03:10Z</time>
      </trkpt>
      <trkpt lat="45.70506" lon="6.67055">
        <ele>2340.3088378906</ele>
        <time>2019-08-09T12:06:08Z</time>
      </trkpt>
      <trkpt lat="45.70508" lon="6.67061">
        <ele>2337.5327148438</ele>
        <time>2019-08-09T12:06:15Z</time>
      </trkpt>
      <trkpt lat="45.70509" lon="6.67067">
        <ele>2335.3393554688</ele>
        <time>2019-08-09T12:06:24Z</time>
      </trkpt>
      <trkpt lat="45.70509" lon="6.67072">
        <ele>2333.3857421875</ele>
        <time>2019-08-09T12:06:44Z</time>
      </trkpt>
      <trkpt lat="45.7051" lon="6.67078">
        <ele>2331.279296875</ele>
        <time>2019-08-09T12:06:55Z</time>
      </trkpt>
      <trkpt lat="45.70509" lon="6.67084">
        <ele>2328.9282226562</ele>
        <time>2019-08-09T12:07:05Z</time>
      </trkpt>
      <trkpt lat="45.70508" lon="6.6709">
        <ele>2325.0568847656</ele>
        <time>2019-08-09T12:08:06Z</time>
      </trkpt>
      <trkpt lat="45.70506" lon="6.67096">
        <ele>2320.9797363281</ele>
        <time>2019-08-09T12:08:43Z</time>
      </trkpt>
      <trkpt lat="45.70506" lon="6.67102">
        <ele>2316.9013671875</ele>
        <time>2019-08-09T12:09:16Z</time>
      </trkpt>
      <trkpt lat="45.70507" lon="6.67103">
        <ele>2317.2229003906</ele>
        <time>2019-08-09T12:10:03Z</time>
      </trkpt>
      <trkpt lat="45.70509" lon="6.67108">
        <ele>2314.9719238281</ele>
        <time>2019-08-09T12:10:42Z</time>
      </trkpt>
      <trkpt lat="45.70512" lon="6.67113">
        <ele>2313.7868652344</ele>
        <time>2019-08-09T12:10:50Z</time>
      </trkpt>
      <trkpt lat="45.70515" lon="6.67116">
        <ele>2314.5141601562</ele>
        <time>2019-08-09T12:11:58Z</time>
      </trkpt>
      <trkpt lat="45.70517" lon="6.67121">
        <ele>2311.6149902344</ele>
        <time>2019-08-09T12:12:37Z</time>
      </trkpt>
      <trkpt lat="45.70519" lon="6.67127">
        <ele>2309.8405761719</ele>
        <time>2019-08-09T12:15:16Z</time>
      </trkpt>
      <trkpt lat="45.70519" lon="6.67133">
        <ele>2305.6682128906</ele>
        <time>2019-08-09T12:17:06Z</time>
      </trkpt>
      <trkpt lat="45.70522" lon="6.67136">
        <ele>2306.2126464844</ele>
        <time>2019-08-09T12:17:38Z</time>
      </trkpt>
      <trkpt lat="45.70524" lon="6.67131">
        <ele>2311.6584472656</ele>
        <time>2019-08-09T12:18:11Z</time>
      </trkpt>
      <trkpt lat="45.70525" lon="6.67125">
        <ele>2316.193359375</ele>
        <time>2019-08-09T12:18:18Z</time>
      </trkpt>
      <trkpt lat="45.70529" lon="6.67124">
        <ele>2318.8850097656</ele>
        <time>2019-08-09T12:18:23Z</time>
      </trkpt>
      <trkpt lat="45.70532" lon="6.6712">
        <ele>2321.0004882812</ele>
        <time>2019-08-09T12:18:32Z</time>
      </trkpt>
      <trkpt lat="45.70535" lon="6.67115">
        <ele>2323.0617675781</ele>
        <time>2019-08-09T12:18:40Z</time>
      </trkpt>
      <trkpt lat="45.70535" lon="6.67109">
        <ele>2325.3129882812</ele>
        <time>2019-08-09T12:18:48Z</time>
      </trkpt>
      <trkpt lat="45.70535" lon="6.67102">
        <ele>2326.2353515625</ele>
        <time>2019-08-09T12:18:56Z</time>
      </trkpt>
      <trkpt lat="45.70535" lon="6.67096">
        <ele>2327.1486816406</ele>
        <time>2019-08-09T12:19:02Z</time>
      </trkpt>
      <trkpt lat="45.70537" lon="6.6709">
        <ele>2327.3818359375</ele>
        <time>2019-08-09T12:19:13Z</time>
      </trkpt>
      <trkpt lat="45.70541" lon="6.67083">
        <ele>2326.9106445312</ele>
        <time>2019-08-09T12:19:19Z</time>
      </trkpt>
      <trkpt lat="45.70544" lon="6.67078">
        <ele>2325.5031738281</ele>
        <time>2019-08-09T12:19:25Z</time>
      </trkpt>
      <trkpt lat="45.70544" lon="6.67072">
        <ele>2325.0104980469</ele>
        <time>2019-08-09T12:19:30Z</time>
      </trkpt>
      <trkpt lat="45.70544" lon="6.67068">
        <ele>2325.1357421875</ele>
        <time>2019-08-09T12:19:41Z</time>
      </trkpt>
      <trkpt lat="45.70542" lon="6.67061">
        <ele>2325.4995117188</ele>
        <time>2019-08-09T12:19:46Z</time>
      </trkpt>
      <trkpt lat="45.70546" lon="6.67062">
        <ele>2323.8911132812</ele>
        <time>2019-08-09T12:20:02Z</time>
      </trkpt>
      <trkpt lat="45.70549" lon="6.67065">
        <ele>2322.9248046875</ele>
        <time>2019-08-09T12:20:11Z</time>
      </trkpt>
      <trkpt lat="45.70551" lon="6.6706">
        <ele>2322.1574707031</ele>
        <time>2019-08-09T12:20:25Z</time>
      </trkpt>
      <trkpt lat="45.70549" lon="6.67055">
        <ele>2322.3112792969</ele>
        <time>2019-08-09T12:20:31Z</time>
      </trkpt>
      <trkpt lat="45.7055" lon="6.67061">
        <ele>2322.4870605469</ele>
        <time>2019-08-09T12:22:33Z</time>
      </trkpt>
      <trkpt lat="45.70551" lon="6.67067">
        <ele>2322.09375</ele>
        <time>2019-08-09T12:22:40Z</time>
      </trkpt>
      <trkpt lat="45.70554" lon="6.67073">
        <ele>2321.3901367188</ele>
        <time>2019-08-09T12:22:56Z</time>
      </trkpt>
      <trkpt lat="45.70556" lon="6.67076">
        <ele>2320.8913574219</ele>
        <time>2019-08-09T12:23:03Z</time>
      </trkpt>
      <trkpt lat="45.70557" lon="6.67081">
        <ele>2321.1906738281</ele>
        <time>2019-08-09T12:23:12Z</time>
      </trkpt>
      <trkpt lat="45.70559" lon="6.67086">
        <ele>2321.892578125</ele>
        <time>2019-08-09T12:23:20Z</time>
      </trkpt>
      <trkpt lat="45.70563" lon="6.67091">
        <ele>2322.5422363281</ele>
        <time>2019-08-09T12:23:27Z</time>
      </trkpt>
      <trkpt lat="45.70567" lon="6.67097">
        <ele>2322.9904785156</ele>
        <time>2019-08-09T12:23:35Z</time>
      </trkpt>
      <trkpt lat="45.70569" lon="6.67097">
        <ele>2323.4848632812</ele>
        <time>2019-08-09T12:26:43Z</time>
      </trkpt>
      <trkpt lat="45.70569" lon="6.67097">
        <ele>2323.5017089844</ele>
        <time>2019-08-09T12:28:00Z</time>
      </trkpt>
      <trkpt lat="45.7049" lon="6.67031">
        <ele>2341.5126953125</ele>
        <time>2019-08-09T13:25:26Z</time>
      </trkpt>
      <trkpt lat="45.70484" lon="6.67025">
        <ele>2340.0046386719</ele>
        <time>2019-08-09T13:25:27Z</time>
      </trkpt>
      <trkpt lat="45.70484" lon="6.67018">
        <ele>2340.9074707031</ele>
        <time>2019-08-09T13:25:30Z</time>
      </trkpt>
      <trkpt lat="45.70493" lon="6.67016">
        <ele>2342.9724121094</ele>
        <time>2019-08-09T13:25:32Z</time>
      </trkpt>
      <trkpt lat="45.705" lon="6.67012">
        <ele>2343.625</ele>
        <time>2019-08-09T13:25:34Z</time>
      </trkpt>
      <trkpt lat="45.70504" lon="6.67009">
        <ele>2341.0446777344</ele>
        <time>2019-08-09T13:25:37Z</time>
      </trkpt>
      <trkpt lat="45.70507" lon="6.67004">
        <ele>2338.5732421875</ele>
        <time>2019-08-09T13:25:40Z</time>
      </trkpt>
      <trkpt lat="45.70508" lon="6.67002">
        <ele>2337.48046875</ele>
        <time>2019-08-09T13:25:42Z</time>
      </trkpt>
      <trkpt lat="45.70505" lon="6.67004">
        <ele>2339.6579589844</ele>
        <time>2019-08-09T13:25:50Z</time>
      </trkpt>
      <trkpt lat="45.705" lon="6.67006">
        <ele>2342.8149414062</ele>
        <time>2019-08-09T13:26:05Z</time>
      </trkpt>
      <trkpt lat="45.70497" lon="6.67011">
        <ele>2343.251953125</ele>
        <time>2019-08-09T13:26:20Z</time>
      </trkpt>
      <trkpt lat="45.70496" lon="6.67017">
        <ele>2343.6640625</ele>
        <time>2019-08-09T13:26:30Z</time>
      </trkpt>
      <trkpt lat="45.70494" lon="6.67022">
        <ele>2343.2927246094</ele>
        <time>2019-08-09T13:26:46Z</time>
      </trkpt>
      <trkpt lat="45.70496" lon="6.67025">
        <ele>2344.1909179688</ele>
        <time>2019-08-09T13:27:02Z</time>
      </trkpt>
      <trkpt lat="45.705" lon="6.67027">
        <ele>2345.7443847656</ele>
        <time>2019-08-09T13:27:11Z</time>
      </trkpt>
      <trkpt lat="45.70503" lon="6.67026">
        <ele>2343.6430664062</ele>
        <time>2019-08-09T13:27:14Z</time>
      </trkpt>
      <trkpt lat="45.70506" lon="6.67024">
        <ele>2341.1506347656</ele>
        <time>2019-08-09T13:27:23Z</time>
      </trkpt>
      <trkpt lat="45.7051" lon="6.67024">
        <ele>2338.0324707031</ele>
        <time>2019-08-09T13:27:31Z</time>
      </trkpt>
      <trkpt lat="45.70514" lon="6.67022">
        <ele>2335.1550292969</ele>
        <time>2019-08-09T13:27:37Z</time>
      </trkpt>
      <trkpt lat="45.70517" lon="6.67019">
        <ele>2332.609375</ele>
        <time>2019-08-09T13:27:48Z</time>
      </trkpt>
      <trkpt lat="45.70521" lon="6.67014">
        <ele>2329.9077148438</ele>
        <time>2019-08-09T13:27:55Z</time>
      </trkpt>
      <trkpt lat="45.70525" lon="6.67011">
        <ele>2327.6579589844</ele>
        <time>2019-08-09T13:28:02Z</time>
      </trkpt>
      <trkpt lat="45.70528" lon="6.67006">
        <ele>2325.8728027344</ele>
        <time>2019-08-09T13:28:11Z</time>
      </trkpt>
      <trkpt lat="45.70531" lon="6.67">
        <ele>2322.7885742188</ele>
        <time>2019-08-09T13:28:29Z</time>
      </trkpt>
      <trkpt lat="45.70535" lon="6.66998">
        <ele>2318.5573730469</ele>
        <time>2019-08-09T13:28:45Z</time>
      </trkpt>
      <trkpt lat="45.70537" lon="6.66996">
        <ele>2316.025390625</ele>
        <time>2019-08-09T13:29:07Z</time>
      </trkpt>
      <trkpt lat="45.70534" lon="6.66995">
        <ele>2318.9169921875</ele>
        <time>2019-08-09T13:29:40Z</time>
      </trkpt>
      <trkpt lat="45.70529" lon="6.66993">
        <ele>2323.3540039062</ele>
        <time>2019-08-09T13:29:50Z</time>
      </trkpt>
      <trkpt lat="45.70526" lon="6.66992">
        <ele>2326.1220703125</ele>
        <time>2019-08-09T13:30:02Z</time>
      </trkpt>
      <trkpt lat="45.70528" lon="6.6699">
        <ele>2323.8195800781</ele>
        <time>2019-08-09T13:30:26Z</time>
      </trkpt>
      <trkpt lat="45.70534" lon="6.6699">
        <ele>2317.6020507812</ele>
        <time>2019-08-09T13:30:34Z</time>
      </trkpt>
      <trkpt lat="45.70538" lon="6.66991">
        <ele>2312.8740234375</ele>
        <time>2019-08-09T13:30:43Z</time>
      </trkpt>
      <trkpt lat="45.70542" lon="6.66991">
        <ele>2308.1025390625</ele>
        <time>2019-08-09T13:30:50Z</time>
      </trkpt>
      <trkpt lat="45.70539" lon="6.66991">
        <ele>2311.5505371094</ele>
        <time>2019-08-09T13:31:06Z</time>
      </trkpt>
      <trkpt lat="45.70535" lon="6.66988">
        <ele>2316.0046386719</ele>
        <time>2019-08-09T13:31:20Z</time>
      </trkpt>
      <trkpt lat="45.7053" lon="6.66986">
        <ele>2321.1970214844</ele>
        <time>2019-08-09T13:31:30Z</time>
      </trkpt>
      <trkpt lat="45.70525" lon="6.66984">
        <ele>2325.1474609375</ele>
        <time>2019-08-09T13:32:35Z</time>
      </trkpt>
      <trkpt lat="45.70523" lon="6.66984">
        <ele>2326.5437011719</ele>
        <time>2019-08-09T13:33:48Z</time>
      </trkpt>
      <trkpt lat="45.7052" lon="6.66979">
        <ele>2327.6774902344</ele>
        <time>2019-08-09T13:34:40Z</time>
      </trkpt>
      <trkpt lat="45.70516" lon="6.66977">
        <ele>2330.068359375</ele>
        <time>2019-08-09T13:35:03Z</time>
      </trkpt>
      <trkpt lat="45.70514" lon="6.6697">
        <ele>2329.78125</ele>
        <time>2019-08-09T13:35:31Z</time>
      </trkpt>
      <trkpt lat="45.70513" lon="6.66965">
        <ele>2328.9890136719</ele>
        <time>2019-08-09T13:35:36Z</time>
      </trkpt>
      <trkpt lat="45.70512" lon="6.66959">
        <ele>2327.0964355469</ele>
        <time>2019-08-09T13:35:58Z</time>
      </trkpt>
      <trkpt lat="45.7051" lon="6.66952">
        <ele>2327.306640625</ele>
        <time>2019-08-09T13:36:06Z</time>
      </trkpt>
      <trkpt lat="45.70509" lon="6.66951">
        <ele>2327.6833496094</ele>
        <time>2019-08-09T13:36:16Z</time>
      </trkpt>
      <trkpt lat="45.70507" lon="6.6695">
        <ele>2329.5268554688</ele>
        <time>2019-08-09T13:36:30Z</time>
      </trkpt>
      <trkpt lat="45.70505" lon="6.66946">
        <ele>2330.83984375</ele>
        <time>2019-08-09T13:36:50Z</time>
      </trkpt>
      <trkpt lat="45.70504" lon="6.6694">
        <ele>2327.59765625</ele>
        <time>2019-08-09T13:37:03Z</time>
      </trkpt>
      <trkpt lat="45.70501" lon="6.66936">
        <ele>2329.0856933594</ele>
        <time>2019-08-09T13:37:10Z</time>
      </trkpt>
      <trkpt lat="45.70497" lon="6.66933">
        <ele>2329.3537597656</ele>
        <time>2019-08-09T13:37:17Z</time>
      </trkpt>
      <trkpt lat="45.70494" lon="6.66933">
        <ele>2330.3259277344</ele>
        <time>2019-08-09T13:40:13Z</time>
      </trkpt>
      <trkpt lat="45.70491" lon="6.66929">
        <ele>2329.1667480469</ele>
        <time>2019-08-09T13:41:56Z</time>
      </trkpt>
      <trkpt lat="45.70487" lon="6.66929">
        <ele>2331.4328613281</ele>
        <time>2019-08-09T13:42:20Z</time>
      </trkpt>
      <trkpt lat="45.70483" lon="6.66929">
        <ele>2334.1872558594</ele>
        <time>2019-08-09T13:43:37Z</time>
      </trkpt>
      <trkpt lat="45.70482" lon="6.66927">
        <ele>2333.9174804688</ele>
        <time>2019-08-09T13:43:55Z</time>
      </trkpt>
      <trkpt lat="45.7048" lon="6.66922">
        <ele>2333.6318359375</ele>
        <time>2019-08-09T13:44:12Z</time>
      </trkpt>
      <trkpt lat="45.70476" lon="6.6692">
        <ele>2335.6970214844</ele>
        <time>2019-08-09T13:44:39Z</time>
      </trkpt>
      <trkpt lat="45.70475" lon="6.66918">
        <ele>2336.3046875</ele>
        <time>2019-08-09T13:50:07Z</time>
      </trkpt>
      <trkpt lat="45.70472" lon="6.66913">
        <ele>2336.2868652344</ele>
        <time>2019-08-09T13:51:13Z</time>
      </trkpt>
      <trkpt lat="45.7047" lon="6.66906">
        <ele>2334.1916503906</ele>
        <time>2019-08-09T13:51:22Z</time>
      </trkpt>
      <trkpt lat="45.70469" lon="6.669">
        <ele>2331.83203125</ele>
        <time>2019-08-09T13:51:28Z</time>
      </trkpt>
      <trkpt lat="45.70466" lon="6.66893">
        <ele>2330.876953125</ele>
        <time>2019-08-09T13:51:33Z</time>
      </trkpt>
      <trkpt lat="45.70464" lon="6.66888">
        <ele>2330.1328125</ele>
        <time>2019-08-09T13:51:37Z</time>
      </trkpt>
      <trkpt lat="45.70462" lon="6.66882">
        <ele>2329.203125</ele>
        <time>2019-08-09T13:51:41Z</time>
      </trkpt>
      <trkpt lat="45.70459" lon="6.66876">
        <ele>2328.4973144531</ele>
        <time>2019-08-09T13:51:50Z</time>
      </trkpt>
      <trkpt lat="45.70457" lon="6.66871">
        <ele>2328.2243652344</ele>
        <time>2019-08-09T13:51:53Z</time>
      </trkpt>
      <trkpt lat="45.70454" lon="6.66867">
        <ele>2329.2260742188</ele>
        <time>2019-08-09T13:51:57Z</time>
      </trkpt>
      <trkpt lat="45.7045" lon="6.66862">
        <ele>2330.5336914062</ele>
        <time>2019-08-09T13:52:02Z</time>
      </trkpt>
      <trkpt lat="45.70445" lon="6.66858">
        <ele>2333.5349121094</ele>
        <time>2019-08-09T13:52:07Z</time>
      </trkpt>
      <trkpt lat="45.70442" lon="6.66854">
        <ele>2334.2866210938</ele>
        <time>2019-08-09T13:52:11Z</time>
      </trkpt>
      <trkpt lat="45.70438" lon="6.66851">
        <ele>2335.3288574219</ele>
        <time>2019-08-09T13:52:21Z</time>
      </trkpt>
      <trkpt lat="45.70434" lon="6.66847">
        <ele>2336.0280761719</ele>
        <time>2019-08-09T13:53:01Z</time>
      </trkpt>
      <trkpt lat="45.70431" lon="6.66851">
        <ele>2338.3337402344</ele>
        <time>2019-08-09T13:53:21Z</time>
      </trkpt>
      <trkpt lat="45.70431" lon="6.6685">
        <ele>2338.1899414062</ele>
        <time>2019-08-09T13:53:48Z</time>
      </trkpt>
      <trkpt lat="45.7043" lon="6.66844">
        <ele>2336.8271484375</ele>
        <time>2019-08-09T13:53:54Z</time>
      </trkpt>
      <trkpt lat="45.70431" lon="6.66838">
        <ele>2335.0002441406</ele>
        <time>2019-08-09T13:54:01Z</time>
      </trkpt>
      <trkpt lat="45.70429" lon="6.66831">
        <ele>2334.2055664062</ele>
        <time>2019-08-09T13:54:10Z</time>
      </trkpt>
      <trkpt lat="45.70427" lon="6.66826">
        <ele>2334.4345703125</ele>
        <time>2019-08-09T13:54:15Z</time>
      </trkpt>
      <trkpt lat="45.70424" lon="6.6682">
        <ele>2334.5266113281</ele>
        <time>2019-08-09T13:54:39Z</time>
      </trkpt>
      <trkpt lat="45.70422" lon="6.66815">
        <ele>2334.3845214844</ele>
        <time>2019-08-09T13:55:45Z</time>
      </trkpt>
      <trkpt lat="45.70422" lon="6.66807">
        <ele>2333.1843261719</ele>
        <time>2019-08-09T13:55:50Z</time>
      </trkpt>
      <trkpt lat="45.70422" lon="6.66801">
        <ele>2332.3676757812</ele>
        <time>2019-08-09T13:55:54Z</time>
      </trkpt>
      <trkpt lat="45.70425" lon="6.66795">
        <ele>2331.1472167969</ele>
        <time>2019-08-09T13:55:59Z</time>
      </trkpt>
      <trkpt lat="45.70425" lon="6.66788">
        <ele>2330.4208984375</ele>
        <time>2019-08-09T13:56:04Z</time>
      </trkpt>
      <trkpt lat="45.70424" lon="6.66783">
        <ele>2329.98828125</ele>
        <time>2019-08-09T13:56:08Z</time>
      </trkpt>
      <trkpt lat="45.70424" lon="6.66776">
        <ele>2329.3254394531</ele>
        <time>2019-08-09T13:56:15Z</time>
      </trkpt>
      <trkpt lat="45.7042" lon="6.6677">
        <ele>2329.56640625</ele>
        <time>2019-08-09T13:56:20Z</time>
      </trkpt>
      <trkpt lat="45.70419" lon="6.66766">
        <ele>2329.6118164062</ele>
        <time>2019-08-09T13:56:23Z</time>
      </trkpt>
      <trkpt lat="45.70416" lon="6.66761">
        <ele>2329.7373046875</ele>
        <time>2019-08-09T13:56:27Z</time>
      </trkpt>
      <trkpt lat="45.70414" lon="6.66754">
        <ele>2329.1047363281</ele>
        <time>2019-08-09T13:56:32Z</time>
      </trkpt>
      <trkpt lat="45.70411" lon="6.66748">
        <ele>2328.2260742188</ele>
        <time>2019-08-09T13:56:37Z</time>
      </trkpt>
      <trkpt lat="45.7041" lon="6.66744">
        <ele>2327.1550292969</ele>
        <time>2019-08-09T13:56:43Z</time>
      </trkpt>
      <trkpt lat="45.70413" lon="6.66741">
        <ele>2326.8459472656</ele>
        <time>2019-08-09T13:59:08Z</time>
      </trkpt>
      <trkpt lat="45.70416" lon="6.66737">
        <ele>2326.1318359375</ele>
        <time>2019-08-09T13:59:32Z</time>
      </trkpt>
      <trkpt lat="45.70412" lon="6.66733">
        <ele>2324.9987792969</ele>
        <time>2019-08-09T13:59:41Z</time>
      </trkpt>
      <trkpt lat="45.70412" lon="6.66728">
        <ele>2323.9140625</ele>
        <time>2019-08-09T13:59:51Z</time>
      </trkpt>
      <trkpt lat="45.70411" lon="6.66722">
        <ele>2322.52734375</ele>
        <time>2019-08-09T13:59:59Z</time>
      </trkpt>
      <trkpt lat="45.70416" lon="6.66721">
        <ele>2322.5178222656</ele>
        <time>2019-08-09T14:00:05Z</time>
      </trkpt>
      <trkpt lat="45.70419" lon="6.66718">
        <ele>2320.0903320312</ele>
        <time>2019-08-09T14:00:17Z</time>
      </trkpt>
      <trkpt lat="45.70416" lon="6.66713">
        <ele>2318.5627441406</ele>
        <time>2019-08-09T14:00:32Z</time>
      </trkpt>
      <trkpt lat="45.70414" lon="6.66706">
        <ele>2315.1166992188</ele>
        <time>2019-08-09T14:00:39Z</time>
      </trkpt>
      <trkpt lat="45.7041" lon="6.66708">
        <ele>2314.7294921875</ele>
        <time>2019-08-09T14:00:51Z</time>
      </trkpt>
      <trkpt lat="45.70407" lon="6.66706">
        <ele>2312.4599609375</ele>
        <time>2019-08-09T14:00:59Z</time>
      </trkpt>
      <trkpt lat="45.70404" lon="6.66702">
        <ele>2308.6042480469</ele>
        <time>2019-08-09T14:01:07Z</time>
      </trkpt>
      <trkpt lat="45.70403" lon="6.66696">
        <ele>2304.216796875</ele>
        <time>2019-08-09T14:01:15Z</time>
      </trkpt>
      <trkpt lat="45.70402" lon="6.6669">
        <ele>2300.4916992188</ele>
        <time>2019-08-09T14:01:28Z</time>
      </trkpt>
      <trkpt lat="45.704" lon="6.66691">
        <ele>2299.5576171875</ele>
        <time>2019-08-09T14:01:38Z</time>
      </trkpt>
      <trkpt lat="45.704" lon="6.66685">
        <ele>2296.1318359375</ele>
        <time>2019-08-09T14:01:56Z</time>
      </trkpt>
      <trkpt lat="45.70401" lon="6.66682">
        <ele>2295.3979492188</ele>
        <time>2019-08-09T14:02:07Z</time>
      </trkpt>
      <trkpt lat="45.70401" lon="6.66677">
        <ele>2293.3864746094</ele>
        <time>2019-08-09T14:02:11Z</time>
      </trkpt>
      <trkpt lat="45.704" lon="6.66676">
        <ele>2291.8166503906</ele>
        <time>2019-08-09T14:02:18Z</time>
      </trkpt>
      <trkpt lat="45.70397" lon="6.6668">
        <ele>2291.396484375</ele>
        <time>2019-08-09T14:02:23Z</time>
      </trkpt>
      <trkpt lat="45.70393" lon="6.66682">
        <ele>2289.4812011719</ele>
        <time>2019-08-09T14:02:29Z</time>
      </trkpt>
      <trkpt lat="45.70392" lon="6.66687">
        <ele>2291.880859375</ele>
        <time>2019-08-09T14:02:36Z</time>
      </trkpt>
      <trkpt lat="45.70389" lon="6.66691">
        <ele>2292.8842773438</ele>
        <time>2019-08-09T14:02:46Z</time>
      </trkpt>
      <trkpt lat="45.70385" lon="6.66695">
        <ele>2295.3330078125</ele>
        <time>2019-08-09T14:02:51Z</time>
      </trkpt>
      <trkpt lat="45.70382" lon="6.66696">
        <ele>2295.6789550781</ele>
        <time>2019-08-09T14:03:23Z</time>
      </trkpt>
      <trkpt lat="45.70378" lon="6.667">
        <ele>2298.0581054688</ele>
        <time>2019-08-09T14:03:28Z</time>
      </trkpt>
      <trkpt lat="45.70375" lon="6.66697">
        <ele>2294.7229003906</ele>
        <time>2019-08-09T14:03:38Z</time>
      </trkpt>
      <trkpt lat="45.70372" lon="6.66694">
        <ele>2291.8801269531</ele>
        <time>2019-08-09T14:03:57Z</time>
      </trkpt>
      <trkpt lat="45.70367" lon="6.66694">
        <ele>2290.9191894531</ele>
        <time>2019-08-09T14:04:05Z</time>
      </trkpt>
      <trkpt lat="45.70365" lon="6.66694">
        <ele>2290.7509765625</ele>
        <time>2019-08-09T14:04:08Z</time>
      </trkpt>
      <trkpt lat="45.70364" lon="6.66694">
        <ele>2290.7712402344</ele>
        <time>2019-08-09T14:04:10Z</time>
      </trkpt>
      <trkpt lat="45.70362" lon="6.66693">
        <ele>2290.0305175781</ele>
        <time>2019-08-09T14:04:13Z</time>
      </trkpt>
      <trkpt lat="45.70361" lon="6.66689">
        <ele>2284.5961914062</ele>
        <time>2019-08-09T14:05:18Z</time>
      </trkpt>
      <trkpt lat="45.7036" lon="6.66687">
        <ele>2282.0988769531</ele>
        <time>2019-08-09T14:05:34Z</time>
      </trkpt>
      <trkpt lat="45.70358" lon="6.66684">
        <ele>2277.255859375</ele>
        <time>2019-08-09T14:05:45Z</time>
      </trkpt>
      <trkpt lat="45.70354" lon="6.66684">
        <ele>2274.3190917969</ele>
        <time>2019-08-09T14:05:59Z</time>
      </trkpt>
      <trkpt lat="45.70352" lon="6.66678">
        <ele>2266.7661132812</ele>
        <time>2019-08-09T14:06:33Z</time>
      </trkpt>
      <trkpt lat="45.70348" lon="6.66677">
        <ele>2263.7790527344</ele>
        <time>2019-08-09T14:06:55Z</time>
      </trkpt>
      <trkpt lat="45.70346" lon="6.66676">
        <ele>2261.3601074219</ele>
        <time>2019-08-09T14:06:57Z</time>
      </trkpt>
      <trkpt lat="45.70344" lon="6.66673">
        <ele>2257.0693359375</ele>
        <time>2019-08-09T14:07:01Z</time>
      </trkpt>
      <trkpt lat="45.70341" lon="6.66669">
        <ele>2251.98828125</ele>
        <time>2019-08-09T14:07:46Z</time>
      </trkpt>
      <trkpt lat="45.7034" lon="6.66671">
        <ele>2253.0900878906</ele>
        <time>2019-08-09T14:08:05Z</time>
      </trkpt>
      <trkpt lat="45.70338" lon="6.66669">
        <ele>2250.9223632812</ele>
        <time>2019-08-09T14:08:32Z</time>
      </trkpt>
      <trkpt lat="45.70335" lon="6.66666">
        <ele>2246.5358886719</ele>
        <time>2019-08-09T14:08:59Z</time>
      </trkpt>
      <trkpt lat="45.70332" lon="6.66672">
        <ele>2247.6899414062</ele>
        <time>2019-08-09T14:09:33Z</time>
      </trkpt>
      <trkpt lat="45.70332" lon="6.6668">
        <ele>2253.2241210938</ele>
        <time>2019-08-09T14:09:50Z</time>
      </trkpt>
      <trkpt lat="45.70332" lon="6.66686">
        <ele>2258.1770019531</ele>
        <time>2019-08-09T14:09:53Z</time>
      </trkpt>
      <trkpt lat="45.70333" lon="6.66692">
        <ele>2264.1579589844</ele>
        <time>2019-08-09T14:09:58Z</time>
      </trkpt>
      <trkpt lat="45.70332" lon="6.66696">
        <ele>2263.8178710938</ele>
        <time>2019-08-09T14:10:01Z</time>
      </trkpt>
      <trkpt lat="45.70329" lon="6.667">
        <ele>2256.2502441406</ele>
        <time>2019-08-09T14:10:16Z</time>
      </trkpt>
      <trkpt lat="45.70325" lon="6.66704">
        <ele>2249.3762207031</ele>
        <time>2019-08-09T14:10:30Z</time>
      </trkpt>
      <trkpt lat="45.70322" lon="6.66709">
        <ele>2244.6875</ele>
        <time>2019-08-09T14:10:37Z</time>
      </trkpt>
      <trkpt lat="45.70323" lon="6.66716">
        <ele>2246.0515136719</ele>
        <time>2019-08-09T14:10:42Z</time>
      </trkpt>
      <trkpt lat="45.70324" lon="6.66722">
        <ele>2248.0329589844</ele>
        <time>2019-08-09T14:10:58Z</time>
      </trkpt>
      <trkpt lat="45.70324" lon="6.66729">
        <ele>2254.294921875</ele>
        <time>2019-08-09T14:11:03Z</time>
      </trkpt>
      <trkpt lat="45.70325" lon="6.66735">
        <ele>2261.8508300781</ele>
        <time>2019-08-09T14:11:08Z</time>
      </trkpt>
      <trkpt lat="45.70324" lon="6.6674">
        <ele>2264.6101074219</ele>
        <time>2019-08-09T14:11:32Z</time>
      </trkpt>
      <trkpt lat="45.70323" lon="6.66742">
        <ele>2265.7482910156</ele>
        <time>2019-08-09T14:11:34Z</time>
      </trkpt>
      <trkpt lat="45.70321" lon="6.66748">
        <ele>2269.5244140625</ele>
        <time>2019-08-09T14:11:41Z</time>
      </trkpt>
      <trkpt lat="45.70321" lon="6.66754">
        <ele>2275.5419921875</ele>
        <time>2019-08-09T14:12:31Z</time>
      </trkpt>
      <trkpt lat="45.70318" lon="6.66755">
        <ele>2274.4885253906</ele>
        <time>2019-08-09T14:12:39Z</time>
      </trkpt>
      <trkpt lat="45.70317" lon="6.66749">
        <ele>2266.4802246094</ele>
        <time>2019-08-09T14:12:52Z</time>
      </trkpt>
      <trkpt lat="45.70313" lon="6.6675">
        <ele>2263.935546875</ele>
        <time>2019-08-09T14:13:11Z</time>
      </trkpt>
      <trkpt lat="45.70308" lon="6.6675">
        <ele>2260.0048828125</ele>
        <time>2019-08-09T14:13:29Z</time>
      </trkpt>
      <trkpt lat="45.70306" lon="6.66754">
        <ele>2263.3969726562</ele>
        <time>2019-08-09T14:14:06Z</time>
      </trkpt>
      <trkpt lat="45.70303" lon="6.66751">
        <ele>2255.6335449219</ele>
        <time>2019-08-09T14:14:27Z</time>
      </trkpt>
      <trkpt lat="45.70304" lon="6.66746">
        <ele>2250.0275878906</ele>
        <time>2019-08-09T14:15:39Z</time>
      </trkpt>
      <trkpt lat="45.70305" lon="6.66743">
        <ele>2246.658203125</ele>
        <time>2019-08-09T14:15:43Z</time>
      </trkpt>
      <trkpt lat="45.70305" lon="6.66737">
        <ele>2238.6918945312</ele>
        <time>2019-08-09T14:16:27Z</time>
      </trkpt>
      <trkpt lat="45.70302" lon="6.66741">
        <ele>2240.5710449219</ele>
        <time>2019-08-09T14:16:58Z</time>
      </trkpt>
      <trkpt lat="45.703" lon="6.66742">
        <ele>2239.6506347656</ele>
        <time>2019-08-09T14:17:19Z</time>
      </trkpt>
      <trkpt lat="45.70298" lon="6.66746">
        <ele>2241.8752441406</ele>
        <time>2019-08-09T14:17:36Z</time>
      </trkpt>
      <trkpt lat="45.70295" lon="6.66745">
        <ele>2235.5134277344</ele>
        <time>2019-08-09T14:17:58Z</time>
      </trkpt>
      <trkpt lat="45.70291" lon="6.66746">
        <ele>2232.0732421875</ele>
        <time>2019-08-09T14:19:40Z</time>
      </trkpt>
      <trkpt lat="45.70288" lon="6.6675">
        <ele>2231.146484375</ele>
        <time>2019-08-09T14:20:31Z</time>
      </trkpt>
      <trkpt lat="45.70285" lon="6.66754">
        <ele>2233.6469726562</ele>
        <time>2019-08-09T14:20:38Z</time>
      </trkpt>
      <trkpt lat="45.70283" lon="6.6676">
        <ele>2242.6186523438</ele>
        <time>2019-08-09T14:20:44Z</time>
      </trkpt>
      <trkpt lat="45.70285" lon="6.66756">
        <ele>2239.0285644531</ele>
        <time>2019-08-09T14:21:00Z</time>
      </trkpt>
      <trkpt lat="45.70287" lon="6.66751">
        <ele>2232.2197265625</ele>
        <time>2019-08-09T14:21:47Z</time>
      </trkpt>
      <trkpt lat="45.70284" lon="6.6675">
        <ele>2226.3698730469</ele>
        <time>2019-08-09T14:23:25Z</time>
      </trkpt>
      <trkpt lat="45.70286" lon="6.66748">
        <ele>2226.8420410156</ele>
        <time>2019-08-09T14:24:43Z</time>
      </trkpt>
      <trkpt lat="45.70282" lon="6.66749">
        <ele>2223.0185546875</ele>
        <time>2019-08-09T14:26:00Z</time>
      </trkpt>
      <trkpt lat="45.70282" lon="6.66753">
        <ele>2228.1447753906</ele>
        <time>2019-08-09T14:26:28Z</time>
      </trkpt>
      <trkpt lat="45.70282" lon="6.66756">
        <ele>2235.1274414062</ele>
        <time>2019-08-09T14:26:50Z</time>
      </trkpt>
      <trkpt lat="45.70281" lon="6.6676">
        <ele>2240.8486328125</ele>
        <time>2019-08-09T14:27:23Z</time>
      </trkpt>
      <trkpt lat="45.7028" lon="6.66764">
        <ele>2247.5698242188</ele>
        <time>2019-08-09T14:27:58Z</time>
      </trkpt>
      <trkpt lat="45.70285" lon="6.66767">
        <ele>2259.0131835938</ele>
        <time>2019-08-09T14:28:44Z</time>
      </trkpt>
      <trkpt lat="45.70288" lon="6.66773">
        <ele>2272.048828125</ele>
        <time>2019-08-09T14:28:49Z</time>
      </trkpt>
      <trkpt lat="45.70294" lon="6.66772">
        <ele>2275.4057617188</ele>
        <time>2019-08-09T14:29:23Z</time>
      </trkpt>
      <trkpt lat="45.70289" lon="6.66768">
        <ele>2264.3181152344</ele>
        <time>2019-08-09T14:29:33Z</time>
      </trkpt>
      <trkpt lat="45.70284" lon="6.66765">
        <ele>2252.1665039062</ele>
        <time>2019-08-09T14:29:42Z</time>
      </trkpt>
      <trkpt lat="45.70282" lon="6.66771">
        <ele>2261.5229492188</ele>
        <time>2019-08-09T14:29:49Z</time>
      </trkpt>
      <trkpt lat="45.70287" lon="6.66775">
        <ele>2273.7880859375</ele>
        <time>2019-08-09T14:29:54Z</time>
      </trkpt>
      <trkpt lat="45.70289" lon="6.66772">
        <ele>2271.3359375</ele>
        <time>2019-08-09T14:30:17Z</time>
      </trkpt>
      <trkpt lat="45.70292" lon="6.66767">
        <ele>2266.189453125</ele>
        <time>2019-08-09T14:30:24Z</time>
      </trkpt>
      <trkpt lat="45.70305" lon="6.66755">
        <ele>2263.5383300781</ele>
        <time>2019-08-09T14:31:02Z</time>
      </trkpt>
      <trkpt lat="45.70306" lon="6.66761">
        <ele>2272.5063476562</ele>
        <time>2019-08-09T14:31:05Z</time>
      </trkpt>
      <trkpt lat="45.70309" lon="6.66765">
        <ele>2280.3664550781</ele>
        <time>2019-08-09T14:31:06Z</time>
      </trkpt>
      <trkpt lat="45.70308" lon="6.66771">
        <ele>2287.4904785156</ele>
        <time>2019-08-09T14:31:17Z</time>
      </trkpt>
      <trkpt lat="45.70302" lon="6.66768">
        <ele>2278.7265625</ele>
        <time>2019-08-09T14:31:24Z</time>
      </trkpt>
      <trkpt lat="45.703" lon="6.66773">
        <ele>2283.5607910156</ele>
        <time>2019-08-09T14:31:41Z</time>
      </trkpt>
      <trkpt lat="45.70295" lon="6.66779">
        <ele>2286.337890625</ele>
        <time>2019-08-09T14:31:44Z</time>
      </trkpt>
      <trkpt lat="45.703" lon="6.66778">
        <ele>2290.0041503906</ele>
        <time>2019-08-09T14:32:17Z</time>
      </trkpt>
      <trkpt lat="45.70296" lon="6.66778">
        <ele>2286.6594238281</ele>
        <time>2019-08-09T14:32:29Z</time>
      </trkpt>
      <trkpt lat="45.70299" lon="6.66777">
        <ele>2287.5451660156</ele>
        <time>2019-08-09T14:32:38Z</time>
      </trkpt>
      <trkpt lat="45.70302" lon="6.66771">
        <ele>2282.4309082031</ele>
        <time>2019-08-09T14:32:47Z</time>
      </trkpt>
      <trkpt lat="45.70299" lon="6.66766">
        <ele>2271.4377441406</ele>
        <time>2019-08-09T14:32:51Z</time>
      </trkpt>
      <trkpt lat="45.70294" lon="6.66765">
        <ele>2264.1650390625</ele>
        <time>2019-08-09T14:33:19Z</time>
      </trkpt>
      <trkpt lat="45.7029" lon="6.66763">
        <ele>2255.8205566406</ele>
        <time>2019-08-09T14:33:27Z</time>
      </trkpt>
      <trkpt lat="45.7029" lon="6.66769">
        <ele>2266.7458496094</ele>
        <time>2019-08-09T14:33:52Z</time>
      </trkpt>
      <trkpt lat="45.70287" lon="6.66764">
        <ele>2255.6447753906</ele>
        <time>2019-08-09T14:34:04Z</time>
      </trkpt>
      <trkpt lat="45.70291" lon="6.66761">
        <ele>2254.2639160156</ele>
        <time>2019-08-09T14:34:28Z</time>
      </trkpt>
      <trkpt lat="45.70295" lon="6.66765">
        <ele>2265.271484375</ele>
        <time>2019-08-09T14:35:01Z</time>
      </trkpt>
      <trkpt lat="45.70292" lon="6.6676">
        <ele>2253.4204101562</ele>
        <time>2019-08-09T14:35:39Z</time>
      </trkpt>
      <trkpt lat="45.70296" lon="6.66763">
        <ele>2263.7268066406</ele>
        <time>2019-08-09T14:36:12Z</time>
      </trkpt>
      <trkpt lat="45.703" lon="6.66767">
        <ele>2274.9526367188</ele>
        <time>2019-08-09T14:36:57Z</time>
      </trkpt>
      <trkpt lat="45.70303" lon="6.66765">
        <ele>2274.8198242188</ele>
        <time>2019-08-09T14:37:02Z</time>
      </trkpt>
      <trkpt lat="45.70301" lon="6.66759">
        <ele>2263.849609375</ele>
        <time>2019-08-09T14:37:09Z</time>
      </trkpt>
      <trkpt lat="45.70297" lon="6.66754">
        <ele>2252.3779296875</ele>
        <time>2019-08-09T14:37:14Z</time>
      </trkpt>
      <trkpt lat="45.70292" lon="6.66752">
        <ele>2240.5734863281</ele>
        <time>2019-08-09T14:37:24Z</time>
      </trkpt>
      <trkpt lat="45.70288" lon="6.66754">
        <ele>2239.3405761719</ele>
        <time>2019-08-09T14:37:34Z</time>
      </trkpt>
      <trkpt lat="45.70285" lon="6.66759">
        <ele>2244.5341796875</ele>
        <time>2019-08-09T14:37:42Z</time>
      </trkpt>
      <trkpt lat="45.70281" lon="6.66761">
        <ele>2242.0798339844</ele>
        <time>2019-08-09T14:37:45Z</time>
      </trkpt>
      <trkpt lat="45.70276" lon="6.66759">
        <ele>2229.9465332031</ele>
        <time>2019-08-09T14:37:48Z</time>
      </trkpt>
      <trkpt lat="45.70273" lon="6.66765">
        <ele>2234.4758300781</ele>
        <time>2019-08-09T14:37:54Z</time>
      </trkpt>
      <trkpt lat="45.70273" lon="6.66772">
        <ele>2246.4357910156</ele>
        <time>2019-08-09T14:38:07Z</time>
      </trkpt>
      <trkpt lat="45.70276" lon="6.66776">
        <ele>2262.228515625</ele>
        <time>2019-08-09T14:38:12Z</time>
      </trkpt>
      <trkpt lat="45.70279" lon="6.66771">
        <ele>2258.5261230469</ele>
        <time>2019-08-09T14:38:25Z</time>
      </trkpt>
      <trkpt lat="45.70275" lon="6.6677">
        <ele>2247.1730957031</ele>
        <time>2019-08-09T14:38:38Z</time>
      </trkpt>
      <trkpt lat="45.7028" lon="6.66769">
        <ele>2256.2866210938</ele>
        <time>2019-08-09T14:38:54Z</time>
      </trkpt>
      <trkpt lat="45.70285" lon="6.66773">
        <ele>2269.1188964844</ele>
        <time>2019-08-09T14:39:00Z</time>
      </trkpt>
      <trkpt lat="45.70289" lon="6.66777">
        <ele>2279.7250976562</ele>
        <time>2019-08-09T14:39:12Z</time>
      </trkpt>
      <trkpt lat="45.70294" lon="6.66779">
        <ele>2285.2614746094</ele>
        <time>2019-08-09T14:39:21Z</time>
      </trkpt>
      <trkpt lat="45.70293" lon="6.66772">
        <ele>2274.7233886719</ele>
        <time>2019-08-09T14:39:49Z</time>
      </trkpt>
      <trkpt lat="45.70291" lon="6.66767">
        <ele>2264.6472167969</ele>
        <time>2019-08-09T14:40:02Z</time>
      </trkpt>
      <trkpt lat="45.70296" lon="6.66764">
        <ele>2265.5607910156</ele>
        <time>2019-08-09T14:40:26Z</time>
      </trkpt>
      <trkpt lat="45.703" lon="6.66764">
        <ele>2270.46484375</ele>
        <time>2019-08-09T14:40:37Z</time>
      </trkpt>
      <trkpt lat="45.70304" lon="6.66768">
        <ele>2279.8413085938</ele>
        <time>2019-08-09T14:40:49Z</time>
      </trkpt>
      <trkpt lat="45.70228" lon="6.66953">
        <ele>2198.9592285156</ele>
        <time>2019-08-09T14:45:07Z</time>
      </trkpt>
      <trkpt lat="45.70223" lon="6.66955">
        <ele>2194.8103027344</ele>
        <time>2019-08-09T14:45:09Z</time>
      </trkpt>
      <trkpt lat="45.70221" lon="6.6696">
        <ele>2193.8310546875</ele>
        <time>2019-08-09T14:45:33Z</time>
      </trkpt>
      <trkpt lat="45.70219" lon="6.66966">
        <ele>2191.8493652344</ele>
        <time>2019-08-09T14:45:39Z</time>
      </trkpt>
      <trkpt lat="45.70218" lon="6.66966">
        <ele>2191.3444824219</ele>
        <time>2019-08-09T14:46:59Z</time>
      </trkpt>
      <trkpt lat="45.70218" lon="6.66965">
        <ele>2191.3703613281</ele>
        <time>2019-08-09T14:47:20Z</time>
      </trkpt>
      <trkpt lat="45.70216" lon="6.66963">
        <ele>2189.8815917969</ele>
        <time>2019-08-09T14:49:06Z</time>
      </trkpt>
      <trkpt lat="45.70218" lon="6.66967">
        <ele>2191.0764160156</ele>
        <time>2019-08-09T14:49:21Z</time>
      </trkpt>
      <trkpt lat="45.70221" lon="6.66971">
        <ele>2193.2180175781</ele>
        <time>2019-08-09T14:49:40Z</time>
      </trkpt>
      <trkpt lat="45.70221" lon="6.66977">
        <ele>2192.4826660156</ele>
        <time>2019-08-09T14:49:46Z</time>
      </trkpt>
      <trkpt lat="45.70222" lon="6.66983">
        <ele>2192.72265625</ele>
        <time>2019-08-09T14:49:52Z</time>
      </trkpt>
      <trkpt lat="45.70223" lon="6.66991">
        <ele>2192.140625</ele>
        <time>2019-08-09T14:50:03Z</time>
      </trkpt>
      <trkpt lat="45.70224" lon="6.66997">
        <ele>2192.5856933594</ele>
        <time>2019-08-09T14:50:09Z</time>
      </trkpt>
      <trkpt lat="45.70225" lon="6.66999">
        <ele>2192.5893554688</ele>
        <time>2019-08-09T14:50:40Z</time>
      </trkpt>
      <trkpt lat="45.70226" lon="6.67005">
        <ele>2191.5283203125</ele>
        <time>2019-08-09T14:50:45Z</time>
      </trkpt>
      <trkpt lat="45.70226" lon="6.67012">
        <ele>2189.9086914062</ele>
        <time>2019-08-09T14:50:49Z</time>
      </trkpt>
      <trkpt lat="45.70227" lon="6.67018">
        <ele>2188.2907714844</ele>
        <time>2019-08-09T14:50:54Z</time>
      </trkpt>
      <trkpt lat="45.70229" lon="6.67023">
        <ele>2187.7326660156</ele>
        <time>2019-08-09T14:50:58Z</time>
      </trkpt>
      <trkpt lat="45.70232" lon="6.67028">
        <ele>2187.7761230469</ele>
        <time>2019-08-09T14:51:13Z</time>
      </trkpt>
      <trkpt lat="45.70234" lon="6.67035">
        <ele>2185.7893066406</ele>
        <time>2019-08-09T14:51:21Z</time>
      </trkpt>
      <trkpt lat="45.70235" lon="6.67042">
        <ele>2183.1948242188</ele>
        <time>2019-08-09T14:51:25Z</time>
      </trkpt>
      <trkpt lat="45.7024" lon="6.67048">
        <ele>2182.955078125</ele>
        <time>2019-08-09T14:51:31Z</time>
      </trkpt>
      <trkpt lat="45.70244" lon="6.67054">
        <ele>2181.8156738281</ele>
        <time>2019-08-09T14:51:37Z</time>
      </trkpt>
      <trkpt lat="45.70247" lon="6.67059">
        <ele>2181.2160644531</ele>
        <time>2019-08-09T14:51:41Z</time>
      </trkpt>
      <trkpt lat="45.70248" lon="6.67062">
        <ele>2180.9211425781</ele>
        <time>2019-08-09T14:51:43Z</time>
      </trkpt>
      <trkpt lat="45.70251" lon="6.67065">
        <ele>2180.6513671875</ele>
        <time>2019-08-09T14:51:46Z</time>
      </trkpt>
      <trkpt lat="45.70253" lon="6.67071">
        <ele>2179.5424804688</ele>
        <time>2019-08-09T14:51:51Z</time>
      </trkpt>
      <trkpt lat="45.70256" lon="6.67074">
        <ele>2179.8154296875</ele>
        <time>2019-08-09T14:51:55Z</time>
      </trkpt>
      <trkpt lat="45.70259" lon="6.67079">
        <ele>2179.15625</ele>
        <time>2019-08-09T14:51:58Z</time>
      </trkpt>
      <trkpt lat="45.70261" lon="6.67083">
        <ele>2178.361328125</ele>
        <time>2019-08-09T14:52:01Z</time>
      </trkpt>
      <trkpt lat="45.70263" lon="6.67088">
        <ele>2177.7607421875</ele>
        <time>2019-08-09T14:52:04Z</time>
      </trkpt>
      <trkpt lat="45.70265" lon="6.67092">
        <ele>2177.6628417969</ele>
        <time>2019-08-09T14:52:07Z</time>
      </trkpt>
      <trkpt lat="45.70268" lon="6.67099">
        <ele>2177.0070800781</ele>
        <time>2019-08-09T14:52:13Z</time>
      </trkpt>
      <trkpt lat="45.70272" lon="6.67104">
        <ele>2177.4223632812</ele>
        <time>2019-08-09T14:52:18Z</time>
      </trkpt>
      <trkpt lat="45.70274" lon="6.67109">
        <ele>2176.8542480469</ele>
        <time>2019-08-09T14:52:21Z</time>
      </trkpt>
      <trkpt lat="45.70276" lon="6.67113">
        <ele>2176.6037597656</ele>
        <time>2019-08-09T14:52:24Z</time>
      </trkpt>
      <trkpt lat="45.7028" lon="6.67116">
        <ele>2177.1203613281</ele>
        <time>2019-08-09T14:52:49Z</time>
      </trkpt>
      <trkpt lat="45.70284" lon="6.67121">
        <ele>2177.6462402344</ele>
        <time>2019-08-09T14:52:54Z</time>
      </trkpt>
      <trkpt lat="45.70287" lon="6.67125">
        <ele>2178.0651855469</ele>
        <time>2019-08-09T14:52:59Z</time>
      </trkpt>
      <trkpt lat="45.70291" lon="6.6713">
        <ele>2178.33203125</ele>
        <time>2019-08-09T14:53:04Z</time>
      </trkpt>
      <trkpt lat="45.70293" lon="6.67137">
        <ele>2177.318359375</ele>
        <time>2019-08-09T14:53:09Z</time>
      </trkpt>
      <trkpt lat="45.70297" lon="6.67142">
        <ele>2178.2727050781</ele>
        <time>2019-08-09T14:53:14Z</time>
      </trkpt>
      <trkpt lat="45.70301" lon="6.67146">
        <ele>2179.2214355469</ele>
        <time>2019-08-09T14:53:20Z</time>
      </trkpt>
      <trkpt lat="45.70303" lon="6.67151">
        <ele>2178.9208984375</ele>
        <time>2019-08-09T14:53:24Z</time>
      </trkpt>
      <trkpt lat="45.70304" lon="6.67158">
        <ele>2177.7980957031</ele>
        <time>2019-08-09T14:53:30Z</time>
      </trkpt>
      <trkpt lat="45.70306" lon="6.67164">
        <ele>2176.947265625</ele>
        <time>2019-08-09T14:53:36Z</time>
      </trkpt>
      <trkpt lat="45.70308" lon="6.67171">
        <ele>2176.0500488281</ele>
        <time>2019-08-09T14:53:41Z</time>
      </trkpt>
      <trkpt lat="45.70312" lon="6.67176">
        <ele>2176.2124023438</ele>
        <time>2019-08-09T14:53:45Z</time>
      </trkpt>
      <trkpt lat="45.70316" lon="6.6718">
        <ele>2176.8188476562</ele>
        <time>2019-08-09T14:53:50Z</time>
      </trkpt>
      <trkpt lat="45.70318" lon="6.67186">
        <ele>2176.0358886719</ele>
        <time>2019-08-09T14:53:54Z</time>
      </trkpt>
      <trkpt lat="45.7032" lon="6.6719">
        <ele>2175.3823242188</ele>
        <time>2019-08-09T14:53:57Z</time>
      </trkpt>
      <trkpt lat="45.70323" lon="6.67197">
        <ele>2175.033203125</ele>
        <time>2019-08-09T14:54:02Z</time>
      </trkpt>
      <trkpt lat="45.70326" lon="6.67202">
        <ele>2174.7722167969</ele>
        <time>2019-08-09T14:54:06Z</time>
      </trkpt>
      <trkpt lat="45.70327" lon="6.67206">
        <ele>2174.4099121094</ele>
        <time>2019-08-09T14:54:09Z</time>
      </trkpt>
      <trkpt lat="45.7033" lon="6.67209">
        <ele>2174.7705078125</ele>
        <time>2019-08-09T14:54:12Z</time>
      </trkpt>
      <trkpt lat="45.70334" lon="6.67213">
        <ele>2175.4287109375</ele>
        <time>2019-08-09T14:54:17Z</time>
      </trkpt>
      <trkpt lat="45.70339" lon="6.67216">
        <ele>2176.9482421875</ele>
        <time>2019-08-09T14:54:22Z</time>
      </trkpt>
      <trkpt lat="45.70343" lon="6.67219">
        <ele>2177.8981933594</ele>
        <time>2019-08-09T14:54:26Z</time>
      </trkpt>
      <trkpt lat="45.70347" lon="6.67224">
        <ele>2177.6735839844</ele>
        <time>2019-08-09T14:54:29Z</time>
      </trkpt>
      <trkpt lat="45.70348" lon="6.67225">
        <ele>2177.6857910156</ele>
        <time>2019-08-09T14:54:30Z</time>
      </trkpt>
      <trkpt lat="45.70349" lon="6.67227">
        <ele>2177.7670898438</ele>
        <time>2019-08-09T14:54:31Z</time>
      </trkpt>
      <trkpt lat="45.7035" lon="6.6723">
        <ele>2177.2248535156</ele>
        <time>2019-08-09T14:54:34Z</time>
      </trkpt>
      <trkpt lat="45.70351" lon="6.67234">
        <ele>2176.43359375</ele>
        <time>2019-08-09T14:54:37Z</time>
      </trkpt>
      <trkpt lat="45.70353" lon="6.6724">
        <ele>2175.212890625</ele>
        <time>2019-08-09T14:54:40Z</time>
      </trkpt>
      <trkpt lat="45.70356" lon="6.67245">
        <ele>2174.736328125</ele>
        <time>2019-08-09T14:54:44Z</time>
      </trkpt>
      <trkpt lat="45.7036" lon="6.67248">
        <ele>2175.2004394531</ele>
        <time>2019-08-09T14:54:48Z</time>
      </trkpt>
      <trkpt lat="45.70364" lon="6.67256">
        <ele>2174.3920898438</ele>
        <time>2019-08-09T14:54:53Z</time>
      </trkpt>
      <trkpt lat="45.70365" lon="6.67261">
        <ele>2173.7114257812</ele>
        <time>2019-08-09T14:54:56Z</time>
      </trkpt>
      <trkpt lat="45.70369" lon="6.67266">
        <ele>2173.9560546875</ele>
        <time>2019-08-09T14:55:01Z</time>
      </trkpt>
      <trkpt lat="45.7037" lon="6.67267">
        <ele>2174.1040039062</ele>
        <time>2019-08-09T14:55:02Z</time>
      </trkpt>
      <trkpt lat="45.70375" lon="6.67269">
        <ele>2175.2783203125</ele>
        <time>2019-08-09T14:55:06Z</time>
      </trkpt>
      <trkpt lat="45.70379" lon="6.67271">
        <ele>2176.537109375</ele>
        <time>2019-08-09T14:55:10Z</time>
      </trkpt>
      <trkpt lat="45.7038" lon="6.67279">
        <ele>2175.5048828125</ele>
        <time>2019-08-09T14:55:14Z</time>
      </trkpt>
      <trkpt lat="45.7038" lon="6.67286">
        <ele>2173.9836425781</ele>
        <time>2019-08-09T14:55:18Z</time>
      </trkpt>
      <trkpt lat="45.70379" lon="6.67294">
        <ele>2172.1318359375</ele>
        <time>2019-08-09T14:55:22Z</time>
      </trkpt>
      <trkpt lat="45.70382" lon="6.67299">
        <ele>2172.0642089844</ele>
        <time>2019-08-09T14:55:26Z</time>
      </trkpt>
      <trkpt lat="45.70384" lon="6.67306">
        <ele>2171.7810058594</ele>
        <time>2019-08-09T14:55:32Z</time>
      </trkpt>
      <trkpt lat="45.70387" lon="6.67311">
        <ele>2172.2272949219</ele>
        <time>2019-08-09T14:55:36Z</time>
      </trkpt>
      <trkpt lat="45.7039" lon="6.67316">
        <ele>2173.1662597656</ele>
        <time>2019-08-09T14:55:41Z</time>
      </trkpt>
      <trkpt lat="45.70392" lon="6.67323">
        <ele>2172.8364257812</ele>
        <time>2019-08-09T14:55:45Z</time>
      </trkpt>
      <trkpt lat="45.70394" lon="6.67329">
        <ele>2173.0852050781</ele>
        <time>2019-08-09T14:55:49Z</time>
      </trkpt>
      <trkpt lat="45.70396" lon="6.67336">
        <ele>2172.8928222656</ele>
        <time>2019-08-09T14:55:53Z</time>
      </trkpt>
      <trkpt lat="45.70397" lon="6.67344">
        <ele>2172.5373535156</ele>
        <time>2019-08-09T14:55:57Z</time>
      </trkpt>
      <trkpt lat="45.70397" lon="6.67352">
        <ele>2171.7236328125</ele>
        <time>2019-08-09T14:56:01Z</time>
      </trkpt>
      <trkpt lat="45.70396" lon="6.67358">
        <ele>2170.4724121094</ele>
        <time>2019-08-09T14:56:05Z</time>
      </trkpt>
      <trkpt lat="45.70397" lon="6.67366">
        <ele>2170.2580566406</ele>
        <time>2019-08-09T14:56:12Z</time>
      </trkpt>
      <trkpt lat="45.70397" lon="6.67373">
        <ele>2169.6298828125</ele>
        <time>2019-08-09T14:56:16Z</time>
      </trkpt>
      <trkpt lat="45.70399" lon="6.6738">
        <ele>2169.5476074219</ele>
        <time>2019-08-09T14:56:20Z</time>
      </trkpt>
      <trkpt lat="45.70399" lon="6.67386">
        <ele>2169.0434570312</ele>
        <time>2019-08-09T14:56:24Z</time>
      </trkpt>
      <trkpt lat="45.70401" lon="6.67392">
        <ele>2168.7590332031</ele>
        <time>2019-08-09T14:56:28Z</time>
      </trkpt>
      <trkpt lat="45.704" lon="6.67398">
        <ele>2167.818359375</ele>
        <time>2019-08-09T14:56:32Z</time>
      </trkpt>
      <trkpt lat="45.70398" lon="6.67403">
        <ele>2166.4174804688</ele>
        <time>2019-08-09T14:56:35Z</time>
      </trkpt>
      <trkpt lat="45.70397" lon="6.6741">
        <ele>2164.9206542969</ele>
        <time>2019-08-09T14:56:42Z</time>
      </trkpt>
      <trkpt lat="45.70398" lon="6.67416">
        <ele>2164.5568847656</ele>
        <time>2019-08-09T14:56:46Z</time>
      </trkpt>
      <trkpt lat="45.70401" lon="6.6742">
        <ele>2165.0031738281</ele>
        <time>2019-08-09T14:56:50Z</time>
      </trkpt>
      <trkpt lat="45.70401" lon="6.67426">
        <ele>2163.9663085938</ele>
        <time>2019-08-09T14:56:56Z</time>
      </trkpt>
      <trkpt lat="45.70397" lon="6.67431">
        <ele>2161.87890625</ele>
        <time>2019-08-09T14:57:00Z</time>
      </trkpt>
      <trkpt lat="45.70393" lon="6.67431">
        <ele>2160.4162597656</ele>
        <time>2019-08-09T14:57:05Z</time>
      </trkpt>
      <trkpt lat="45.70392" lon="6.67427">
        <ele>2160.4025878906</ele>
        <time>2019-08-09T14:57:09Z</time>
      </trkpt>
      <trkpt lat="45.70388" lon="6.67423">
        <ele>2159.7880859375</ele>
        <time>2019-08-09T14:57:13Z</time>
      </trkpt>
      <trkpt lat="45.70384" lon="6.67421">
        <ele>2158.4543457031</ele>
        <time>2019-08-09T14:57:18Z</time>
      </trkpt>
      <trkpt lat="45.7038" lon="6.67422">
        <ele>2156.7927246094</ele>
        <time>2019-08-09T14:57:22Z</time>
      </trkpt>
      <trkpt lat="45.70376" lon="6.67423">
        <ele>2155.0747070312</ele>
        <time>2019-08-09T14:57:27Z</time>
      </trkpt>
      <trkpt lat="45.70372" lon="6.67424">
        <ele>2153.2944335938</ele>
        <time>2019-08-09T14:57:32Z</time>
      </trkpt>
      <trkpt lat="45.70368" lon="6.67429">
        <ele>2151.3298339844</ele>
        <time>2019-08-09T14:57:36Z</time>
      </trkpt>
      <trkpt lat="45.70367" lon="6.67435">
        <ele>2150.052734375</ele>
        <time>2019-08-09T14:57:41Z</time>
      </trkpt>
      <trkpt lat="45.70368" lon="6.67442">
        <ele>2149.7438964844</ele>
        <time>2019-08-09T14:57:49Z</time>
      </trkpt>
      <trkpt lat="45.70367" lon="6.67449">
        <ele>2148.6677246094</ele>
        <time>2019-08-09T14:57:54Z</time>
      </trkpt>
      <trkpt lat="45.70363" lon="6.67448">
        <ele>2146.9169921875</ele>
        <time>2019-08-09T14:57:58Z</time>
      </trkpt>
      <trkpt lat="45.70359" lon="6.67446">
        <ele>2145.5129394531</ele>
        <time>2019-08-09T14:58:02Z</time>
      </trkpt>
      <trkpt lat="45.70354" lon="6.67446">
        <ele>2143.240234375</ele>
        <time>2019-08-09T14:58:08Z</time>
      </trkpt>
      <trkpt lat="45.7035" lon="6.67442">
        <ele>2141.6069335938</ele>
        <time>2019-08-09T14:58:13Z</time>
      </trkpt>
      <trkpt lat="45.70346" lon="6.67438">
        <ele>2140.1169433594</ele>
        <time>2019-08-09T14:58:18Z</time>
      </trkpt>
      <trkpt lat="45.70343" lon="6.67434">
        <ele>2139.2241210938</ele>
        <time>2019-08-09T14:58:24Z</time>
      </trkpt>
      <trkpt lat="45.70338" lon="6.67433">
        <ele>2136.7814941406</ele>
        <time>2019-08-09T14:58:28Z</time>
      </trkpt>
      <trkpt lat="45.70335" lon="6.67428">
        <ele>2135.8251953125</ele>
        <time>2019-08-09T14:58:34Z</time>
      </trkpt>
      <trkpt lat="45.70332" lon="6.67421">
        <ele>2134.6394042969</ele>
        <time>2019-08-09T14:58:40Z</time>
      </trkpt>
      <trkpt lat="45.70329" lon="6.67416">
        <ele>2134.2185058594</ele>
        <time>2019-08-09T14:58:44Z</time>
      </trkpt>
      <trkpt lat="45.70326" lon="6.67413">
        <ele>2132.9641113281</ele>
        <time>2019-08-09T14:58:48Z</time>
      </trkpt>
      <trkpt lat="45.70323" lon="6.67409">
        <ele>2132.021484375</ele>
        <time>2019-08-09T14:58:53Z</time>
      </trkpt>
      <trkpt lat="45.70318" lon="6.67406">
        <ele>2130.2661132812</ele>
        <time>2019-08-09T14:58:58Z</time>
      </trkpt>
      <trkpt lat="45.70314" lon="6.67405">
        <ele>2128.486328125</ele>
        <time>2019-08-09T14:59:01Z</time>
      </trkpt>
      <trkpt lat="45.7031" lon="6.67402">
        <ele>2127.2707519531</ele>
        <time>2019-08-09T14:59:05Z</time>
      </trkpt>
      <trkpt lat="45.70308" lon="6.67397">
        <ele>2127.1052246094</ele>
        <time>2019-08-09T14:59:08Z</time>
      </trkpt>
      <trkpt lat="45.70306" lon="6.67393">
        <ele>2126.61328125</ele>
        <time>2019-08-09T14:59:11Z</time>
      </trkpt>
      <trkpt lat="45.70301" lon="6.67389">
        <ele>2124.9040527344</ele>
        <time>2019-08-09T14:59:15Z</time>
      </trkpt>
      <trkpt lat="45.70299" lon="6.67385">
        <ele>2124.4506835938</ele>
        <time>2019-08-09T14:59:18Z</time>
      </trkpt>
      <trkpt lat="45.70296" lon="6.67379">
        <ele>2123.7641601562</ele>
        <time>2019-08-09T14:59:23Z</time>
      </trkpt>
      <trkpt lat="45.70293" lon="6.67373">
        <ele>2123.4140625</ele>
        <time>2019-08-09T14:59:27Z</time>
      </trkpt>
      <trkpt lat="45.7029" lon="6.67367">
        <ele>2123.0224609375</ele>
        <time>2019-08-09T14:59:31Z</time>
      </trkpt>
      <trkpt lat="45.70289" lon="6.67361">
        <ele>2123.0717773438</ele>
        <time>2019-08-09T14:59:35Z</time>
      </trkpt>
      <trkpt lat="45.70287" lon="6.67356">
        <ele>2122.7414550781</ele>
        <time>2019-08-09T14:59:38Z</time>
      </trkpt>
      <trkpt lat="45.70286" lon="6.67355">
        <ele>2122.5314941406</ele>
        <time>2019-08-09T14:59:39Z</time>
      </trkpt>
      <trkpt lat="45.70283" lon="6.67349">
        <ele>2121.9167480469</ele>
        <time>2019-08-09T14:59:42Z</time>
      </trkpt>
      <trkpt lat="45.7028" lon="6.67344">
        <ele>2120.7609863281</ele>
        <time>2019-08-09T14:59:45Z</time>
      </trkpt>
      <trkpt lat="45.70276" lon="6.67339">
        <ele>2119.5388183594</ele>
        <time>2019-08-09T14:59:50Z</time>
      </trkpt>
      <trkpt lat="45.70273" lon="6.67336">
        <ele>2118.5085449219</ele>
        <time>2019-08-09T14:59:53Z</time>
      </trkpt>
      <trkpt lat="45.70268" lon="6.67334">
        <ele>2116.4809570312</ele>
        <time>2019-08-09T14:59:57Z</time>
      </trkpt>
      <trkpt lat="45.70265" lon="6.6733">
        <ele>2116.2700195312</ele>
        <time>2019-08-09T15:00:00Z</time>
      </trkpt>
      <trkpt lat="45.70262" lon="6.67325">
        <ele>2115.9851074219</ele>
        <time>2019-08-09T15:01:03Z</time>
      </trkpt>
      <trkpt lat="45.7026" lon="6.67321">
        <ele>2115.7121582031</ele>
        <time>2019-08-09T15:01:06Z</time>
      </trkpt>
      <trkpt lat="45.70257" lon="6.67316">
        <ele>2115.3642578125</ele>
        <time>2019-08-09T15:01:17Z</time>
      </trkpt>
      <trkpt lat="45.70253" lon="6.67312">
        <ele>2114.234375</ele>
        <time>2019-08-09T15:01:21Z</time>
      </trkpt>
      <trkpt lat="45.70249" lon="6.67308">
        <ele>2113.2048339844</ele>
        <time>2019-08-09T15:01:25Z</time>
      </trkpt>
      <trkpt lat="45.70245" lon="6.67304">
        <ele>2112.8393554688</ele>
        <time>2019-08-09T15:01:29Z</time>
      </trkpt>
      <trkpt lat="45.7024" lon="6.673">
        <ele>2112.4792480469</ele>
        <time>2019-08-09T15:01:34Z</time>
      </trkpt>
      <trkpt lat="45.70236" lon="6.67296">
        <ele>2111.9682617188</ele>
        <time>2019-08-09T15:01:38Z</time>
      </trkpt>
      <trkpt lat="45.70231" lon="6.67295">
        <ele>2110.779296875</ele>
        <time>2019-08-09T15:01:42Z</time>
      </trkpt>
      <trkpt lat="45.70227" lon="6.67292">
        <ele>2110.0822753906</ele>
        <time>2019-08-09T15:01:46Z</time>
      </trkpt>
      <trkpt lat="45.70223" lon="6.67288">
        <ele>2109.4514160156</ele>
        <time>2019-08-09T15:01:59Z</time>
      </trkpt>
      <trkpt lat="45.7022" lon="6.67284">
        <ele>2109.1037597656</ele>
        <time>2019-08-09T15:02:02Z</time>
      </trkpt>
      <trkpt lat="45.70216" lon="6.67278">
        <ele>2109.2309570312</ele>
        <time>2019-08-09T15:02:06Z</time>
      </trkpt>
      <trkpt lat="45.70213" lon="6.67273">
        <ele>2109.1447753906</ele>
        <time>2019-08-09T15:02:11Z</time>
      </trkpt>
      <trkpt lat="45.70211" lon="6.67269">
        <ele>2109.0612792969</ele>
        <time>2019-08-09T15:02:14Z</time>
      </trkpt>
      <trkpt lat="45.70207" lon="6.67264">
        <ele>2108.7373046875</ele>
        <time>2019-08-09T15:02:19Z</time>
      </trkpt>
      <trkpt lat="45.70203" lon="6.67262">
        <ele>2108.0007324219</ele>
        <time>2019-08-09T15:02:22Z</time>
      </trkpt>
      <trkpt lat="45.702" lon="6.67259">
        <ele>2107.2985839844</ele>
        <time>2019-08-09T15:02:25Z</time>
      </trkpt>
      <trkpt lat="45.70196" lon="6.67257">
        <ele>2106.3923339844</ele>
        <time>2019-08-09T15:02:28Z</time>
      </trkpt>
      <trkpt lat="45.70191" lon="6.67254">
        <ele>2105.3032226562</ele>
        <time>2019-08-09T15:02:32Z</time>
      </trkpt>
      <trkpt lat="45.70186" lon="6.6725">
        <ele>2104.1474609375</ele>
        <time>2019-08-09T15:02:36Z</time>
      </trkpt>
      <trkpt lat="45.70182" lon="6.67248">
        <ele>2103.28125</ele>
        <time>2019-08-09T15:02:40Z</time>
      </trkpt>
      <trkpt lat="45.70177" lon="6.67244">
        <ele>2102.4064941406</ele>
        <time>2019-08-09T15:02:44Z</time>
      </trkpt>
      <trkpt lat="45.70173" lon="6.67241">
        <ele>2101.4055175781</ele>
        <time>2019-08-09T15:02:48Z</time>
      </trkpt>
      <trkpt lat="45.7017" lon="6.67239">
        <ele>2100.8703613281</ele>
        <time>2019-08-09T15:02:50Z</time>
      </trkpt>
      <trkpt lat="45.70167" lon="6.67236">
        <ele>2100.0983886719</ele>
        <time>2019-08-09T15:02:53Z</time>
      </trkpt>
      <trkpt lat="45.70163" lon="6.67231">
        <ele>2099.3071289062</ele>
        <time>2019-08-09T15:02:57Z</time>
      </trkpt>
      <trkpt lat="45.7016" lon="6.67226">
        <ele>2099.1567382812</ele>
        <time>2019-08-09T15:03:00Z</time>
      </trkpt>
      <trkpt lat="45.70156" lon="6.67223">
        <ele>2097.9040527344</ele>
        <time>2019-08-09T15:03:04Z</time>
      </trkpt>
      <trkpt lat="45.70154" lon="6.67229">
        <ele>2096.65625</ele>
        <time>2019-08-09T15:03:10Z</time>
      </trkpt>
      <trkpt lat="45.70156" lon="6.67233">
        <ele>2096.7670898438</ele>
        <time>2019-08-09T15:03:13Z</time>
      </trkpt>
      <trkpt lat="45.70159" lon="6.67241">
        <ele>2096.6892089844</ele>
        <time>2019-08-09T15:03:18Z</time>
      </trkpt>
      <trkpt lat="45.7016" lon="6.67246">
        <ele>2096.27734375</ele>
        <time>2019-08-09T15:03:21Z</time>
      </trkpt>
      <trkpt lat="45.70161" lon="6.67252">
        <ele>2095.7600097656</ele>
        <time>2019-08-09T15:03:25Z</time>
      </trkpt>
      <trkpt lat="45.70163" lon="6.67259">
        <ele>2095.0581054688</ele>
        <time>2019-08-09T15:03:29Z</time>
      </trkpt>
      <trkpt lat="45.70165" lon="6.67266">
        <ele>2094.4113769531</ele>
        <time>2019-08-09T15:03:33Z</time>
      </trkpt>
      <trkpt lat="45.70167" lon="6.67272">
        <ele>2094.2575683594</ele>
        <time>2019-08-09T15:03:37Z</time>
      </trkpt>
      <trkpt lat="45.7017" lon="6.67277">
        <ele>2094.4624023438</ele>
        <time>2019-08-09T15:03:41Z</time>
      </trkpt>
      <trkpt lat="45.70173" lon="6.67283">
        <ele>2094.1154785156</ele>
        <time>2019-08-09T15:03:45Z</time>
      </trkpt>
      <trkpt lat="45.70175" lon="6.6729">
        <ele>2093.6518554688</ele>
        <time>2019-08-09T15:03:49Z</time>
      </trkpt>
      <trkpt lat="45.70176" lon="6.67295">
        <ele>2093.30859375</ele>
        <time>2019-08-09T15:03:52Z</time>
      </trkpt>
      <trkpt lat="45.70178" lon="6.67301">
        <ele>2092.8879394531</ele>
        <time>2019-08-09T15:03:55Z</time>
      </trkpt>
      <trkpt lat="45.70179" lon="6.67308">
        <ele>2092.2385253906</ele>
        <time>2019-08-09T15:03:59Z</time>
      </trkpt>
      <trkpt lat="45.7018" lon="6.67313">
        <ele>2091.8645019531</ele>
        <time>2019-08-09T15:04:02Z</time>
      </trkpt>
      <trkpt lat="45.70181" lon="6.67319">
        <ele>2091.4562988281</ele>
        <time>2019-08-09T15:04:05Z</time>
      </trkpt>
      <trkpt lat="45.70182" lon="6.67324">
        <ele>2091.1042480469</ele>
        <time>2019-08-09T15:04:08Z</time>
      </trkpt>
      <trkpt lat="45.70182" lon="6.6733">
        <ele>2090.4396972656</ele>
        <time>2019-08-09T15:04:11Z</time>
      </trkpt>
      <trkpt lat="45.70182" lon="6.67336">
        <ele>2089.65234375</ele>
        <time>2019-08-09T15:04:15Z</time>
      </trkpt>
      <trkpt lat="45.70182" lon="6.67343">
        <ele>2089.1064453125</ele>
        <time>2019-08-09T15:04:19Z</time>
      </trkpt>
      <trkpt lat="45.70181" lon="6.67349">
        <ele>2088.0815429688</ele>
        <time>2019-08-09T15:04:22Z</time>
      </trkpt>
      <trkpt lat="45.70181" lon="6.67354">
        <ele>2087.2473144531</ele>
        <time>2019-08-09T15:04:25Z</time>
      </trkpt>
      <trkpt lat="45.7018" lon="6.67361">
        <ele>2086.3205566406</ele>
        <time>2019-08-09T15:04:29Z</time>
      </trkpt>
      <trkpt lat="45.7018" lon="6.67369">
        <ele>2085.1687011719</ele>
        <time>2019-08-09T15:04:33Z</time>
      </trkpt>
      <trkpt lat="45.70179" lon="6.67375">
        <ele>2084.0356445312</ele>
        <time>2019-08-09T15:04:36Z</time>
      </trkpt>
      <trkpt lat="45.70179" lon="6.67382">
        <ele>2083.0615234375</ele>
        <time>2019-08-09T15:04:40Z</time>
      </trkpt>
      <trkpt lat="45.70183" lon="6.67384">
        <ele>2083.8481445312</ele>
        <time>2019-08-09T15:04:50Z</time>
      </trkpt>
      <trkpt lat="45.70186" lon="6.6739">
        <ele>2083.8063964844</ele>
        <time>2019-08-09T15:04:55Z</time>
      </trkpt>
      <trkpt lat="45.70187" lon="6.67396">
        <ele>2083.1042480469</ele>
        <time>2019-08-09T15:04:59Z</time>
      </trkpt>
      <trkpt lat="45.70184" lon="6.67403">
        <ele>2081.5349121094</ele>
        <time>2019-08-09T15:05:03Z</time>
      </trkpt>
      <trkpt lat="45.70182" lon="6.67409">
        <ele>2080.2644042969</ele>
        <time>2019-08-09T15:05:07Z</time>
      </trkpt>
      <trkpt lat="45.70181" lon="6.67415">
        <ele>2079.3186035156</ele>
        <time>2019-08-09T15:05:12Z</time>
      </trkpt>
      <trkpt lat="45.70181" lon="6.67422">
        <ele>2078.4470214844</ele>
        <time>2019-08-09T15:05:16Z</time>
      </trkpt>
      <trkpt lat="45.7018" lon="6.67429">
        <ele>2077.3825683594</ele>
        <time>2019-08-09T15:05:20Z</time>
      </trkpt>
      <trkpt lat="45.70177" lon="6.67433">
        <ele>2076.2326660156</ele>
        <time>2019-08-09T15:05:23Z</time>
      </trkpt>
      <trkpt lat="45.70174" lon="6.67437">
        <ele>2075.2687988281</ele>
        <time>2019-08-09T15:05:26Z</time>
      </trkpt>
      <trkpt lat="45.70173" lon="6.67442">
        <ele>2074.3120117188</ele>
        <time>2019-08-09T15:05:30Z</time>
      </trkpt>
      <trkpt lat="45.70171" lon="6.67446">
        <ele>2073.4611816406</ele>
        <time>2019-08-09T15:05:33Z</time>
      </trkpt>
      <trkpt lat="45.70167" lon="6.67452">
        <ele>2072.0307617188</ele>
        <time>2019-08-09T15:05:37Z</time>
      </trkpt>
      <trkpt lat="45.70165" lon="6.67458">
        <ele>2070.5512695312</ele>
        <time>2019-08-09T15:05:41Z</time>
      </trkpt>
      <trkpt lat="45.70163" lon="6.67462">
        <ele>2069.2397460938</ele>
        <time>2019-08-09T15:05:44Z</time>
      </trkpt>
      <trkpt lat="45.7016" lon="6.67465">
        <ele>2067.4819335938</ele>
        <time>2019-08-09T15:05:47Z</time>
      </trkpt>
      <trkpt lat="45.70156" lon="6.67466">
        <ele>2066.01953125</ele>
        <time>2019-08-09T15:05:50Z</time>
      </trkpt>
      <trkpt lat="45.7015" lon="6.67464">
        <ele>2064.275390625</ele>
        <time>2019-08-09T15:05:54Z</time>
      </trkpt>
      <trkpt lat="45.70146" lon="6.67459">
        <ele>2063.595703125</ele>
        <time>2019-08-09T15:05:59Z</time>
      </trkpt>
      <trkpt lat="45.70144" lon="6.67455">
        <ele>2063.2521972656</ele>
        <time>2019-08-09T15:06:02Z</time>
      </trkpt>
      <trkpt lat="45.70143" lon="6.67454">
        <ele>2063.0942382812</ele>
        <time>2019-08-09T15:06:03Z</time>
      </trkpt>
      <trkpt lat="45.70139" lon="6.6745">
        <ele>2062.3732910156</ele>
        <time>2019-08-09T15:06:08Z</time>
      </trkpt>
      <trkpt lat="45.70137" lon="6.67445">
        <ele>2062.1127929688</ele>
        <time>2019-08-09T15:06:12Z</time>
      </trkpt>
      <trkpt lat="45.70132" lon="6.67444">
        <ele>2060.2014160156</ele>
        <time>2019-08-09T15:06:18Z</time>
      </trkpt>
      <trkpt lat="45.70127" lon="6.67441">
        <ele>2058.4223632812</ele>
        <time>2019-08-09T15:06:22Z</time>
      </trkpt>
      <trkpt lat="45.70123" lon="6.67437">
        <ele>2057.4047851562</ele>
        <time>2019-08-09T15:06:28Z</time>
      </trkpt>
      <trkpt lat="45.70121" lon="6.67442">
        <ele>2055.7233886719</ele>
        <time>2019-08-09T15:06:36Z</time>
      </trkpt>
      <trkpt lat="45.7012" lon="6.67449">
        <ele>2054.0034179688</ele>
        <time>2019-08-09T15:06:41Z</time>
      </trkpt>
      <trkpt lat="45.7012" lon="6.67458">
        <ele>2051.9870605469</ele>
        <time>2019-08-09T15:06:46Z</time>
      </trkpt>
      <trkpt lat="45.70118" lon="6.67463">
        <ele>2050.3801269531</ele>
        <time>2019-08-09T15:06:50Z</time>
      </trkpt>
      <trkpt lat="45.70118" lon="6.67466">
        <ele>2049.6103515625</ele>
        <time>2019-08-09T15:06:52Z</time>
      </trkpt>
      <trkpt lat="45.70117" lon="6.6747">
        <ele>2048.3024902344</ele>
        <time>2019-08-09T15:06:55Z</time>
      </trkpt>
      <trkpt lat="45.70113" lon="6.67472">
        <ele>2045.9309082031</ele>
        <time>2019-08-09T15:07:00Z</time>
      </trkpt>
      <trkpt lat="45.70111" lon="6.67468">
        <ele>2045.7990722656</ele>
        <time>2019-08-09T15:07:05Z</time>
      </trkpt>
      <trkpt lat="45.70107" lon="6.67472">
        <ele>2043.1429443359</ele>
        <time>2019-08-09T15:07:11Z</time>
      </trkpt>
      <trkpt lat="45.70105" lon="6.67476">
        <ele>2041.4077148438</ele>
        <time>2019-08-09T15:07:17Z</time>
      </trkpt>
      <trkpt lat="45.70105" lon="6.67482">
        <ele>2040.3519287109</ele>
        <time>2019-08-09T15:07:23Z</time>
      </trkpt>
      <trkpt lat="45.70105" lon="6.67486">
        <ele>2039.6309814453</ele>
        <time>2019-08-09T15:07:26Z</time>
      </trkpt>
      <trkpt lat="45.70106" lon="6.67492">
        <ele>2038.8653564453</ele>
        <time>2019-08-09T15:07:30Z</time>
      </trkpt>
      <trkpt lat="45.70108" lon="6.67497">
        <ele>2038.9083251953</ele>
        <time>2019-08-09T15:07:33Z</time>
      </trkpt>
      <trkpt lat="45.70108" lon="6.67503">
        <ele>2037.7264404297</ele>
        <time>2019-08-09T15:07:37Z</time>
      </trkpt>
      <trkpt lat="45.70106" lon="6.67509">
        <ele>2035.4466552734</ele>
        <time>2019-08-09T15:07:42Z</time>
      </trkpt>
      <trkpt lat="45.70106" lon="6.67515">
        <ele>2034.3156738281</ele>
        <time>2019-08-09T15:07:47Z</time>
      </trkpt>
      <trkpt lat="45.70106" lon="6.67521">
        <ele>2033.0467529297</ele>
        <time>2019-08-09T15:07:52Z</time>
      </trkpt>
      <trkpt lat="45.70102" lon="6.67519">
        <ele>2031.4558105469</ele>
        <time>2019-08-09T15:07:56Z</time>
      </trkpt>
      <trkpt lat="45.70097" lon="6.67516">
        <ele>2029.4987792969</ele>
        <time>2019-08-09T15:08:01Z</time>
      </trkpt>
      <trkpt lat="45.70094" lon="6.67511">
        <ele>2029.16015625</ele>
        <time>2019-08-09T15:08:04Z</time>
      </trkpt>
      <trkpt lat="45.70092" lon="6.67507">
        <ele>2028.9222412109</ele>
        <time>2019-08-09T15:08:07Z</time>
      </trkpt>
      <trkpt lat="45.7009" lon="6.67501">
        <ele>2029.2103271484</ele>
        <time>2019-08-09T15:08:10Z</time>
      </trkpt>
      <trkpt lat="45.70088" lon="6.67497">
        <ele>2028.7700195312</ele>
        <time>2019-08-09T15:08:13Z</time>
      </trkpt>
      <trkpt lat="45.70084" lon="6.67492">
        <ele>2027.6593017578</ele>
        <time>2019-08-09T15:08:18Z</time>
      </trkpt>
      <trkpt lat="45.7008" lon="6.67488">
        <ele>2027.0869140625</ele>
        <time>2019-08-09T15:08:22Z</time>
      </trkpt>
      <trkpt lat="45.70076" lon="6.67484">
        <ele>2026.7674560547</ele>
        <time>2019-08-09T15:08:27Z</time>
      </trkpt>
      <trkpt lat="45.70073" lon="6.67481">
        <ele>2026.318359375</ele>
        <time>2019-08-09T15:08:30Z</time>
      </trkpt>
      <trkpt lat="45.70069" lon="6.67477">
        <ele>2025.6622314453</ele>
        <time>2019-08-09T15:08:34Z</time>
      </trkpt>
      <trkpt lat="45.70065" lon="6.67472">
        <ele>2024.9445800781</ele>
        <time>2019-08-09T15:08:38Z</time>
      </trkpt>
      <trkpt lat="45.70063" lon="6.67469">
        <ele>2024.5791015625</ele>
        <time>2019-08-09T15:08:40Z</time>
      </trkpt>
      <trkpt lat="45.7006" lon="6.67466">
        <ele>2023.8563232422</ele>
        <time>2019-08-09T15:08:43Z</time>
      </trkpt>
      <trkpt lat="45.70057" lon="6.67459">
        <ele>2023.6077880859</ele>
        <time>2019-08-09T15:08:48Z</time>
      </trkpt>
      <trkpt lat="45.70056" lon="6.67453">
        <ele>2023.474609375</ele>
        <time>2019-08-09T15:08:52Z</time>
      </trkpt>
      <trkpt lat="45.70052" lon="6.67449">
        <ele>2022.3454589844</ele>
        <time>2019-08-09T15:08:56Z</time>
      </trkpt>
      <trkpt lat="45.70049" lon="6.67445">
        <ele>2021.4288330078</ele>
        <time>2019-08-09T15:09:00Z</time>
      </trkpt>
      <trkpt lat="45.70047" lon="6.67442">
        <ele>2020.7507324219</ele>
        <time>2019-08-09T15:09:04Z</time>
      </trkpt>
      <trkpt lat="45.70042" lon="6.67438">
        <ele>2018.9118652344</ele>
        <time>2019-08-09T15:09:10Z</time>
      </trkpt>
      <trkpt lat="45.70039" lon="6.67433">
        <ele>2017.3226318359</ele>
        <time>2019-08-09T15:09:16Z</time>
      </trkpt>
      <trkpt lat="45.70034" lon="6.67429">
        <ele>2015.0979003906</ele>
        <time>2019-08-09T15:09:20Z</time>
      </trkpt>
      <trkpt lat="45.70031" lon="6.67426">
        <ele>2013.4704589844</ele>
        <time>2019-08-09T15:09:23Z</time>
      </trkpt>
      <trkpt lat="45.70028" lon="6.67421">
        <ele>2011.5748291016</ele>
        <time>2019-08-09T15:09:27Z</time>
      </trkpt>
      <trkpt lat="45.70025" lon="6.67416">
        <ele>2009.0225830078</ele>
        <time>2019-08-09T15:09:31Z</time>
      </trkpt>
      <trkpt lat="45.70022" lon="6.67411">
        <ele>2007.8166503906</ele>
        <time>2019-08-09T15:09:35Z</time>
      </trkpt>
      <trkpt lat="45.7002" lon="6.67408">
        <ele>2006.7767333984</ele>
        <time>2019-08-09T15:09:38Z</time>
      </trkpt>
      <trkpt lat="45.70015" lon="6.67405">
        <ele>2004.4010009766</ele>
        <time>2019-08-09T15:09:43Z</time>
      </trkpt>
      <trkpt lat="45.70012" lon="6.674">
        <ele>2003.3463134766</ele>
        <time>2019-08-09T15:09:46Z</time>
      </trkpt>
      <trkpt lat="45.7001" lon="6.67397">
        <ele>2002.4533691406</ele>
        <time>2019-08-09T15:09:49Z</time>
      </trkpt>
      <trkpt lat="45.70007" lon="6.67391">
        <ele>2001.279296875</ele>
        <time>2019-08-09T15:09:53Z</time>
      </trkpt>
      <trkpt lat="45.70004" lon="6.67386">
        <ele>2000.2766113281</ele>
        <time>2019-08-09T15:09:57Z</time>
      </trkpt>
      <trkpt lat="45.70001" lon="6.67382">
        <ele>1999.1333007812</ele>
        <time>2019-08-09T15:10:00Z</time>
      </trkpt>
      <trkpt lat="45.69999" lon="6.67376">
        <ele>1998.6030273438</ele>
        <time>2019-08-09T15:10:04Z</time>
      </trkpt>
      <trkpt lat="45.69997" lon="6.6737">
        <ele>1997.6457519531</ele>
        <time>2019-08-09T15:10:07Z</time>
      </trkpt>
      <trkpt lat="45.69994" lon="6.67366">
        <ele>1996.9406738281</ele>
        <time>2019-08-09T15:10:10Z</time>
      </trkpt>
      <trkpt lat="45.69991" lon="6.6736">
        <ele>1996.0252685547</ele>
        <time>2019-08-09T15:10:14Z</time>
      </trkpt>
      <trkpt lat="45.69989" lon="6.67354">
        <ele>1995.4073486328</ele>
        <time>2019-08-09T15:10:18Z</time>
      </trkpt>
      <trkpt lat="45.69986" lon="6.67348">
        <ele>1994.5593261719</ele>
        <time>2019-08-09T15:10:22Z</time>
      </trkpt>
      <trkpt lat="45.69985" lon="6.67342">
        <ele>1994.2880859375</ele>
        <time>2019-08-09T15:10:26Z</time>
      </trkpt>
      <trkpt lat="45.69984" lon="6.67337">
        <ele>1994.2640380859</ele>
        <time>2019-08-09T15:10:29Z</time>
      </trkpt>
      <trkpt lat="45.69982" lon="6.6733">
        <ele>1993.6872558594</ele>
        <time>2019-08-09T15:10:34Z</time>
      </trkpt>
      <trkpt lat="45.6998" lon="6.67323">
        <ele>1993.3165283203</ele>
        <time>2019-08-09T15:10:38Z</time>
      </trkpt>
      <trkpt lat="45.69977" lon="6.67317">
        <ele>1992.4719238281</ele>
        <time>2019-08-09T15:10:42Z</time>
      </trkpt>
      <trkpt lat="45.69974" lon="6.67312">
        <ele>1991.4556884766</ele>
        <time>2019-08-09T15:10:46Z</time>
      </trkpt>
      <trkpt lat="45.69972" lon="6.67306">
        <ele>1990.8365478516</ele>
        <time>2019-08-09T15:10:50Z</time>
      </trkpt>
      <trkpt lat="45.69968" lon="6.67303">
        <ele>1989.8803710938</ele>
        <time>2019-08-09T15:10:54Z</time>
      </trkpt>
      <trkpt lat="45.69965" lon="6.67298">
        <ele>1989.4638671875</ele>
        <time>2019-08-09T15:10:58Z</time>
      </trkpt>
      <trkpt lat="45.69964" lon="6.6729">
        <ele>1989.9487304688</ele>
        <time>2019-08-09T15:11:03Z</time>
      </trkpt>
      <trkpt lat="45.69959" lon="6.67285">
        <ele>1988.6031494141</ele>
        <time>2019-08-09T15:11:09Z</time>
      </trkpt>
      <trkpt lat="45.69955" lon="6.67283">
        <ele>1987.3903808594</ele>
        <time>2019-08-09T15:11:13Z</time>
      </trkpt>
      <trkpt lat="45.69951" lon="6.67281">
        <ele>1986.1674804688</ele>
        <time>2019-08-09T15:11:16Z</time>
      </trkpt>
      <trkpt lat="45.69948" lon="6.67277">
        <ele>1985.4165039062</ele>
        <time>2019-08-09T15:11:20Z</time>
      </trkpt>
      <trkpt lat="45.69943" lon="6.67276">
        <ele>1983.6225585938</ele>
        <time>2019-08-09T15:11:25Z</time>
      </trkpt>
      <trkpt lat="45.69938" lon="6.67278">
        <ele>1981.8608398438</ele>
        <time>2019-08-09T15:11:29Z</time>
      </trkpt>
      <trkpt lat="45.69935" lon="6.67277">
        <ele>1980.8395996094</ele>
        <time>2019-08-09T15:11:33Z</time>
      </trkpt>
      <trkpt lat="45.69929" lon="6.67272">
        <ele>1979.3181152344</ele>
        <time>2019-08-09T15:11:38Z</time>
      </trkpt>
      <trkpt lat="45.69928" lon="6.67266">
        <ele>1979.0384521484</ele>
        <time>2019-08-09T15:11:42Z</time>
      </trkpt>
      <trkpt lat="45.69926" lon="6.6726">
        <ele>1978.7117919922</ele>
        <time>2019-08-09T15:11:47Z</time>
      </trkpt>
      <trkpt lat="45.69923" lon="6.67258">
        <ele>1977.5438232422</ele>
        <time>2019-08-09T15:11:51Z</time>
      </trkpt>
      <trkpt lat="45.69919" lon="6.67254">
        <ele>1975.8983154297</ele>
        <time>2019-08-09T15:11:54Z</time>
      </trkpt>
      <trkpt lat="45.69917" lon="6.67247">
        <ele>1974.9748535156</ele>
        <time>2019-08-09T15:11:58Z</time>
      </trkpt>
      <trkpt lat="45.69915" lon="6.67243">
        <ele>1974.5793457031</ele>
        <time>2019-08-09T15:12:01Z</time>
      </trkpt>
      <trkpt lat="45.69911" lon="6.67238">
        <ele>1973.7686767578</ele>
        <time>2019-08-09T15:12:05Z</time>
      </trkpt>
      <trkpt lat="45.69907" lon="6.67233">
        <ele>1972.6165771484</ele>
        <time>2019-08-09T15:12:09Z</time>
      </trkpt>
      <trkpt lat="45.69905" lon="6.67228">
        <ele>1971.8284912109</ele>
        <time>2019-08-09T15:12:12Z</time>
      </trkpt>
      <trkpt lat="45.69902" lon="6.6722">
        <ele>1970.9180908203</ele>
        <time>2019-08-09T15:12:16Z</time>
      </trkpt>
      <trkpt lat="45.69899" lon="6.67215">
        <ele>1970.4522705078</ele>
        <time>2019-08-09T15:12:19Z</time>
      </trkpt>
      <trkpt lat="45.69895" lon="6.67211">
        <ele>1969.4034423828</ele>
        <time>2019-08-09T15:12:23Z</time>
      </trkpt>
      <trkpt lat="45.69892" lon="6.67207">
        <ele>1968.6292724609</ele>
        <time>2019-08-09T15:12:27Z</time>
      </trkpt>
      <trkpt lat="45.69888" lon="6.67201">
        <ele>1967.3798828125</ele>
        <time>2019-08-09T15:12:31Z</time>
      </trkpt>
      <trkpt lat="45.69885" lon="6.67196">
        <ele>1966.2462158203</ele>
        <time>2019-08-09T15:12:35Z</time>
      </trkpt>
      <trkpt lat="45.69883" lon="6.67202">
        <ele>1965.3121337891</ele>
        <time>2019-08-09T15:12:40Z</time>
      </trkpt>
      <trkpt lat="45.6988" lon="6.67206">
        <ele>1964.2294921875</ele>
        <time>2019-08-09T15:12:45Z</time>
      </trkpt>
      <trkpt lat="45.69875" lon="6.67206">
        <ele>1962.4769287109</ele>
        <time>2019-08-09T15:12:50Z</time>
      </trkpt>
      <trkpt lat="45.69874" lon="6.672">
        <ele>1961.9877929688</ele>
        <time>2019-08-09T15:12:56Z</time>
      </trkpt>
      <trkpt lat="45.69869" lon="6.67196">
        <ele>1959.6754150391</ele>
        <time>2019-08-09T15:13:01Z</time>
      </trkpt>
      <trkpt lat="45.69867" lon="6.67192">
        <ele>1957.998046875</ele>
        <time>2019-08-09T15:13:14Z</time>
      </trkpt>
      <trkpt lat="45.69865" lon="6.67186">
        <ele>1956.4725341797</ele>
        <time>2019-08-09T15:13:18Z</time>
      </trkpt>
      <trkpt lat="45.69861" lon="6.67179">
        <ele>1953.8481445312</ele>
        <time>2019-08-09T15:13:22Z</time>
      </trkpt>
      <trkpt lat="45.69857" lon="6.67175">
        <ele>1950.9069824219</ele>
        <time>2019-08-09T15:13:26Z</time>
      </trkpt>
      <trkpt lat="45.69854" lon="6.6717">
        <ele>1947.9790039062</ele>
        <time>2019-08-09T15:13:31Z</time>
      </trkpt>
      <trkpt lat="45.69849" lon="6.67167">
        <ele>1945.2952880859</ele>
        <time>2019-08-09T15:13:35Z</time>
      </trkpt>
      <trkpt lat="45.69847" lon="6.67163">
        <ele>1944.0816650391</ele>
        <time>2019-08-09T15:13:38Z</time>
      </trkpt>
      <trkpt lat="45.69846" lon="6.67155">
        <ele>1944.5288085938</ele>
        <time>2019-08-09T15:13:42Z</time>
      </trkpt>
      <trkpt lat="45.69845" lon="6.67152">
        <ele>1944.2133789062</ele>
        <time>2019-08-09T15:13:44Z</time>
      </trkpt>
      <trkpt lat="45.69844" lon="6.67146">
        <ele>1943.8916015625</ele>
        <time>2019-08-09T15:13:47Z</time>
      </trkpt>
      <trkpt lat="45.69843" lon="6.67141">
        <ele>1944.2215576172</ele>
        <time>2019-08-09T15:13:51Z</time>
      </trkpt>
      <trkpt lat="45.69839" lon="6.67137">
        <ele>1942.3303222656</ele>
        <time>2019-08-09T15:13:56Z</time>
      </trkpt>
      <trkpt lat="45.69835" lon="6.67133">
        <ele>1940.8314208984</ele>
        <time>2019-08-09T15:14:00Z</time>
      </trkpt>
      <trkpt lat="45.69831" lon="6.6713">
        <ele>1938.939453125</ele>
        <time>2019-08-09T15:14:04Z</time>
      </trkpt>
      <trkpt lat="45.69828" lon="6.67126">
        <ele>1937.4288330078</ele>
        <time>2019-08-09T15:14:07Z</time>
      </trkpt>
      <trkpt lat="45.69823" lon="6.67122">
        <ele>1935.1834716797</ele>
        <time>2019-08-09T15:14:11Z</time>
      </trkpt>
      <trkpt lat="45.69819" lon="6.67116">
        <ele>1933.6385498047</ele>
        <time>2019-08-09T15:14:17Z</time>
      </trkpt>
      <trkpt lat="45.69817" lon="6.67111">
        <ele>1932.9450683594</ele>
        <time>2019-08-09T15:14:21Z</time>
      </trkpt>
      <trkpt lat="45.69812" lon="6.67108">
        <ele>1930.4748535156</ele>
        <time>2019-08-09T15:14:27Z</time>
      </trkpt>
      <trkpt lat="45.69808" lon="6.67106">
        <ele>1928.6208496094</ele>
        <time>2019-08-09T15:14:33Z</time>
      </trkpt>
      <trkpt lat="45.69805" lon="6.67106">
        <ele>1926.6158447266</ele>
        <time>2019-08-09T15:14:37Z</time>
      </trkpt>
      <trkpt lat="45.69802" lon="6.6711">
        <ele>1923.8881835938</ele>
        <time>2019-08-09T15:14:50Z</time>
      </trkpt>
      <trkpt lat="45.69797" lon="6.67113">
        <ele>1920.4000244141</ele>
        <time>2019-08-09T15:14:57Z</time>
      </trkpt>
      <trkpt lat="45.69793" lon="6.67107">
        <ele>1919.0421142578</ele>
        <time>2019-08-09T15:15:04Z</time>
      </trkpt>
      <trkpt lat="45.69788" lon="6.67102">
        <ele>1917.0474853516</ele>
        <time>2019-08-09T15:15:12Z</time>
      </trkpt>
      <trkpt lat="45.69785" lon="6.67097">
        <ele>1915.8732910156</ele>
        <time>2019-08-09T15:15:16Z</time>
      </trkpt>
      <trkpt lat="45.69781" lon="6.67095">
        <ele>1913.9249267578</ele>
        <time>2019-08-09T15:15:22Z</time>
      </trkpt>
      <trkpt lat="45.69777" lon="6.67093">
        <ele>1911.7674560547</ele>
        <time>2019-08-09T15:15:27Z</time>
      </trkpt>
      <trkpt lat="45.69773" lon="6.67088">
        <ele>1910.2211914062</ele>
        <time>2019-08-09T15:15:32Z</time>
      </trkpt>
      <trkpt lat="45.69771" lon="6.67085">
        <ele>1909.2587890625</ele>
        <time>2019-08-09T15:15:35Z</time>
      </trkpt>
      <trkpt lat="45.69768" lon="6.67082">
        <ele>1907.4937744141</ele>
        <time>2019-08-09T15:15:39Z</time>
      </trkpt>
      <trkpt lat="45.69764" lon="6.67074">
        <ele>1905.2742919922</ele>
        <time>2019-08-09T15:15:45Z</time>
      </trkpt>
      <trkpt lat="45.69764" lon="6.67069">
        <ele>1905.03515625</ele>
        <time>2019-08-09T15:15:48Z</time>
      </trkpt>
      <trkpt lat="45.69766" lon="6.67062">
        <ele>1906.1661376953</ele>
        <time>2019-08-09T15:15:53Z</time>
      </trkpt>
      <trkpt lat="45.69764" lon="6.67057">
        <ele>1904.8127441406</ele>
        <time>2019-08-09T15:16:00Z</time>
      </trkpt>
      <trkpt lat="45.6976" lon="6.67053">
        <ele>1903.2965087891</ele>
        <time>2019-08-09T15:16:06Z</time>
      </trkpt>
      <trkpt lat="45.69755" lon="6.67054">
        <ele>1900.1358642578</ele>
        <time>2019-08-09T15:16:14Z</time>
      </trkpt>
      <trkpt lat="45.69751" lon="6.67051">
        <ele>1898.6083984375</ele>
        <time>2019-08-09T15:16:19Z</time>
      </trkpt>
      <trkpt lat="45.69748" lon="6.6705">
        <ele>1897.1964111328</ele>
        <time>2019-08-09T15:16:23Z</time>
      </trkpt>
      <trkpt lat="45.69746" lon="6.67049">
        <ele>1897.0031738281</ele>
        <time>2019-08-09T15:16:24Z</time>
      </trkpt>
      <trkpt lat="45.69743" lon="6.67046">
        <ele>1895.79296875</ele>
        <time>2019-08-09T15:16:27Z</time>
      </trkpt>
      <trkpt lat="45.69737" lon="6.67044">
        <ele>1893.3240966797</ele>
        <time>2019-08-09T15:16:31Z</time>
      </trkpt>
      <trkpt lat="45.69733" lon="6.67041">
        <ele>1892.32421875</ele>
        <time>2019-08-09T15:16:34Z</time>
      </trkpt>
      <trkpt lat="45.69729" lon="6.67038">
        <ele>1890.3098144531</ele>
        <time>2019-08-09T15:16:38Z</time>
      </trkpt>
      <trkpt lat="45.69726" lon="6.67038">
        <ele>1889.0850830078</ele>
        <time>2019-08-09T15:16:40Z</time>
      </trkpt>
      <trkpt lat="45.69721" lon="6.67033">
        <ele>1887.0427246094</ele>
        <time>2019-08-09T15:16:45Z</time>
      </trkpt>
      <trkpt lat="45.69716" lon="6.6703">
        <ele>1885.4647216797</ele>
        <time>2019-08-09T15:16:49Z</time>
      </trkpt>
      <trkpt lat="45.69714" lon="6.67024">
        <ele>1886.0227050781</ele>
        <time>2019-08-09T15:16:54Z</time>
      </trkpt>
      <trkpt lat="45.69714" lon="6.67018">
        <ele>1888.2396240234</ele>
        <time>2019-08-09T15:16:58Z</time>
      </trkpt>
      <trkpt lat="45.69714" lon="6.67011">
        <ele>1890.201171875</ele>
        <time>2019-08-09T15:17:04Z</time>
      </trkpt>
      <trkpt lat="45.6971" lon="6.6701">
        <ele>1888.7927246094</ele>
        <time>2019-08-09T15:17:09Z</time>
      </trkpt>
      <trkpt lat="45.69706" lon="6.67007">
        <ele>1888.0417480469</ele>
        <time>2019-08-09T15:17:12Z</time>
      </trkpt>
      <trkpt lat="45.69702" lon="6.67009">
        <ele>1885.0622558594</ele>
        <time>2019-08-09T15:17:15Z</time>
      </trkpt>
      <trkpt lat="45.69697" lon="6.67005">
        <ele>1884.0023193359</ele>
        <time>2019-08-09T15:17:19Z</time>
      </trkpt>
      <trkpt lat="45.69693" lon="6.66999">
        <ele>1884.8438720703</ele>
        <time>2019-08-09T15:17:23Z</time>
      </trkpt>
      <trkpt lat="45.6969" lon="6.66998">
        <ele>1883.9169921875</ele>
        <time>2019-08-09T15:17:27Z</time>
      </trkpt>
      <trkpt lat="45.69686" lon="6.66994">
        <ele>1883.3471679688</ele>
        <time>2019-08-09T15:17:30Z</time>
      </trkpt>
      <trkpt lat="45.69684" lon="6.66992">
        <ele>1883.1955566406</ele>
        <time>2019-08-09T15:17:33Z</time>
      </trkpt>
      <trkpt lat="45.6968" lon="6.66992">
        <ele>1881.8858642578</ele>
        <time>2019-08-09T15:17:39Z</time>
      </trkpt>
      <trkpt lat="45.69675" lon="6.66989">
        <ele>1880.7429199219</ele>
        <time>2019-08-09T15:17:44Z</time>
      </trkpt>
      <trkpt lat="45.69677" lon="6.66994">
        <ele>1880.0573730469</ele>
        <time>2019-08-09T15:17:51Z</time>
      </trkpt>
      <trkpt lat="45.69681" lon="6.66999">
        <ele>1880.4423828125</ele>
        <time>2019-08-09T15:17:56Z</time>
      </trkpt>
      <trkpt lat="45.69675" lon="6.67">
        <ele>1878.0053710938</ele>
        <time>2019-08-09T15:18:03Z</time>
      </trkpt>
      <trkpt lat="45.69671" lon="6.66999">
        <ele>1876.8353271484</ele>
        <time>2019-08-09T15:18:08Z</time>
      </trkpt>
      <trkpt lat="45.69666" lon="6.66996">
        <ele>1875.7092285156</ele>
        <time>2019-08-09T15:18:13Z</time>
      </trkpt>
      <trkpt lat="45.69662" lon="6.66992">
        <ele>1874.5072021484</ele>
        <time>2019-08-09T15:18:17Z</time>
      </trkpt>
      <trkpt lat="45.69657" lon="6.66987">
        <ele>1873.4443359375</ele>
        <time>2019-08-09T15:18:22Z</time>
      </trkpt>
      <trkpt lat="45.69653" lon="6.6699">
        <ele>1870.9774169922</ele>
        <time>2019-08-09T15:18:38Z</time>
      </trkpt>
      <trkpt lat="45.69648" lon="6.66988">
        <ele>1869.4468994141</ele>
        <time>2019-08-09T15:18:42Z</time>
      </trkpt>
      <trkpt lat="45.69643" lon="6.66987">
        <ele>1867.4561767578</ele>
        <time>2019-08-09T15:18:47Z</time>
      </trkpt>
      <trkpt lat="45.6964" lon="6.66984">
        <ele>1866.3195800781</ele>
        <time>2019-08-09T15:18:51Z</time>
      </trkpt>
      <trkpt lat="45.69637" lon="6.66983">
        <ele>1865.4765625</ele>
        <time>2019-08-09T15:18:56Z</time>
      </trkpt>
      <trkpt lat="45.69632" lon="6.6698">
        <ele>1864.3247070312</ele>
        <time>2019-08-09T15:19:03Z</time>
      </trkpt>
      <trkpt lat="45.69627" lon="6.66976">
        <ele>1863.1362304688</ele>
        <time>2019-08-09T15:19:09Z</time>
      </trkpt>
      <trkpt lat="45.69624" lon="6.66972">
        <ele>1862.654296875</ele>
        <time>2019-08-09T15:19:13Z</time>
      </trkpt>
      <trkpt lat="45.69622" lon="6.66967">
        <ele>1862.060546875</ele>
        <time>2019-08-09T15:19:17Z</time>
      </trkpt>
      <trkpt lat="45.69623" lon="6.66973">
        <ele>1862.1490478516</ele>
        <time>2019-08-09T15:19:22Z</time>
      </trkpt>
      <trkpt lat="45.69624" lon="6.6698">
        <ele>1861.5838623047</ele>
        <time>2019-08-09T15:19:26Z</time>
      </trkpt>
      <trkpt lat="45.69619" lon="6.66984">
        <ele>1859.5616455078</ele>
        <time>2019-08-09T15:19:30Z</time>
      </trkpt>
      <trkpt lat="45.69613" lon="6.66984">
        <ele>1857.8225097656</ele>
        <time>2019-08-09T15:19:33Z</time>
      </trkpt>
      <trkpt lat="45.69608" lon="6.66984">
        <ele>1856.6379394531</ele>
        <time>2019-08-09T15:19:36Z</time>
      </trkpt>
      <trkpt lat="45.69603" lon="6.66984">
        <ele>1855.6080322266</ele>
        <time>2019-08-09T15:19:40Z</time>
      </trkpt>
      <trkpt lat="45.696" lon="6.66984">
        <ele>1855.1066894531</ele>
        <time>2019-08-09T15:19:42Z</time>
      </trkpt>
      <trkpt lat="45.69596" lon="6.66986">
        <ele>1854.3205566406</ele>
        <time>2019-08-09T15:19:45Z</time>
      </trkpt>
      <trkpt lat="45.69593" lon="6.66989">
        <ele>1853.4759521484</ele>
        <time>2019-08-09T15:19:49Z</time>
      </trkpt>
      <trkpt lat="45.6959" lon="6.66995">
        <ele>1852.5970458984</ele>
        <time>2019-08-09T15:19:55Z</time>
      </trkpt>
      <trkpt lat="45.69587" lon="6.66995">
        <ele>1852.0270996094</ele>
        <time>2019-08-09T15:19:58Z</time>
      </trkpt>
      <trkpt lat="45.69583" lon="6.66994">
        <ele>1851.3957519531</ele>
        <time>2019-08-09T15:20:01Z</time>
      </trkpt>
      <trkpt lat="45.6958" lon="6.66993">
        <ele>1850.4333496094</ele>
        <time>2019-08-09T15:20:04Z</time>
      </trkpt>
      <trkpt lat="45.69575" lon="6.66991">
        <ele>1849.1984863281</ele>
        <time>2019-08-09T15:20:11Z</time>
      </trkpt>
      <trkpt lat="45.69571" lon="6.66988">
        <ele>1848.2156982422</ele>
        <time>2019-08-09T15:20:14Z</time>
      </trkpt>
      <trkpt lat="45.69567" lon="6.66985">
        <ele>1846.9943847656</ele>
        <time>2019-08-09T15:20:18Z</time>
      </trkpt>
      <trkpt lat="45.69562" lon="6.66982">
        <ele>1845.7248535156</ele>
        <time>2019-08-09T15:20:22Z</time>
      </trkpt>
      <trkpt lat="45.69558" lon="6.66979">
        <ele>1844.5311279297</ele>
        <time>2019-08-09T15:20:26Z</time>
      </trkpt>
      <trkpt lat="45.69554" lon="6.66976">
        <ele>1843.3483886719</ele>
        <time>2019-08-09T15:20:29Z</time>
      </trkpt>
      <trkpt lat="45.6955" lon="6.66971">
        <ele>1842.0445556641</ele>
        <time>2019-08-09T15:20:33Z</time>
      </trkpt>
      <trkpt lat="45.69546" lon="6.66968">
        <ele>1841.0006103516</ele>
        <time>2019-08-09T15:20:37Z</time>
      </trkpt>
      <trkpt lat="45.69542" lon="6.66964">
        <ele>1839.857421875</ele>
        <time>2019-08-09T15:20:41Z</time>
      </trkpt>
      <trkpt lat="45.6954" lon="6.6697">
        <ele>1838.4580078125</ele>
        <time>2019-08-09T15:20:49Z</time>
      </trkpt>
      <trkpt lat="45.6954" lon="6.66978">
        <ele>1837.9951171875</ele>
        <time>2019-08-09T15:20:53Z</time>
      </trkpt>
      <trkpt lat="45.69541" lon="6.66984">
        <ele>1837.9304199219</ele>
        <time>2019-08-09T15:20:57Z</time>
      </trkpt>
      <trkpt lat="45.69542" lon="6.66992">
        <ele>1837.5316162109</ele>
        <time>2019-08-09T15:21:01Z</time>
      </trkpt>
      <trkpt lat="45.69541" lon="6.66998">
        <ele>1836.7963867188</ele>
        <time>2019-08-09T15:21:04Z</time>
      </trkpt>
      <trkpt lat="45.6954" lon="6.67004">
        <ele>1835.8511962891</ele>
        <time>2019-08-09T15:21:07Z</time>
      </trkpt>
      <trkpt lat="45.69539" lon="6.6701">
        <ele>1835.1343994141</ele>
        <time>2019-08-09T15:21:10Z</time>
      </trkpt>
      <trkpt lat="45.6954" lon="6.67017">
        <ele>1835.1334228516</ele>
        <time>2019-08-09T15:21:14Z</time>
      </trkpt>
      <trkpt lat="45.69542" lon="6.67023">
        <ele>1835.3112792969</ele>
        <time>2019-08-09T15:21:17Z</time>
      </trkpt>
      <trkpt lat="45.69544" lon="6.6703">
        <ele>1835.3546142578</ele>
        <time>2019-08-09T15:21:21Z</time>
      </trkpt>
      <trkpt lat="45.69546" lon="6.67035">
        <ele>1835.1033935547</ele>
        <time>2019-08-09T15:21:24Z</time>
      </trkpt>
      <trkpt lat="45.69548" lon="6.67042">
        <ele>1834.3038330078</ele>
        <time>2019-08-09T15:21:27Z</time>
      </trkpt>
      <trkpt lat="45.6955" lon="6.67048">
        <ele>1833.8525390625</ele>
        <time>2019-08-09T15:21:30Z</time>
      </trkpt>
      <trkpt lat="45.69553" lon="6.67055">
        <ele>1833.13671875</ele>
        <time>2019-08-09T15:21:34Z</time>
      </trkpt>
      <trkpt lat="45.69553" lon="6.67061">
        <ele>1832.1597900391</ele>
        <time>2019-08-09T15:21:37Z</time>
      </trkpt>
      <trkpt lat="45.69554" lon="6.67068">
        <ele>1830.8002929688</ele>
        <time>2019-08-09T15:21:41Z</time>
      </trkpt>
      <trkpt lat="45.69555" lon="6.67075">
        <ele>1829.6673583984</ele>
        <time>2019-08-09T15:21:44Z</time>
      </trkpt>
      <trkpt lat="45.69556" lon="6.67082">
        <ele>1828.5311279297</ele>
        <time>2019-08-09T15:21:47Z</time>
      </trkpt>
      <trkpt lat="45.69557" lon="6.67087">
        <ele>1827.4802246094</ele>
        <time>2019-08-09T15:21:50Z</time>
      </trkpt>
      <trkpt lat="45.6956" lon="6.67093">
        <ele>1826.5670166016</ele>
        <time>2019-08-09T15:21:54Z</time>
      </trkpt>
      <trkpt lat="45.69564" lon="6.67099">
        <ele>1826.1584472656</ele>
        <time>2019-08-09T15:21:58Z</time>
      </trkpt>
      <trkpt lat="45.69568" lon="6.67104">
        <ele>1825.833984375</ele>
        <time>2019-08-09T15:22:01Z</time>
      </trkpt>
      <trkpt lat="45.6957" lon="6.67109">
        <ele>1825.1490478516</ele>
        <time>2019-08-09T15:22:04Z</time>
      </trkpt>
      <trkpt lat="45.69573" lon="6.67116">
        <ele>1824.5496826172</ele>
        <time>2019-08-09T15:22:07Z</time>
      </trkpt>
      <trkpt lat="45.69575" lon="6.67123">
        <ele>1823.5506591797</ele>
        <time>2019-08-09T15:22:10Z</time>
      </trkpt>
      <trkpt lat="45.69576" lon="6.6713">
        <ele>1822.1965332031</ele>
        <time>2019-08-09T15:22:13Z</time>
      </trkpt>
      <trkpt lat="45.69576" lon="6.67137">
        <ele>1820.7796630859</ele>
        <time>2019-08-09T15:22:16Z</time>
      </trkpt>
      <trkpt lat="45.69575" lon="6.67144">
        <ele>1819.556640625</ele>
        <time>2019-08-09T15:22:19Z</time>
      </trkpt>
      <trkpt lat="45.69574" lon="6.67151">
        <ele>1818.2587890625</ele>
        <time>2019-08-09T15:22:23Z</time>
      </trkpt>
      <trkpt lat="45.69573" lon="6.67159">
        <ele>1816.947265625</ele>
        <time>2019-08-09T15:22:27Z</time>
      </trkpt>
      <trkpt lat="45.69572" lon="6.67165">
        <ele>1815.6976318359</ele>
        <time>2019-08-09T15:22:30Z</time>
      </trkpt>
      <trkpt lat="45.69568" lon="6.6717">
        <ele>1814.3258056641</ele>
        <time>2019-08-09T15:22:34Z</time>
      </trkpt>
      <trkpt lat="45.69567" lon="6.67175">
        <ele>1813.2739257812</ele>
        <time>2019-08-09T15:22:37Z</time>
      </trkpt>
      <trkpt lat="45.69562" lon="6.67179">
        <ele>1811.5037841797</ele>
        <time>2019-08-09T15:22:41Z</time>
      </trkpt>
      <trkpt lat="45.69558" lon="6.67182">
        <ele>1809.9141845703</ele>
        <time>2019-08-09T15:22:44Z</time>
      </trkpt>
      <trkpt lat="45.69554" lon="6.67184">
        <ele>1808.5843505859</ele>
        <time>2019-08-09T15:22:47Z</time>
      </trkpt>
      <trkpt lat="45.6955" lon="6.67186">
        <ele>1807.1303710938</ele>
        <time>2019-08-09T15:22:51Z</time>
      </trkpt>
      <trkpt lat="45.69547" lon="6.6719">
        <ele>1805.7894287109</ele>
        <time>2019-08-09T15:22:55Z</time>
      </trkpt>
      <trkpt lat="45.69545" lon="6.67193">
        <ele>1804.8668212891</ele>
        <time>2019-08-09T15:22:58Z</time>
      </trkpt>
      <trkpt lat="45.69541" lon="6.67198">
        <ele>1803.9544677734</ele>
        <time>2019-08-09T15:23:02Z</time>
      </trkpt>
      <trkpt lat="45.69539" lon="6.67199">
        <ele>1803.4548339844</ele>
        <time>2019-08-09T15:23:04Z</time>
      </trkpt>
      <trkpt lat="45.69535" lon="6.67203">
        <ele>1802.8798828125</ele>
        <time>2019-08-09T15:23:07Z</time>
      </trkpt>
      <trkpt lat="45.69532" lon="6.67208">
        <ele>1802.7043457031</ele>
        <time>2019-08-09T15:23:10Z</time>
      </trkpt>
      <trkpt lat="45.69531" lon="6.67214">
        <ele>1802.8155517578</ele>
        <time>2019-08-09T15:23:15Z</time>
      </trkpt>
      <trkpt lat="45.69529" lon="6.6722">
        <ele>1802.9826660156</ele>
        <time>2019-08-09T15:23:20Z</time>
      </trkpt>
      <trkpt lat="45.69529" lon="6.67226">
        <ele>1803.4796142578</ele>
        <time>2019-08-09T15:23:25Z</time>
      </trkpt>
      <trkpt lat="45.69529" lon="6.67234">
        <ele>1804.3227539062</ele>
        <time>2019-08-09T15:23:30Z</time>
      </trkpt>
      <trkpt lat="45.69528" lon="6.6724">
        <ele>1804.9102783203</ele>
        <time>2019-08-09T15:23:33Z</time>
      </trkpt>
      <trkpt lat="45.69529" lon="6.67247">
        <ele>1805.6716308594</ele>
        <time>2019-08-09T15:23:37Z</time>
      </trkpt>
      <trkpt lat="45.69526" lon="6.67253">
        <ele>1806.3966064453</ele>
        <time>2019-08-09T15:23:41Z</time>
      </trkpt>
      <trkpt lat="45.69523" lon="6.67258">
        <ele>1807.0577392578</ele>
        <time>2019-08-09T15:23:44Z</time>
      </trkpt>
      <trkpt lat="45.69519" lon="6.67263">
        <ele>1807.7879638672</ele>
        <time>2019-08-09T15:23:49Z</time>
      </trkpt>
      <trkpt lat="45.69515" lon="6.67267">
        <ele>1808.1893310547</ele>
        <time>2019-08-09T15:23:53Z</time>
      </trkpt>
      <trkpt lat="45.6951" lon="6.67268">
        <ele>1808.3978271484</ele>
        <time>2019-08-09T15:23:57Z</time>
      </trkpt>
      <trkpt lat="45.69505" lon="6.67269">
        <ele>1808.5841064453</ele>
        <time>2019-08-09T15:24:01Z</time>
      </trkpt>
      <trkpt lat="45.69502" lon="6.67274">
        <ele>1808.8537597656</ele>
        <time>2019-08-09T15:24:07Z</time>
      </trkpt>
      <trkpt lat="45.69504" lon="6.67281">
        <ele>1809.0177001953</ele>
        <time>2019-08-09T15:24:17Z</time>
      </trkpt>
      <trkpt lat="45.69502" lon="6.67286">
        <ele>1809.0191650391</ele>
        <time>2019-08-09T15:24:22Z</time>
      </trkpt>
      <trkpt lat="45.69498" lon="6.67287">
        <ele>1809.0698242188</ele>
        <time>2019-08-09T15:24:26Z</time>
      </trkpt>
      <trkpt lat="45.69494" lon="6.67286">
        <ele>1809.2208251953</ele>
        <time>2019-08-09T15:24:30Z</time>
      </trkpt>
      <trkpt lat="45.69489" lon="6.6728">
        <ele>1809.3994140625</ele>
        <time>2019-08-09T15:24:36Z</time>
      </trkpt>
      <trkpt lat="45.69486" lon="6.67277">
        <ele>1809.4840087891</ele>
        <time>2019-08-09T15:24:40Z</time>
      </trkpt>
      <trkpt lat="45.69482" lon="6.67277">
        <ele>1809.6391601562</ele>
        <time>2019-08-09T15:24:44Z</time>
      </trkpt>
      <trkpt lat="45.69478" lon="6.67281">
        <ele>1809.7976074219</ele>
        <time>2019-08-09T15:24:50Z</time>
      </trkpt>
      <trkpt lat="45.69473" lon="6.67284">
        <ele>1809.9624023438</ele>
        <time>2019-08-09T15:24:55Z</time>
      </trkpt>
      <trkpt lat="45.69468" lon="6.67286">
        <ele>1810.0875244141</ele>
        <time>2019-08-09T15:24:59Z</time>
      </trkpt>
      <trkpt lat="45.69464" lon="6.67289">
        <ele>1810.2358398438</ele>
        <time>2019-08-09T15:25:04Z</time>
      </trkpt>
      <trkpt lat="45.69459" lon="6.67291">
        <ele>1810.4486083984</ele>
        <time>2019-08-09T15:25:08Z</time>
      </trkpt>
      <trkpt lat="45.69455" lon="6.67291">
        <ele>1810.62109375</ele>
        <time>2019-08-09T15:25:12Z</time>
      </trkpt>
      <trkpt lat="45.6945" lon="6.67292">
        <ele>1810.8041992188</ele>
        <time>2019-08-09T15:25:17Z</time>
      </trkpt>
      <trkpt lat="45.69445" lon="6.67293">
        <ele>1811.0642089844</ele>
        <time>2019-08-09T15:25:22Z</time>
      </trkpt>
      <trkpt lat="45.69442" lon="6.67294">
        <ele>1811.5546875</ele>
        <time>2019-08-09T15:25:26Z</time>
      </trkpt>
      <trkpt lat="45.69436" lon="6.67293">
        <ele>1812.2894287109</ele>
        <time>2019-08-09T15:25:31Z</time>
      </trkpt>
      <trkpt lat="45.69432" lon="6.67293">
        <ele>1812.9143066406</ele>
        <time>2019-08-09T15:25:36Z</time>
      </trkpt>
      <trkpt lat="45.69426" lon="6.67292">
        <ele>1813.6455078125</ele>
        <time>2019-08-09T15:25:41Z</time>
      </trkpt>
      <trkpt lat="45.69424" lon="6.67292">
        <ele>1813.9580078125</ele>
        <time>2019-08-09T15:25:44Z</time>
      </trkpt>
      <trkpt lat="45.69423" lon="6.67291">
        <ele>1814.1364746094</ele>
        <time>2019-08-09T15:25:46Z</time>
      </trkpt>
      <trkpt lat="45.69418" lon="6.67289">
        <ele>1814.7064208984</ele>
        <time>2019-08-09T15:25:51Z</time>
      </trkpt>
      <trkpt lat="45.69412" lon="6.6729">
        <ele>1815.4276123047</ele>
        <time>2019-08-09T15:25:56Z</time>
      </trkpt>
      <trkpt lat="45.69407" lon="6.67289">
        <ele>1816.0395507812</ele>
        <time>2019-08-09T15:26:01Z</time>
      </trkpt>
      <trkpt lat="45.69402" lon="6.67291">
        <ele>1816.7689208984</ele>
        <time>2019-08-09T15:26:06Z</time>
      </trkpt>
      <trkpt lat="45.69397" lon="6.67292">
        <ele>1817.5305175781</ele>
        <time>2019-08-09T15:26:11Z</time>
      </trkpt>
      <trkpt lat="45.69392" lon="6.67291">
        <ele>1818.0378417969</ele>
        <time>2019-08-09T15:26:15Z</time>
      </trkpt>
      <trkpt lat="45.69389" lon="6.67288">
        <ele>1818.3696289062</ele>
        <time>2019-08-09T15:26:26Z</time>
      </trkpt>
      <trkpt lat="45.69387" lon="6.67282">
        <ele>1818.1534423828</ele>
        <time>2019-08-09T15:26:29Z</time>
      </trkpt>
      <trkpt lat="45.69384" lon="6.67276">
        <ele>1817.8760986328</ele>
        <time>2019-08-09T15:26:34Z</time>
      </trkpt>
      <trkpt lat="45.69384" lon="6.67269">
        <ele>1817.4273681641</ele>
        <time>2019-08-09T15:26:39Z</time>
      </trkpt>
      <trkpt lat="45.69385" lon="6.67263">
        <ele>1816.9915771484</ele>
        <time>2019-08-09T15:26:55Z</time>
      </trkpt>
      <trkpt lat="45.69384" lon="6.67256">
        <ele>1816.5524902344</ele>
        <time>2019-08-09T15:27:00Z</time>
      </trkpt>
      <trkpt lat="45.69384" lon="6.6725">
        <ele>1816.1798095703</ele>
        <time>2019-08-09T15:27:05Z</time>
      </trkpt>
      <trkpt lat="45.69384" lon="6.67243">
        <ele>1815.9464111328</ele>
        <time>2019-08-09T15:27:15Z</time>
      </trkpt>
      <trkpt lat="45.69384" lon="6.67236">
        <ele>1815.6975097656</ele>
        <time>2019-08-09T15:27:19Z</time>
      </trkpt>
      <trkpt lat="45.69381" lon="6.67232">
        <ele>1815.6185302734</ele>
        <time>2019-08-09T15:27:22Z</time>
      </trkpt>
      <trkpt lat="45.69379" lon="6.67224">
        <ele>1815.4176025391</ele>
        <time>2019-08-09T15:27:27Z</time>
      </trkpt>
      <trkpt lat="45.69377" lon="6.67217">
        <ele>1815.2287597656</ele>
        <time>2019-08-09T15:27:31Z</time>
      </trkpt>
      <trkpt lat="45.69377" lon="6.6721">
        <ele>1814.9815673828</ele>
        <time>2019-08-09T15:27:35Z</time>
      </trkpt>
      <trkpt lat="45.69375" lon="6.67201">
        <ele>1814.7601318359</ele>
        <time>2019-08-09T15:27:40Z</time>
      </trkpt>
      <trkpt lat="45.69374" lon="6.67195">
        <ele>1814.5473632812</ele>
        <time>2019-08-09T15:27:44Z</time>
      </trkpt>
      <trkpt lat="45.69372" lon="6.67187">
        <ele>1814.5053710938</ele>
        <time>2019-08-09T15:27:49Z</time>
      </trkpt>
      <trkpt lat="45.69372" lon="6.67181">
        <ele>1814.4346923828</ele>
        <time>2019-08-09T15:27:52Z</time>
      </trkpt>
      <trkpt lat="45.69371" lon="6.67173">
        <ele>1814.3956298828</ele>
        <time>2019-08-09T15:27:56Z</time>
      </trkpt>
      <trkpt lat="45.6937" lon="6.67166">
        <ele>1814.3405761719</ele>
        <time>2019-08-09T15:28:00Z</time>
      </trkpt>
      <trkpt lat="45.6937" lon="6.6716">
        <ele>1814.3680419922</ele>
        <time>2019-08-09T15:28:04Z</time>
      </trkpt>
      <trkpt lat="45.6937" lon="6.67154">
        <ele>1814.3955078125</ele>
        <time>2019-08-09T15:28:07Z</time>
      </trkpt>
      <trkpt lat="45.69369" lon="6.67146">
        <ele>1814.4229736328</ele>
        <time>2019-08-09T15:28:12Z</time>
      </trkpt>
      <trkpt lat="45.6937" lon="6.67139">
        <ele>1814.3955078125</ele>
        <time>2019-08-09T15:28:16Z</time>
      </trkpt>
      <trkpt lat="45.6937" lon="6.67132">
        <ele>1814.3236083984</ele>
        <time>2019-08-09T15:28:20Z</time>
      </trkpt>
      <trkpt lat="45.69368" lon="6.67127">
        <ele>1814.3625488281</ele>
        <time>2019-08-09T15:28:23Z</time>
      </trkpt>
      <trkpt lat="45.69367" lon="6.67119">
        <ele>1814.4417724609</ele>
        <time>2019-08-09T15:28:26Z</time>
      </trkpt>
      <trkpt lat="45.69363" lon="6.67114">
        <ele>1814.7602539062</ele>
        <time>2019-08-09T15:28:30Z</time>
      </trkpt>
      <trkpt lat="45.69361" lon="6.67111">
        <ele>1815.0528564453</ele>
        <time>2019-08-09T15:28:33Z</time>
      </trkpt>
      <trkpt lat="45.69357" lon="6.67105">
        <ele>1815.6416015625</ele>
        <time>2019-08-09T15:28:37Z</time>
      </trkpt>
      <trkpt lat="45.69355" lon="6.671">
        <ele>1816.0433349609</ele>
        <time>2019-08-09T15:28:40Z</time>
      </trkpt>
      <trkpt lat="45.69352" lon="6.67095">
        <ele>1816.5240478516</ele>
        <time>2019-08-09T15:28:44Z</time>
      </trkpt>
      <trkpt lat="45.69351" lon="6.67092">
        <ele>1816.76953125</ele>
        <time>2019-08-09T15:28:46Z</time>
      </trkpt>
      <trkpt lat="45.6935" lon="6.67085">
        <ele>1817.1728515625</ele>
        <time>2019-08-09T15:28:50Z</time>
      </trkpt>
      <trkpt lat="45.69348" lon="6.67078">
        <ele>1817.4959716797</ele>
        <time>2019-08-09T15:28:54Z</time>
      </trkpt>
      <trkpt lat="45.69346" lon="6.67073">
        <ele>1817.8089599609</ele>
        <time>2019-08-09T15:28:57Z</time>
      </trkpt>
      <trkpt lat="45.69345" lon="6.67069">
        <ele>1817.9555664062</ele>
        <time>2019-08-09T15:29:00Z</time>
      </trkpt>
      <trkpt lat="45.69343" lon="6.67062">
        <ele>1818.2414550781</ele>
        <time>2019-08-09T15:29:04Z</time>
      </trkpt>
      <trkpt lat="45.69339" lon="6.67057">
        <ele>1818.5582275391</ele>
        <time>2019-08-09T15:29:08Z</time>
      </trkpt>
      <trkpt lat="45.69336" lon="6.67053">
        <ele>1818.9479980469</ele>
        <time>2019-08-09T15:29:12Z</time>
      </trkpt>
      <trkpt lat="45.6933" lon="6.67048">
        <ele>1819.5501708984</ele>
        <time>2019-08-09T15:29:18Z</time>
      </trkpt>
      <trkpt lat="45.69326" lon="6.67044">
        <ele>1820.1553955078</ele>
        <time>2019-08-09T15:29:23Z</time>
      </trkpt>
      <trkpt lat="45.69323" lon="6.67041">
        <ele>1820.6873779297</ele>
        <time>2019-08-09T15:29:27Z</time>
      </trkpt>
      <trkpt lat="45.6932" lon="6.67034">
        <ele>1821.5502929688</ele>
        <time>2019-08-09T15:29:33Z</time>
      </trkpt>
      <trkpt lat="45.69317" lon="6.67028">
        <ele>1822.3204345703</ele>
        <time>2019-08-09T15:29:37Z</time>
      </trkpt>
      <trkpt lat="45.69314" lon="6.67021">
        <ele>1822.6136474609</ele>
        <time>2019-08-09T15:29:42Z</time>
      </trkpt>
      <trkpt lat="45.69311" lon="6.67015">
        <ele>1823.0115966797</ele>
        <time>2019-08-09T15:29:47Z</time>
      </trkpt>
      <trkpt lat="45.69307" lon="6.67009">
        <ele>1823.6605224609</ele>
        <time>2019-08-09T15:29:52Z</time>
      </trkpt>
      <trkpt lat="45.69304" lon="6.67005">
        <ele>1824.4272460938</ele>
        <time>2019-08-09T15:29:56Z</time>
      </trkpt>
      <trkpt lat="45.69299" lon="6.67004">
        <ele>1825.3935546875</ele>
        <time>2019-08-09T15:30:00Z</time>
      </trkpt>
      <trkpt lat="45.69296" lon="6.67004">
        <ele>1826.1236572266</ele>
        <time>2019-08-09T15:30:03Z</time>
      </trkpt>
      <trkpt lat="45.69292" lon="6.67004">
        <ele>1826.7593994141</ele>
        <time>2019-08-09T15:30:06Z</time>
      </trkpt>
      <trkpt lat="45.69287" lon="6.67004">
        <ele>1827.8839111328</ele>
        <time>2019-08-09T15:30:11Z</time>
      </trkpt>
      <trkpt lat="45.69283" lon="6.67003">
        <ele>1828.8961181641</ele>
        <time>2019-08-09T15:30:16Z</time>
      </trkpt>
    </trkseg>
  </trk>
</gpx>